PWSweather.com
Personal Weather Stations
Station Observations
ESTGRALPAZ
Santa Fe, Santa FeAR 3000

Santa FeSanta FeAR 3000

Lat: -31.6280555556, Lon: -60.6908333333

Elevation: 69

Station Type: WH1081

http://www.estaciongralpaz.com.ar

High Low Average
Temperature 79.3°F26.3°C 61.5°F16.4°C 69.8°F21.0°C
Dew Point 48.6°F9.2°C 29.0°F-1.7°C 39.6°F4.2°C
Winds 13.6 mph 21.9 kmh Calm Calm 5.0 mph SE8.0 kmh SE
Wind Gusts 19.7 mph31.7 kmh -- 11.0 mph17.7 kmh
Humidity 62% 16% 36%
Pressure 29.90 in1012.5 mb 29.72 in1006.4 mb -
Precipitation 0.00 in0.0 mm - -
Hour Temp Dew Point Humidity Winds Wind Gusts Pressure Precip Precip Rate Daily Precip Total
12:00 AM 68.5°F20.3°C 43.9°F6.6°C 41% 5.4 mph SW8.7 kmh SW 12.1 mph19.5 kmh 29.78 in1008.5 mb 0.00 in0.0 mm 0.00 in0.0 mm 0.00 in0.0 mm
12:01 AM 68.5°F20.3°C 43.9°F6.6°C 41% 5.4 mph SSW8.7 kmh SSW 12.1 mph19.5 kmh 29.78 in1008.5 mb 0.00 in0.0 mm 0.00 in0.0 mm 0.00 in0.0 mm
12:02 AM 68.5°F20.3°C 41.9°F5.5°C 38% 11.4 mph SSW18.3 kmh SSW 15.2 mph24.5 kmh 29.78 in1008.5 mb 0.00 in0.0 mm 0.00 in0.0 mm 0.00 in0.0 mm
12:03 AM 68.5°F20.3°C 41.9°F5.5°C 38% 11.4 mph SSW18.3 kmh SSW 15.2 mph24.5 kmh 29.78 in1008.5 mb 0.00 in0.0 mm 0.00 in0.0 mm 0.00 in0.0 mm
12:04 AM 68.5°F20.3°C 41.9°F5.5°C 38% 11.4 mph S18.3 kmh S 15.2 mph24.5 kmh 29.78 in1008.5 mb 0.00 in0.0 mm 0.00 in0.0 mm 0.00 in0.0 mm
12:05 AM 68.5°F20.3°C 41.9°F5.5°C 38% 11.4 mph S18.3 kmh S 15.2 mph24.5 kmh 29.78 in1008.5 mb 0.00 in0.0 mm 0.00 in0.0 mm 0.00 in0.0 mm
12:06 AM 68.5°F20.3°C 41.9°F5.5°C 38% 11.4 mph S18.3 kmh S 15.2 mph24.5 kmh 29.78 in1008.5 mb 0.00 in0.0 mm 0.00 in0.0 mm 0.00 in0.0 mm
12:07 AM 68.5°F20.3°C 41.9°F5.5°C 38% 11.4 mph S18.3 kmh S 15.2 mph24.5 kmh 29.78 in1008.5 mb 0.00 in0.0 mm 0.00 in0.0 mm 0.00 in0.0 mm
12:08 AM 68.4°F20.2°C 41.1°F5.1°C 37% 7.6 mph S12.2 kmh S 15.2 mph24.5 kmh 29.78 in1008.5 mb 0.00 in0.0 mm 0.00 in0.0 mm 0.00 in0.0 mm
12:09 AM 68.4°F20.2°C 41.1°F5.1°C 37% 7.6 mph S12.2 kmh S 15.2 mph24.5 kmh 29.78 in1008.5 mb 0.00 in0.0 mm 0.00 in0.0 mm 0.00 in0.0 mm
12:10 AM 68.4°F20.2°C 41.1°F5.1°C 37% 7.6 mph S12.2 kmh S 15.2 mph24.5 kmh 29.79 in1008.8 mb 0.00 in0.0 mm 0.00 in0.0 mm 0.00 in0.0 mm
12:11 AM 68.4°F20.2°C 41.1°F5.1°C 37% 7.6 mph S12.2 kmh S 15.2 mph24.5 kmh 29.78 in1008.5 mb 0.00 in0.0 mm 0.00 in0.0 mm 0.00 in0.0 mm
12:12 AM 68.2°F20.1°C 40.2°F4.6°C 36% 9.2 mph S14.8 kmh S 15.2 mph24.5 kmh 29.78 in1008.5 mb 0.00 in0.0 mm 0.00 in0.0 mm 0.00 in0.0 mm
12:13 AM 68.2°F20.1°C 40.2°F4.6°C 36% 8.3 mph S13.4 kmh S 15.2 mph24.5 kmh 29.78 in1008.5 mb 0.00 in0.0 mm 0.00 in0.0 mm 0.00 in0.0 mm
12:14 AM 68.2°F20.1°C 40.2°F4.6°C 36% 8.3 mph S13.4 kmh S 15.2 mph24.5 kmh 29.79 in1008.8 mb 0.00 in0.0 mm 0.00 in0.0 mm 0.00 in0.0 mm
12:15 AM 68.2°F20.1°C 40.2°F4.6°C 36% 10.7 mph S17.2 kmh S 15.2 mph24.5 kmh 29.79 in1008.8 mb 0.00 in0.0 mm 0.00 in0.0 mm 0.00 in0.0 mm
12:16 AM 68.2°F20.1°C 40.2°F4.6°C 36% 10.7 mph S17.2 kmh S 15.2 mph24.5 kmh 29.78 in1008.5 mb 0.00 in0.0 mm 0.00 in0.0 mm 0.00 in0.0 mm
12:17 AM 68.2°F20.1°C 40.2°F4.6°C 36% 10.7 mph S17.2 kmh S 15.2 mph24.5 kmh 29.79 in1008.8 mb 0.00 in0.0 mm 0.00 in0.0 mm 0.00 in0.0 mm
12:18 AM 68.0°F20.0°C 40.1°F4.5°C 36% 9.8 mph S15.8 kmh S 17.4 mph28.0 kmh 29.80 in1009.1 mb 0.00 in0.0 mm 0.00 in0.0 mm 0.00 in0.0 mm
12:19 AM 68.0°F20.0°C 40.1°F4.5°C 36% 9.8 mph S15.8 kmh S 17.4 mph28.0 kmh 29.79 in1008.8 mb 0.00 in0.0 mm 0.00 in0.0 mm 0.00 in0.0 mm
12:20 AM 68.0°F20.0°C 40.1°F4.5°C 36% 9.8 mph S15.8 kmh S 17.4 mph28.0 kmh 29.79 in1008.8 mb 0.00 in0.0 mm 0.00 in0.0 mm 0.00 in0.0 mm
12:21 AM 68.0°F20.0°C 40.8°F4.9°C 37% 9.8 mph S15.8 kmh S 17.4 mph28.0 kmh 29.79 in1008.8 mb 0.00 in0.0 mm 0.00 in0.0 mm 0.00 in0.0 mm
12:22 AM 68.0°F20.0°C 40.8°F4.9°C 37% 9.2 mph S14.8 kmh S 17.4 mph28.0 kmh 29.78 in1008.5 mb 0.00 in0.0 mm 0.00 in0.0 mm 0.00 in0.0 mm
12:23 AM 67.8°F19.9°C 41.3°F5.2°C 38% 8.3 mph SSW13.4 kmh SSW 17.4 mph28.0 kmh 29.79 in1008.8 mb 0.00 in0.0 mm 0.00 in0.0 mm 0.00 in0.0 mm
12:24 AM 67.8°F19.9°C 41.3°F5.2°C 38% 7.6 mph SSW12.2 kmh SSW 17.4 mph28.0 kmh 29.79 in1008.8 mb 0.00 in0.0 mm 0.00 in0.0 mm 0.00 in0.0 mm
12:25 AM 67.8°F19.9°C 41.3°F5.2°C 38% 8.3 mph SSW13.4 kmh SSW 17.4 mph28.0 kmh 29.79 in1008.8 mb 0.00 in0.0 mm 0.00 in0.0 mm 0.00 in0.0 mm
12:26 AM 67.8°F19.9°C 40.6°F4.8°C 37% 7.6 mph SSW12.2 kmh SSW 17.4 mph28.0 kmh 29.79 in1008.8 mb 0.00 in0.0 mm 0.00 in0.0 mm 0.00 in0.0 mm
12:27 AM 67.6°F19.8°C 40.5°F4.7°C 37% 8.3 mph SSW13.4 kmh SSW 17.4 mph28.0 kmh 29.79 in1008.8 mb 0.00 in0.0 mm 0.00 in0.0 mm 0.00 in0.0 mm
12:28 AM 67.6°F19.8°C 39.8°F4.3°C 36% 5.4 mph SSW8.7 kmh SSW 17.4 mph28.0 kmh 29.80 in1009.1 mb 0.00 in0.0 mm 0.00 in0.0 mm 0.00 in0.0 mm
12:29 AM 67.6°F19.8°C 39.8°F4.3°C 36% 4.5 mph S7.2 kmh S 17.4 mph28.0 kmh 29.79 in1008.8 mb 0.00 in0.0 mm 0.00 in0.0 mm 0.00 in0.0 mm
12:30 AM 67.6°F19.8°C 39.8°F4.3°C 36% 8.3 mph S13.4 kmh S 17.4 mph28.0 kmh 29.79 in1008.8 mb 0.00 in0.0 mm 0.00 in0.0 mm 0.00 in0.0 mm
12:31 AM 67.6°F19.8°C 39.8°F4.3°C 36% 8.3 mph S13.4 kmh S 17.4 mph28.0 kmh 29.80 in1009.1 mb 0.00 in0.0 mm 0.00 in0.0 mm 0.00 in0.0 mm
12:32 AM 67.6°F19.8°C 39.8°F4.3°C 36% 8.3 mph SSW13.4 kmh SSW 17.4 mph28.0 kmh 29.80 in1009.1 mb 0.00 in0.0 mm 0.00 in0.0 mm 0.00 in0.0 mm
12:33 AM 67.6°F19.8°C 39.8°F4.3°C 36% 5.4 mph SSW8.7 kmh SSW 17.4 mph28.0 kmh 29.80 in1009.1 mb 0.00 in0.0 mm 0.00 in0.0 mm 0.00 in0.0 mm
12:34 AM 67.6°F19.8°C 39.8°F4.3°C 36% 8.3 mph SSW13.4 kmh SSW 17.4 mph28.0 kmh 29.80 in1009.1 mb 0.00 in0.0 mm 0.00 in0.0 mm 0.00 in0.0 mm
12:35 AM 67.6°F19.8°C 39.8°F4.3°C 36% 9.8 mph SSW15.8 kmh SSW 17.4 mph28.0 kmh 29.80 in1009.1 mb 0.00 in0.0 mm 0.00 in0.0 mm 0.00 in0.0 mm
12:36 AM 67.6°F19.8°C 39.8°F4.3°C 36% 5.4 mph S8.7 kmh S 17.4 mph28.0 kmh 29.80 in1009.1 mb 0.00 in0.0 mm 0.00 in0.0 mm 0.00 in0.0 mm
12:37 AM 67.6°F19.8°C 39.8°F4.3°C 36% 5.4 mph S8.7 kmh S 15.9 mph25.6 kmh 29.80 in1009.1 mb 0.00 in0.0 mm 0.00 in0.0 mm 0.00 in0.0 mm
12:38 AM 67.5°F19.7°C 39.6°F4.2°C 36% 7.6 mph SSW12.2 kmh SSW 15.9 mph25.6 kmh 29.80 in1009.1 mb 0.00 in0.0 mm 0.00 in0.0 mm 0.00 in0.0 mm
12:39 AM 67.5°F19.7°C 39.6°F4.2°C 36% 9.8 mph S15.8 kmh S 15.9 mph25.6 kmh 29.80 in1009.1 mb 0.00 in0.0 mm 0.00 in0.0 mm 0.00 in0.0 mm
12:40 AM 67.5°F19.7°C 39.6°F4.2°C 36% 7.6 mph S12.2 kmh S 15.9 mph25.6 kmh 29.80 in1009.1 mb 0.00 in0.0 mm 0.00 in0.0 mm 0.00 in0.0 mm
12:41 AM 67.3°F19.6°C 40.1°F4.5°C 37% 8.3 mph S13.4 kmh S 16.8 mph27.0 kmh 29.80 in1009.1 mb 0.00 in0.0 mm 0.00 in0.0 mm 0.00 in0.0 mm
12:42 AM 67.3°F19.6°C 40.1°F4.5°C 37% 9.8 mph S15.8 kmh S 16.8 mph27.0 kmh 29.80 in1009.1 mb 0.00 in0.0 mm 0.00 in0.0 mm 0.00 in0.0 mm
12:43 AM 67.3°F19.6°C 40.1°F4.5°C 37% 7.6 mph S12.2 kmh S 16.8 mph27.0 kmh 29.80 in1009.1 mb 0.00 in0.0 mm 0.00 in0.0 mm 0.00 in0.0 mm
12:44 AM 67.3°F19.6°C 40.1°F4.5°C 37% 9.8 mph S15.8 kmh S 16.8 mph27.0 kmh 29.80 in1009.1 mb 0.00 in0.0 mm 0.00 in0.0 mm 0.00 in0.0 mm
12:45 AM 67.3°F19.6°C 40.1°F4.5°C 37% 7.6 mph S12.2 kmh S 16.8 mph27.0 kmh 29.80 in1009.1 mb 0.00 in0.0 mm 0.00 in0.0 mm 0.00 in0.0 mm
12:46 AM 67.3°F19.6°C 40.1°F4.5°C 37% 4.5 mph S7.2 kmh S 16.8 mph27.0 kmh 29.80 in1009.1 mb 0.00 in0.0 mm 0.00 in0.0 mm 0.00 in0.0 mm
12:47 AM 67.1°F19.5°C 40.7°F4.8°C 38% 5.4 mph S8.7 kmh S 16.8 mph27.0 kmh 29.80 in1009.1 mb 0.00 in0.0 mm 0.00 in0.0 mm 0.00 in0.0 mm
12:48 AM 67.1°F19.5°C 40.7°F4.8°C 38% 5.4 mph S8.7 kmh S 16.8 mph27.0 kmh 29.80 in1009.1 mb 0.00 in0.0 mm 0.00 in0.0 mm 0.00 in0.0 mm
12:49 AM 67.1°F19.5°C 40.7°F4.8°C 38% 8.3 mph S13.4 kmh S 16.8 mph27.0 kmh 29.81 in1009.5 mb 0.00 in0.0 mm 0.00 in0.0 mm 0.00 in0.0 mm
12:50 AM 67.1°F19.5°C 40.7°F4.8°C 38% 5.4 mph S8.7 kmh S 16.8 mph27.0 kmh 29.81 in1009.5 mb 0.00 in0.0 mm 0.00 in0.0 mm 0.00 in0.0 mm
12:51 AM 66.9°F19.4°C 40.5°F4.7°C 38% 4.5 mph S7.2 kmh S 15.9 mph25.6 kmh 29.81 in1009.5 mb 0.00 in0.0 mm 0.00 in0.0 mm 0.00 in0.0 mm
12:52 AM 66.9°F19.4°C 40.5°F4.7°C 38% 7.6 mph S12.2 kmh S 14.5 mph23.3 kmh 29.81 in1009.5 mb 0.00 in0.0 mm 0.00 in0.0 mm 0.00 in0.0 mm
12:53 AM 66.9°F19.4°C 41.2°F5.1°C 39% 3.1 mph S5.0 kmh S 14.5 mph23.3 kmh 29.80 in1009.1 mb 0.00 in0.0 mm 0.00 in0.0 mm 0.00 in0.0 mm
12:54 AM 66.9°F19.4°C 41.2°F5.1°C 39% 4.5 mph S7.2 kmh S 14.5 mph23.3 kmh 29.81 in1009.5 mb 0.00 in0.0 mm 0.00 in0.0 mm 0.00 in0.0 mm
12:55 AM 66.7°F19.3°C 41.0°F5.0°C 39% 6.0 mph S9.7 kmh S 13.0 mph20.9 kmh 29.80 in1009.1 mb 0.00 in0.0 mm 0.00 in0.0 mm 0.00 in0.0 mm
12:56 AM 66.7°F19.3°C 41.0°F5.0°C 39% 3.8 mph SSE6.1 kmh SSE 13.0 mph20.9 kmh 29.80 in1009.1 mb 0.00 in0.0 mm 0.00 in0.0 mm 0.00 in0.0 mm
12:57 AM 66.7°F19.3°C 41.0°F5.0°C 39% 9.2 mph SSE14.8 kmh SSE 13.0 mph20.9 kmh 29.80 in1009.1 mb 0.00 in0.0 mm 0.00 in0.0 mm 0.00 in0.0 mm
12:58 AM 66.7°F19.3°C 41.7°F5.4°C 40% 6.9 mph SSE11.1 kmh SSE 13.0 mph20.9 kmh 29.80 in1009.1 mb 0.00 in0.0 mm 0.00 in0.0 mm 0.00 in0.0 mm
12:59 AM 66.6°F19.2°C 41.5°F5.3°C 40% 7.6 mph S12.2 kmh S 13.0 mph20.9 kmh 29.80 in1009.1 mb 0.00 in0.0 mm 0.00 in0.0 mm 0.00 in0.0 mm
01:00 AM 66.6°F19.2°C 41.5°F5.3°C 40% 9.8 mph S15.8 kmh S 13.0 mph20.9 kmh 29.80 in1009.1 mb 0.00 in0.0 mm 0.00 in0.0 mm 0.00 in0.0 mm
01:01 AM 66.6°F19.2°C 41.5°F5.3°C 40% 7.6 mph S12.2 kmh S 13.0 mph20.9 kmh 29.80 in1009.1 mb 0.00 in0.0 mm 0.00 in0.0 mm 0.00 in0.0 mm
01:02 AM 66.6°F19.2°C 41.5°F5.3°C 40% 5.4 mph S8.7 kmh S 13.0 mph20.9 kmh 29.80 in1009.1 mb 0.00 in0.0 mm 0.00 in0.0 mm 0.00 in0.0 mm
01:03 AM 66.6°F19.2°C 42.1°F5.6°C 41% 3.8 mph S6.1 kmh S 13.0 mph20.9 kmh 29.80 in1009.1 mb 0.00 in0.0 mm 0.00 in0.0 mm 0.00 in0.0 mm
01:04 AM 66.6°F19.2°C 42.1°F5.6°C 41% 5.4 mph S8.7 kmh S 13.0 mph20.9 kmh 29.80 in1009.1 mb 0.00 in0.0 mm 0.00 in0.0 mm 0.00 in0.0 mm
01:05 AM 66.4°F19.1°C 42.0°F5.6°C 41% 4.5 mph S7.2 kmh S 13.0 mph20.9 kmh 29.80 in1009.1 mb 0.00 in0.0 mm 0.00 in0.0 mm 0.00 in0.0 mm
01:06 AM 66.4°F19.1°C 42.0°F5.6°C 41% 3.8 mph S6.1 kmh S 13.0 mph20.9 kmh 29.81 in1009.5 mb 0.00 in0.0 mm 0.00 in0.0 mm 0.00 in0.0 mm
01:07 AM 66.4°F19.1°C 42.0°F5.6°C 41% 5.4 mph S8.7 kmh S 13.0 mph20.9 kmh 29.80 in1009.1 mb 0.00 in0.0 mm 0.00 in0.0 mm 0.00 in0.0 mm
01:08 AM 66.4°F19.1°C 42.0°F5.6°C 41% 6.0 mph S9.7 kmh S 13.0 mph20.9 kmh 29.80 in1009.1 mb 0.00 in0.0 mm 0.00 in0.0 mm 0.00 in0.0 mm
01:09 AM 66.4°F19.1°C 42.0°F5.6°C 41% 6.0 mph S9.7 kmh S 13.0 mph20.9 kmh 29.80 in1009.1 mb 0.00 in0.0 mm 0.00 in0.0 mm 0.00 in0.0 mm
01:10 AM 66.2°F19.0°C 41.8°F5.4°C 41% 5.4 mph S8.7 kmh S 13.0 mph20.9 kmh 29.80 in1009.1 mb 0.00 in0.0 mm 0.00 in0.0 mm 0.00 in0.0 mm
01:11 AM 66.2°F19.0°C 42.5°F5.8°C 42% 5.4 mph S8.7 kmh S 9.8 mph15.8 kmh 29.80 in1009.1 mb 0.00 in0.0 mm 0.00 in0.0 mm 0.00 in0.0 mm
01:12 AM 66.2°F19.0°C 42.5°F5.8°C 42% 6.0 mph S9.7 kmh S 9.8 mph15.8 kmh 29.80 in1009.1 mb 0.00 in0.0 mm 0.00 in0.0 mm 0.00 in0.0 mm
01:13 AM 66.0°F18.9°C 43.5°F6.4°C 44% 3.1 mph SSE5.0 kmh SSE 9.8 mph15.8 kmh 29.80 in1009.1 mb 0.00 in0.0 mm 0.00 in0.0 mm 0.00 in0.0 mm
01:14 AM 66.0°F18.9°C 43.5°F6.4°C 44% 4.5 mph SSE7.2 kmh SSE 9.8 mph15.8 kmh 29.80 in1009.1 mb 0.00 in0.0 mm 0.00 in0.0 mm 0.00 in0.0 mm
01:15 AM 65.8°F18.8°C 43.9°F6.6°C 45% 5.4 mph SSE8.7 kmh SSE 9.8 mph15.8 kmh 29.80 in1009.1 mb 0.00 in0.0 mm 0.00 in0.0 mm 0.00 in0.0 mm
01:16 AM 65.8°F18.8°C 43.9°F6.6°C 45% 6.0 mph SSE9.7 kmh SSE 9.8 mph15.8 kmh 29.80 in1009.1 mb 0.00 in0.0 mm 0.00 in0.0 mm 0.00 in0.0 mm
01:17 AM 65.8°F18.8°C 43.3°F6.3°C 44% 6.0 mph SSE9.7 kmh SSE 9.8 mph15.8 kmh 29.80 in1009.1 mb 0.00 in0.0 mm 0.00 in0.0 mm 0.00 in0.0 mm
01:18 AM 65.8°F18.8°C 43.3°F6.3°C 44% 4.5 mph SSE7.2 kmh SSE 9.8 mph15.8 kmh 29.80 in1009.1 mb 0.00 in0.0 mm 0.00 in0.0 mm 0.00 in0.0 mm
01:19 AM 65.8°F18.8°C 43.3°F6.3°C 44% 6.0 mph SSE9.7 kmh SSE 9.8 mph15.8 kmh 29.80 in1009.1 mb 0.00 in0.0 mm 0.00 in0.0 mm 0.00 in0.0 mm
01:20 AM 65.8°F18.8°C 43.3°F6.3°C 44% 7.6 mph SSE12.2 kmh SSE 11.4 mph18.3 kmh 29.80 in1009.1 mb 0.00 in0.0 mm 0.00 in0.0 mm 0.00 in0.0 mm
01:21 AM 65.7°F18.7°C 43.8°F6.6°C 45% 6.0 mph SSE9.7 kmh SSE 11.4 mph18.3 kmh 29.80 in1009.1 mb 0.00 in0.0 mm 0.00 in0.0 mm 0.00 in0.0 mm
01:22 AM 65.7°F18.7°C 43.8°F6.6°C 45% 8.3 mph SSE13.4 kmh SSE 12.1 mph19.5 kmh 29.80 in1009.1 mb 0.00 in0.0 mm 0.00 in0.0 mm 0.00 in0.0 mm
01:23 AM 65.7°F18.7°C 43.2°F6.2°C 44% 5.4 mph S8.7 kmh S 12.1 mph19.5 kmh 29.80 in1009.1 mb 0.00 in0.0 mm 0.00 in0.0 mm 0.00 in0.0 mm
01:24 AM 65.7°F18.7°C 43.2°F6.2°C 44% 9.8 mph S15.8 kmh S 13.6 mph21.9 kmh 29.80 in1009.1 mb 0.00 in0.0 mm 0.00 in0.0 mm 0.00 in0.0 mm
01:25 AM 65.7°F18.7°C 42.6°F5.9°C 43% 9.8 mph SSE15.8 kmh SSE 15.9 mph25.6 kmh 29.81 in1009.5 mb 0.00 in0.0 mm 0.00 in0.0 mm 0.00 in0.0 mm
01:26 AM 65.7°F18.7°C 41.3°F5.2°C 41% 5.4 mph SSE8.7 kmh SSE 15.9 mph25.6 kmh 29.80 in1009.1 mb 0.00 in0.0 mm 0.00 in0.0 mm 0.00 in0.0 mm
01:27 AM 65.8°F18.8°C 40.9°F4.9°C 40% 6.0 mph S9.7 kmh S 15.9 mph25.6 kmh 29.81 in1009.5 mb 0.00 in0.0 mm 0.00 in0.0 mm 0.00 in0.0 mm
01:28 AM 65.8°F18.8°C 40.9°F4.9°C 40% 6.0 mph S9.7 kmh S 15.9 mph25.6 kmh 29.80 in1009.1 mb 0.00 in0.0 mm 0.00 in0.0 mm 0.00 in0.0 mm
01:29 AM 65.8°F18.8°C 40.9°F4.9°C 40% 6.9 mph S11.1 kmh S 15.9 mph25.6 kmh 29.80 in1009.1 mb 0.00 in0.0 mm 0.00 in0.0 mm 0.00 in0.0 mm
01:30 AM 65.8°F18.8°C 40.9°F4.9°C 40% 8.3 mph S13.4 kmh S 15.9 mph25.6 kmh 29.80 in1009.1 mb 0.00 in0.0 mm 0.00 in0.0 mm 0.00 in0.0 mm
01:31 AM 65.8°F18.8°C 40.2°F4.6°C 39% 5.4 mph S8.7 kmh S 15.9 mph25.6 kmh 29.81 in1009.5 mb 0.00 in0.0 mm 0.00 in0.0 mm 0.00 in0.0 mm
01:32 AM 65.8°F18.8°C 40.2°F4.6°C 39% 8.3 mph S13.4 kmh S 15.9 mph25.6 kmh 29.81 in1009.5 mb 0.00 in0.0 mm 0.00 in0.0 mm 0.00 in0.0 mm
01:33 AM 65.8°F18.8°C 40.2°F4.6°C 39% 5.4 mph S8.7 kmh S 15.9 mph25.6 kmh 29.81 in1009.5 mb 0.00 in0.0 mm 0.00 in0.0 mm 0.00 in0.0 mm
01:34 AM 65.8°F18.8°C 40.2°F4.6°C 39% 5.4 mph S8.7 kmh S 15.9 mph25.6 kmh 29.80 in1009.1 mb 0.00 in0.0 mm 0.00 in0.0 mm 0.00 in0.0 mm
01:35 AM 65.8°F18.8°C 40.2°F4.6°C 39% 5.4 mph S8.7 kmh S 15.2 mph24.5 kmh 29.81 in1009.5 mb 0.00 in0.0 mm 0.00 in0.0 mm 0.00 in0.0 mm
01:36 AM 65.8°F18.8°C 40.2°F4.6°C 39% 5.4 mph S8.7 kmh S 15.2 mph24.5 kmh 29.81 in1009.5 mb 0.00 in0.0 mm 0.00 in0.0 mm 0.00 in0.0 mm
01:37 AM 65.7°F18.7°C 40.7°F4.8°C 40% 4.5 mph S7.2 kmh S 15.2 mph24.5 kmh 29.82 in1009.8 mb 0.00 in0.0 mm 0.00 in0.0 mm 0.00 in0.0 mm
01:38 AM 65.7°F18.7°C 40.7°F4.8°C 40% 6.0 mph S9.7 kmh S 15.2 mph24.5 kmh 29.81 in1009.5 mb 0.00 in0.0 mm 0.00 in0.0 mm 0.00 in0.0 mm
01:39 AM 65.7°F18.7°C 40.1°F4.5°C 39% 7.6 mph S12.2 kmh S 15.2 mph24.5 kmh 29.81 in1009.5 mb 0.00 in0.0 mm 0.00 in0.0 mm 0.00 in0.0 mm
01:40 AM 65.7°F18.7°C 40.1°F4.5°C 39% 5.4 mph S8.7 kmh S 15.2 mph24.5 kmh 29.81 in1009.5 mb 0.00 in0.0 mm 0.00 in0.0 mm 0.00 in0.0 mm
01:41 AM 65.7°F18.7°C 40.1°F4.5°C 39% 9.2 mph S14.8 kmh S 15.2 mph24.5 kmh 29.81 in1009.5 mb 0.00 in0.0 mm 0.00 in0.0 mm 0.00 in0.0 mm
01:42 AM 65.7°F18.7°C 40.1°F4.5°C 39% 6.0 mph S9.7 kmh S 15.2 mph24.5 kmh 29.82 in1009.8 mb 0.00 in0.0 mm 0.00 in0.0 mm 0.00 in0.0 mm
01:43 AM 65.7°F18.7°C 40.1°F4.5°C 39% 9.2 mph S14.8 kmh S 13.6 mph21.9 kmh 29.81 in1009.5 mb 0.00 in0.0 mm 0.00 in0.0 mm 0.00 in0.0 mm
01:44 AM 65.5°F18.6°C 39.9°F4.4°C 39% 8.3 mph S13.4 kmh S 13.6 mph21.9 kmh 29.81 in1009.5 mb 0.00 in0.0 mm 0.00 in0.0 mm 0.00 in0.0 mm
01:45 AM 65.5°F18.6°C 39.9°F4.4°C 39% 13.0 mph S20.9 kmh S 16.8 mph27.0 kmh 29.82 in1009.8 mb 0.00 in0.0 mm 0.00 in0.0 mm 0.00 in0.0 mm
01:46 AM 65.3°F18.5°C 39.7°F4.3°C 39% 5.4 mph S8.7 kmh S 16.8 mph27.0 kmh 29.82 in1009.8 mb 0.00 in0.0 mm 0.00 in0.0 mm 0.00 in0.0 mm
01:47 AM 65.3°F18.5°C 39.7°F4.3°C 39% 6.9 mph S11.1 kmh S 16.8 mph27.0 kmh 29.82 in1009.8 mb 0.00 in0.0 mm 0.00 in0.0 mm 0.00 in0.0 mm
01:48 AM 65.3°F18.5°C 39.7°F4.3°C 39% 6.9 mph S11.1 kmh S 16.8 mph27.0 kmh 29.81 in1009.5 mb 0.00 in0.0 mm 0.00 in0.0 mm 0.00 in0.0 mm
01:49 AM 65.3°F18.5°C 39.7°F4.3°C 39% 6.9 mph SSW11.1 kmh SSW 16.8 mph27.0 kmh 29.82 in1009.8 mb 0.00 in0.0 mm 0.00 in0.0 mm 0.00 in0.0 mm
01:50 AM 65.3°F18.5°C 40.4°F4.7°C 40% 6.9 mph S11.1 kmh S 16.8 mph27.0 kmh 29.81 in1009.5 mb 0.00 in0.0 mm 0.00 in0.0 mm 0.00 in0.0 mm
01:51 AM 65.1°F18.4°C 40.2°F4.6°C 40% 5.4 mph SSW8.7 kmh SSW 16.8 mph27.0 kmh 29.82 in1009.8 mb 0.00 in0.0 mm 0.00 in0.0 mm 0.00 in0.0 mm
01:52 AM 65.1°F18.4°C 40.2°F4.6°C 40% 5.4 mph S8.7 kmh S 16.8 mph27.0 kmh 29.82 in1009.8 mb 0.00 in0.0 mm 0.00 in0.0 mm 0.00 in0.0 mm
01:53 AM 65.1°F18.4°C 40.2°F4.6°C 40% 9.2 mph SSW14.8 kmh SSW 16.8 mph27.0 kmh 29.82 in1009.8 mb 0.00 in0.0 mm 0.00 in0.0 mm 0.00 in0.0 mm
01:54 AM 65.1°F18.4°C 40.9°F4.9°C 41% 4.5 mph SSW7.2 kmh SSW 16.8 mph27.0 kmh 29.82 in1009.8 mb 0.00 in0.0 mm 0.00 in0.0 mm 0.00 in0.0 mm
01:55 AM 65.1°F18.4°C 40.9°F4.9°C 41% 3.8 mph S6.1 kmh S 12.1 mph19.5 kmh 29.82 in1009.8 mb 0.00 in0.0 mm 0.00 in0.0 mm 0.00 in0.0 mm
01:56 AM 65.1°F18.4°C 41.5°F5.3°C 42% 6.0 mph S9.7 kmh S 12.1 mph19.5 kmh 29.82 in1009.8 mb 0.00 in0.0 mm 0.00 in0.0 mm 0.00 in0.0 mm
01:57 AM 65.1°F18.4°C 41.5°F5.3°C 42% 3.1 mph S5.0 kmh S 12.1 mph19.5 kmh 29.82 in1009.8 mb 0.00 in0.0 mm 0.00 in0.0 mm 0.00 in0.0 mm
01:58 AM 64.9°F18.3°C 41.9°F5.5°C 43% 4.5 mph SSE7.2 kmh SSE 12.1 mph19.5 kmh 29.82 in1009.8 mb 0.00 in0.0 mm 0.00 in0.0 mm 0.00 in0.0 mm
01:59 AM 64.9°F18.3°C 41.9°F5.5°C 43% 7.6 mph SE12.2 kmh SE 15.2 mph24.5 kmh 29.82 in1009.8 mb 0.00 in0.0 mm 0.00 in0.0 mm 0.00 in0.0 mm
02:00 AM 64.9°F18.3°C 41.9°F5.5°C 43% 5.4 mph SSE8.7 kmh SSE 15.2 mph24.5 kmh 29.82 in1009.8 mb 0.00 in0.0 mm 0.00 in0.0 mm 0.00 in0.0 mm
02:01 AM 64.9°F18.3°C 41.9°F5.5°C 43% 8.3 mph SE13.4 kmh SE 15.2 mph24.5 kmh 29.82 in1009.8 mb 0.00 in0.0 mm 0.00 in0.0 mm 0.00 in0.0 mm
02:02 AM 64.9°F18.3°C 41.3°F5.2°C 42% 8.3 mph SE13.4 kmh SE 15.2 mph24.5 kmh 29.82 in1009.8 mb 0.00 in0.0 mm 0.00 in0.0 mm 0.00 in0.0 mm
02:03 AM 64.9°F18.3°C 41.3°F5.2°C 42% 6.9 mph SE11.1 kmh SE 15.2 mph24.5 kmh 29.82 in1009.8 mb 0.00 in0.0 mm 0.00 in0.0 mm 0.00 in0.0 mm
02:04 AM 64.9°F18.3°C 40.7°F4.8°C 41% 9.2 mph SE14.8 kmh SE 17.4 mph28.0 kmh 29.82 in1009.8 mb 0.00 in0.0 mm 0.00 in0.0 mm 0.00 in0.0 mm
02:05 AM 64.9°F18.3°C 40.7°F4.8°C 41% 9.2 mph SE14.8 kmh SE 17.4 mph28.0 kmh 29.82 in1009.8 mb 0.00 in0.0 mm 0.00 in0.0 mm 0.00 in0.0 mm
02:06 AM 64.9°F18.3°C 40.7°F4.8°C 41% 7.6 mph SE12.2 kmh SE 17.4 mph28.0 kmh 29.82 in1009.8 mb 0.00 in0.0 mm 0.00 in0.0 mm 0.00 in0.0 mm
02:07 AM 64.9°F18.3°C 40.7°F4.8°C 41% 5.4 mph SE8.7 kmh SE 17.4 mph28.0 kmh 29.82 in1009.8 mb 0.00 in0.0 mm 0.00 in0.0 mm 0.00 in0.0 mm
02:08 AM 64.9°F18.3°C 40.7°F4.8°C 41% 9.2 mph SSE14.8 kmh SSE 17.4 mph28.0 kmh 29.82 in1009.8 mb 0.00 in0.0 mm 0.00 in0.0 mm 0.00 in0.0 mm
02:09 AM 64.9°F18.3°C 40.7°F4.8°C 41% 9.2 mph SSE14.8 kmh SSE 17.4 mph28.0 kmh 29.82 in1009.8 mb 0.00 in0.0 mm 0.00 in0.0 mm 0.00 in0.0 mm
02:10 AM 64.9°F18.3°C 40.7°F4.8°C 41% 9.2 mph SSE14.8 kmh SSE 17.4 mph28.0 kmh 29.81 in1009.5 mb 0.00 in0.0 mm 0.00 in0.0 mm 0.00 in0.0 mm
02:11 AM 64.8°F18.2°C 40.5°F4.7°C 41% 3.8 mph SSE6.1 kmh SSE 17.4 mph28.0 kmh 29.82 in1009.8 mb 0.00 in0.0 mm 0.00 in0.0 mm 0.00 in0.0 mm
02:12 AM 64.8°F18.2°C 41.2°F5.1°C 42% 7.6 mph SSE12.2 kmh SSE 17.4 mph28.0 kmh 29.81 in1009.5 mb 0.00 in0.0 mm 0.00 in0.0 mm 0.00 in0.0 mm
02:13 AM 64.8°F18.2°C 41.2°F5.1°C 42% 7.6 mph SSE12.2 kmh SSE 17.4 mph28.0 kmh 29.82 in1009.8 mb 0.00 in0.0 mm 0.00 in0.0 mm 0.00 in0.0 mm
02:14 AM 64.8°F18.2°C 41.2°F5.1°C 42% 7.6 mph S12.2 kmh S 17.4 mph28.0 kmh 29.81 in1009.5 mb 0.00 in0.0 mm 0.00 in0.0 mm 0.00 in0.0 mm
02:15 AM 64.6°F18.1°C 41.6°F5.3°C 43% 3.8 mph S6.1 kmh S 15.2 mph24.5 kmh 29.82 in1009.8 mb 0.00 in0.0 mm 0.00 in0.0 mm 0.00 in0.0 mm
02:16 AM 64.6°F18.1°C 41.6°F5.3°C 43% 5.4 mph S8.7 kmh S 15.2 mph24.5 kmh 29.81 in1009.5 mb 0.00 in0.0 mm 0.00 in0.0 mm 0.00 in0.0 mm
02:17 AM 64.6°F18.1°C 41.6°F5.3°C 43% 5.4 mph S8.7 kmh S 15.2 mph24.5 kmh 29.82 in1009.8 mb 0.00 in0.0 mm 0.00 in0.0 mm 0.00 in0.0 mm
02:18 AM 64.6°F18.1°C 41.6°F5.3°C 43% 5.4 mph S8.7 kmh S 15.2 mph24.5 kmh 29.82 in1009.8 mb 0.00 in0.0 mm 0.00 in0.0 mm 0.00 in0.0 mm
02:19 AM 64.6°F18.1°C 41.6°F5.3°C 43% 7.6 mph S12.2 kmh S 15.2 mph24.5 kmh 29.82 in1009.8 mb 0.00 in0.0 mm 0.00 in0.0 mm 0.00 in0.0 mm
02:20 AM 64.6°F18.1°C 41.6°F5.3°C 43% 7.6 mph S12.2 kmh S 15.2 mph24.5 kmh 29.82 in1009.8 mb 0.00 in0.0 mm 0.00 in0.0 mm 0.00 in0.0 mm
02:21 AM 64.6°F18.1°C 41.6°F5.3°C 43% 7.6 mph S12.2 kmh S 11.4 mph18.3 kmh 29.82 in1009.8 mb 0.00 in0.0 mm 0.00 in0.0 mm 0.00 in0.0 mm
02:22 AM 64.6°F18.1°C 41.6°F5.3°C 43% 7.6 mph S12.2 kmh S 11.4 mph18.3 kmh 29.82 in1009.8 mb 0.00 in0.0 mm 0.00 in0.0 mm 0.00 in0.0 mm
02:23 AM 64.6°F18.1°C 41.6°F5.3°C 43% 7.6 mph SSE12.2 kmh SSE 11.4 mph18.3 kmh 29.82 in1009.8 mb 0.00 in0.0 mm 0.00 in0.0 mm 0.00 in0.0 mm
02:24 AM 64.4°F18.0°C 42.6°F5.9°C 45% 6.9 mph SSE11.1 kmh SSE 18.3 mph29.5 kmh 29.81 in1009.5 mb 0.00 in0.0 mm 0.00 in0.0 mm 0.00 in0.0 mm
02:25 AM 64.4°F18.0°C 42.6°F5.9°C 45% 8.3 mph SSE13.4 kmh SSE 18.3 mph29.5 kmh 29.82 in1009.8 mb 0.00 in0.0 mm 0.00 in0.0 mm 0.00 in0.0 mm
02:26 AM 64.4°F18.0°C 42.6°F5.9°C 45% 8.3 mph S13.4 kmh S 18.3 mph29.5 kmh 29.83 in1010.2 mb 0.00 in0.0 mm 0.00 in0.0 mm 0.00 in0.0 mm
02:27 AM 64.4°F18.0°C 42.6°F5.9°C 45% 9.2 mph S14.8 kmh S 18.3 mph29.5 kmh 29.82 in1009.8 mb 0.00 in0.0 mm 0.00 in0.0 mm 0.00 in0.0 mm
02:28 AM 64.4°F18.0°C 42.6°F5.9°C 45% 9.2 mph SSE14.8 kmh SSE 18.3 mph29.5 kmh 29.82 in1009.8 mb 0.00 in0.0 mm 0.00 in0.0 mm 0.00 in0.0 mm
02:29 AM 64.2°F17.9°C 41.9°F5.5°C 44% 8.3 mph SSE13.4 kmh SSE 18.3 mph29.5 kmh 29.82 in1009.8 mb 0.00 in0.0 mm 0.00 in0.0 mm 0.00 in0.0 mm
02:30 AM 64.2°F17.9°C 41.9°F5.5°C 44% 8.3 mph SSE13.4 kmh SSE 18.3 mph29.5 kmh 29.83 in1010.2 mb 0.00 in0.0 mm 0.00 in0.0 mm 0.00 in0.0 mm
02:31 AM 64.2°F17.9°C 42.5°F5.8°C 45% 6.0 mph SSE9.7 kmh SSE 18.3 mph29.5 kmh 29.83 in1010.2 mb 0.00 in0.0 mm 0.00 in0.0 mm 0.00 in0.0 mm
02:32 AM 64.2°F17.9°C 42.5°F5.8°C 45% 6.0 mph SSE9.7 kmh SSE 18.3 mph29.5 kmh 29.83 in1010.2 mb 0.00 in0.0 mm 0.00 in0.0 mm 0.00 in0.0 mm
02:33 AM 64.2°F17.9°C 42.5°F5.8°C 45% 4.5 mph SSE7.2 kmh SSE 18.3 mph29.5 kmh 29.83 in1010.2 mb 0.00 in0.0 mm 0.00 in0.0 mm 0.00 in0.0 mm
02:34 AM 64.0°F17.8°C 42.3°F5.7°C 45% 7.6 mph SSE12.2 kmh SSE 18.3 mph29.5 kmh 29.83 in1010.2 mb 0.00 in0.0 mm 0.00 in0.0 mm 0.00 in0.0 mm
02:35 AM 64.0°F17.8°C 41.7°F5.4°C 44% 3.1 mph SSE5.0 kmh SSE 15.2 mph24.5 kmh 29.83 in1010.2 mb 0.00 in0.0 mm 0.00 in0.0 mm 0.00 in0.0 mm
02:36 AM 64.0°F17.8°C 41.7°F5.4°C 44% 4.5 mph SSE7.2 kmh SSE 15.2 mph24.5 kmh 29.84 in1010.5 mb 0.00 in0.0 mm 0.00 in0.0 mm 0.00 in0.0 mm
02:37 AM 63.9°F17.7°C 42.1°F5.6°C 45% 6.0 mph SE9.7 kmh SE 15.2 mph24.5 kmh 29.84 in1010.5 mb 0.00 in0.0 mm 0.00 in0.0 mm 0.00 in0.0 mm
02:38 AM 63.9°F17.7°C 42.1°F5.6°C 45% 6.0 mph SE9.7 kmh SE 15.2 mph24.5 kmh 29.84 in1010.5 mb 0.00 in0.0 mm 0.00 in0.0 mm 0.00 in0.0 mm
02:39 AM 63.9°F17.7°C 42.7°F5.9°C 46% 7.6 mph SE12.2 kmh SE 15.2 mph24.5 kmh 29.84 in1010.5 mb 0.00 in0.0 mm 0.00 in0.0 mm 0.00 in0.0 mm
02:40 AM 63.9°F17.7°C 42.7°F5.9°C 46% 7.6 mph SSE12.2 kmh SSE 13.0 mph20.9 kmh 29.84 in1010.5 mb 0.00 in0.0 mm 0.00 in0.0 mm 0.00 in0.0 mm
02:41 AM 63.7°F17.6°C 42.0°F5.6°C 45% 3.8 mph SSE6.1 kmh SSE 13.0 mph20.9 kmh 29.84 in1010.5 mb 0.00 in0.0 mm 0.00 in0.0 mm 0.00 in0.0 mm
02:42 AM 63.7°F17.6°C 42.0°F5.6°C 45% 3.8 mph SSE6.1 kmh SSE 13.0 mph20.9 kmh 29.84 in1010.5 mb 0.00 in0.0 mm 0.00 in0.0 mm 0.00 in0.0 mm
02:43 AM 63.7°F17.6°C 42.0°F5.6°C 45% 9.2 mph SSE14.8 kmh SSE 14.5 mph23.3 kmh 29.84 in1010.5 mb 0.00 in0.0 mm 0.00 in0.0 mm 0.00 in0.0 mm
02:44 AM 63.5°F17.5°C 41.8°F5.4°C 45% 9.2 mph SE14.8 kmh SE 15.9 mph25.6 kmh 29.84 in1010.5 mb 0.00 in0.0 mm 0.00 in0.0 mm 0.00 in0.0 mm
02:45 AM 63.5°F17.5°C 41.8°F5.4°C 45% 9.2 mph SE14.8 kmh SE 15.9 mph25.6 kmh 29.84 in1010.5 mb 0.00 in0.0 mm 0.00 in0.0 mm 0.00 in0.0 mm
02:46 AM 63.5°F17.5°C 41.2°F5.1°C 44% 11.4 mph SE18.3 kmh SE 15.9 mph25.6 kmh 29.84 in1010.5 mb 0.00 in0.0 mm 0.00 in0.0 mm 0.00 in0.0 mm
02:47 AM 63.5°F17.5°C 41.2°F5.1°C 44% 3.1 mph SE5.0 kmh SE 15.9 mph25.6 kmh 29.84 in1010.5 mb 0.00 in0.0 mm 0.00 in0.0 mm 0.00 in0.0 mm
02:48 AM 63.5°F17.5°C 41.2°F5.1°C 44% 4.5 mph SE7.2 kmh SE 15.9 mph25.6 kmh 29.84 in1010.5 mb 0.00 in0.0 mm 0.00 in0.0 mm 0.00 in0.0 mm
02:49 AM 63.5°F17.5°C 41.8°F5.4°C 45% 6.9 mph SE11.1 kmh SE 15.9 mph25.6 kmh 29.84 in1010.5 mb 0.00 in0.0 mm 0.00 in0.0 mm 0.00 in0.0 mm
02:50 AM 63.5°F17.5°C 41.2°F5.1°C 44% 5.4 mph SE8.7 kmh SE 15.9 mph25.6 kmh 29.84 in1010.5 mb 0.00 in0.0 mm 0.00 in0.0 mm 0.00 in0.0 mm
02:51 AM 63.3°F17.4°C 41.1°F5.1°C 44% 6.9 mph SE11.1 kmh SE 15.9 mph25.6 kmh 29.84 in1010.5 mb 0.00 in0.0 mm 0.00 in0.0 mm 0.00 in0.0 mm
02:52 AM 63.3°F17.4°C 41.6°F5.3°C 45% 3.8 mph SE6.1 kmh SE 15.9 mph25.6 kmh 29.84 in1010.5 mb 0.00 in0.0 mm 0.00 in0.0 mm 0.00 in0.0 mm
02:53 AM 63.3°F17.4°C 41.6°F5.3°C 45% 3.8 mph SE6.1 kmh SE 15.9 mph25.6 kmh 29.84 in1010.5 mb 0.00 in0.0 mm 0.00 in0.0 mm 0.00 in0.0 mm
02:54 AM 63.3°F17.4°C 41.6°F5.3°C 45% 4.5 mph SE7.2 kmh SE 15.9 mph25.6 kmh 29.84 in1010.5 mb 0.00 in0.0 mm 0.00 in0.0 mm 0.00 in0.0 mm
02:55 AM 63.3°F17.4°C 41.6°F5.3°C 45% 6.9 mph SSE11.1 kmh SSE 13.6 mph21.9 kmh 29.84 in1010.5 mb 0.00 in0.0 mm 0.00 in0.0 mm 0.00 in0.0 mm
02:56 AM 63.1°F17.3°C 41.5°F5.3°C 45% 4.5 mph SSE7.2 kmh SSE 13.0 mph20.9 kmh 29.84 in1010.5 mb 0.00 in0.0 mm 0.00 in0.0 mm 0.00 in0.0 mm
02:57 AM 63.1°F17.3°C 42.0°F5.6°C 46% 3.1 mph SSE5.0 kmh SSE 13.0 mph20.9 kmh 29.84 in1010.5 mb 0.00 in0.0 mm 0.00 in0.0 mm 0.00 in0.0 mm
02:58 AM 63.1°F17.3°C 42.0°F5.6°C 46% 6.9 mph SSE11.1 kmh SSE 13.6 mph21.9 kmh 29.84 in1010.5 mb 0.00 in0.0 mm 0.00 in0.0 mm 0.00 in0.0 mm
02:59 AM 63.1°F17.3°C 42.0°F5.6°C 46% 6.9 mph SE11.1 kmh SE 13.6 mph21.9 kmh 29.84 in1010.5 mb 0.00 in0.0 mm 0.00 in0.0 mm 0.00 in0.0 mm
03:00 AM 63.1°F17.3°C 42.0°F5.6°C 46% 6.9 mph SE11.1 kmh SE 13.6 mph21.9 kmh 29.84 in1010.5 mb 0.00 in0.0 mm 0.00 in0.0 mm 0.00 in0.0 mm
03:01 AM 63.1°F17.3°C 42.0°F5.6°C 46% 6.9 mph SE11.1 kmh SE 13.6 mph21.9 kmh 29.84 in1010.5 mb 0.00 in0.0 mm 0.00 in0.0 mm 0.00 in0.0 mm
03:02 AM 63.1°F17.3°C 42.0°F5.6°C 46% 3.1 mph SE5.0 kmh SE 13.6 mph21.9 kmh 29.84 in1010.5 mb 0.00 in0.0 mm 0.00 in0.0 mm 0.00 in0.0 mm
03:03 AM 63.1°F17.3°C 42.0°F5.6°C 46% 6.9 mph SSE11.1 kmh SSE 13.6 mph21.9 kmh 29.84 in1010.5 mb 0.00 in0.0 mm 0.00 in0.0 mm 0.00 in0.0 mm
03:04 AM 63.0°F17.2°C 41.9°F5.5°C 46% 6.9 mph SSE11.1 kmh SSE 13.6 mph21.9 kmh 29.84 in1010.5 mb 0.00 in0.0 mm 0.00 in0.0 mm 0.00 in0.0 mm
03:05 AM 63.0°F17.2°C 41.9°F5.5°C 46% 6.9 mph SSE11.1 kmh SSE 13.6 mph21.9 kmh 29.84 in1010.5 mb 0.00 in0.0 mm 0.00 in0.0 mm 0.00 in0.0 mm
03:06 AM 63.0°F17.2°C 42.4°F5.8°C 47% 5.4 mph SSE8.7 kmh SSE 13.6 mph21.9 kmh 29.84 in1010.5 mb 0.00 in0.0 mm 0.00 in0.0 mm 0.00 in0.0 mm
03:07 AM 63.0°F17.2°C 42.4°F5.8°C 47% 3.8 mph SE6.1 kmh SE 13.6 mph21.9 kmh 29.85 in1010.8 mb 0.00 in0.0 mm 0.00 in0.0 mm 0.00 in0.0 mm
03:08 AM 63.0°F17.2°C 42.4°F5.8°C 47% 6.0 mph SSE9.7 kmh SSE 13.6 mph21.9 kmh 29.85 in1010.8 mb 0.00 in0.0 mm 0.00 in0.0 mm 0.00 in0.0 mm
03:09 AM 62.8°F17.1°C 42.3°F5.7°C 47% 5.4 mph SSE8.7 kmh SSE 13.6 mph21.9 kmh 29.85 in1010.8 mb 0.00 in0.0 mm 0.00 in0.0 mm 0.00 in0.0 mm
03:10 AM 62.8°F17.1°C 42.3°F5.7°C 47% 5.4 mph SSE8.7 kmh SSE 13.6 mph21.9 kmh 29.84 in1010.5 mb 0.00 in0.0 mm 0.00 in0.0 mm 0.00 in0.0 mm
03:11 AM 62.8°F17.1°C 42.8°F6.0°C 48% 8.3 mph S13.4 kmh S 11.4 mph18.3 kmh 29.84 in1010.5 mb 0.00 in0.0 mm 0.00 in0.0 mm 0.00 in0.0 mm
03:12 AM 62.8°F17.1°C 42.8°F6.0°C 48% 8.3 mph S13.4 kmh S 11.4 mph18.3 kmh 29.84 in1010.5 mb 0.00 in0.0 mm 0.00 in0.0 mm 0.00 in0.0 mm
03:13 AM 62.8°F17.1°C 42.8°F6.0°C 48% 8.3 mph S13.4 kmh S 11.4 mph18.3 kmh 29.85 in1010.8 mb 0.00 in0.0 mm 0.00 in0.0 mm 0.00 in0.0 mm
03:14 AM 62.8°F17.1°C 42.8°F6.0°C 48% 8.3 mph S13.4 kmh S 11.4 mph18.3 kmh 29.84 in1010.5 mb 0.00 in0.0 mm 0.00 in0.0 mm 0.00 in0.0 mm
03:15 AM 62.8°F17.1°C 42.8°F6.0°C 48% 8.3 mph S13.4 kmh S 11.4 mph18.3 kmh 29.84 in1010.5 mb 0.00 in0.0 mm 0.00 in0.0 mm 0.00 in0.0 mm
03:16 AM 62.8°F17.1°C 42.8°F6.0°C 48% 8.3 mph S13.4 kmh S 11.4 mph18.3 kmh 29.84 in1010.5 mb 0.00 in0.0 mm 0.00 in0.0 mm 0.00 in0.0 mm
03:17 AM 62.8°F17.1°C 42.8°F6.0°C 48% 8.3 mph S13.4 kmh S 11.4 mph18.3 kmh 29.85 in1010.8 mb 0.00 in0.0 mm 0.00 in0.0 mm 0.00 in0.0 mm
03:18 AM 62.8°F17.1°C 42.8°F6.0°C 48% 8.3 mph S13.4 kmh S 11.4 mph18.3 kmh 29.85 in1010.8 mb 0.00 in0.0 mm 0.00 in0.0 mm 0.00 in0.0 mm
03:19 AM 62.6°F17.0°C 43.7°F6.5°C 50% 6.0 mph S9.7 kmh S 11.4 mph18.3 kmh 29.84 in1010.5 mb 0.00 in0.0 mm 0.00 in0.0 mm 0.00 in0.0 mm
03:20 AM 62.6°F17.0°C 43.7°F6.5°C 50% 6.9 mph S11.1 kmh S 11.4 mph18.3 kmh 29.84 in1010.5 mb 0.00 in0.0 mm 0.00 in0.0 mm 0.00 in0.0 mm
03:21 AM 62.6°F17.0°C 43.7°F6.5°C 50% 6.9 mph S11.1 kmh S 11.4 mph18.3 kmh 29.84 in1010.5 mb 0.00 in0.0 mm 0.00 in0.0 mm 0.00 in0.0 mm
03:22 AM 62.6°F17.0°C 43.7°F6.5°C 50% 6.9 mph S11.1 kmh S 11.4 mph18.3 kmh 29.84 in1010.5 mb 0.00 in0.0 mm 0.00 in0.0 mm 0.00 in0.0 mm
03:23 AM 62.6°F17.0°C 43.7°F6.5°C 50% 3.8 mph S6.1 kmh S 11.4 mph18.3 kmh 29.84 in1010.5 mb 0.00 in0.0 mm 0.00 in0.0 mm 0.00 in0.0 mm
03:24 AM 62.6°F17.0°C 43.7°F6.5°C 50% 4.5 mph S7.2 kmh S 11.4 mph18.3 kmh 29.84 in1010.5 mb 0.00 in0.0 mm 0.00 in0.0 mm 0.00 in0.0 mm
03:25 AM 62.4°F16.9°C 44.1°F6.7°C 51% 8.3 mph SSE13.4 kmh SSE 11.4 mph18.3 kmh 29.84 in1010.5 mb 0.00 in0.0 mm 0.00 in0.0 mm 0.00 in0.0 mm
03:26 AM 62.4°F16.9°C 44.6°F7.0°C 52% 6.0 mph S9.7 kmh S 11.4 mph18.3 kmh 29.83 in1010.2 mb 0.00 in0.0 mm 0.00 in0.0 mm 0.00 in0.0 mm
03:27 AM 62.4°F16.9°C 44.6°F7.0°C 52% 5.4 mph SSE8.7 kmh SSE 11.4 mph18.3 kmh 29.84 in1010.5 mb 0.00 in0.0 mm 0.00 in0.0 mm 0.00 in0.0 mm
03:28 AM 62.4°F16.9°C 44.6°F7.0°C 52% 5.4 mph SSE8.7 kmh SSE 11.4 mph18.3 kmh 29.84 in1010.5 mb 0.00 in0.0 mm 0.00 in0.0 mm 0.00 in0.0 mm
03:29 AM 62.4°F16.9°C 44.6°F7.0°C 52% 5.4 mph SSE8.7 kmh SSE 11.4 mph18.3 kmh 29.84 in1010.5 mb 0.00 in0.0 mm 0.00 in0.0 mm 0.00 in0.0 mm
03:30 AM 62.4°F16.9°C 44.6°F7.0°C 52% 5.4 mph SSE8.7 kmh SSE 11.4 mph18.3 kmh 29.84 in1010.5 mb 0.00 in0.0 mm 0.00 in0.0 mm 0.00 in0.0 mm
03:31 AM 62.4°F16.9°C 44.6°F7.0°C 52% 3.1 mph SSE5.0 kmh SSE 11.4 mph18.3 kmh 29.84 in1010.5 mb 0.00 in0.0 mm 0.00 in0.0 mm 0.00 in0.0 mm
03:32 AM 62.4°F16.9°C 44.6°F7.0°C 52% 3.1 mph SE5.0 kmh SE 11.4 mph18.3 kmh 29.84 in1010.5 mb 0.00 in0.0 mm 0.00 in0.0 mm 0.00 in0.0 mm
03:33 AM 62.4°F16.9°C 44.6°F7.0°C 52% 3.1 mph SE5.0 kmh SE 11.4 mph18.3 kmh 29.83 in1010.2 mb 0.00 in0.0 mm 0.00 in0.0 mm 0.00 in0.0 mm
03:34 AM 62.4°F16.9°C 44.6°F7.0°C 52% 3.1 mph SSE5.0 kmh SSE 11.4 mph18.3 kmh 29.84 in1010.5 mb 0.00 in0.0 mm 0.00 in0.0 mm 0.00 in0.0 mm
03:35 AM 62.2°F16.8°C 44.4°F6.9°C 52% 3.1 mph SSE5.0 kmh SSE 9.8 mph15.8 kmh 29.84 in1010.5 mb 0.00 in0.0 mm 0.00 in0.0 mm 0.00 in0.0 mm
03:36 AM 62.2°F16.8°C 44.4°F6.9°C 52% 3.1 mph SSE5.0 kmh SSE 9.8 mph15.8 kmh 29.84 in1010.5 mb 0.00 in0.0 mm 0.00 in0.0 mm 0.00 in0.0 mm
03:37 AM 62.2°F16.8°C 44.4°F6.9°C 52% 3.1 mph SSE5.0 kmh SSE 8.3 mph13.4 kmh 29.84 in1010.5 mb 0.00 in0.0 mm 0.00 in0.0 mm 0.00 in0.0 mm
03:38 AM 62.2°F16.8°C 44.4°F6.9°C 52% 3.1 mph SSE5.0 kmh SSE 8.3 mph13.4 kmh 29.83 in1010.2 mb 0.00 in0.0 mm 0.00 in0.0 mm 0.00 in0.0 mm
03:39 AM 62.2°F16.8°C 44.4°F6.9°C 52% 3.1 mph SSE5.0 kmh SSE 8.3 mph13.4 kmh 29.83 in1010.2 mb 0.00 in0.0 mm 0.00 in0.0 mm 0.00 in0.0 mm
03:40 AM 62.2°F16.8°C 44.4°F6.9°C 52% 3.1 mph SSE5.0 kmh SSE 7.6 mph12.2 kmh 29.84 in1010.5 mb 0.00 in0.0 mm 0.00 in0.0 mm 0.00 in0.0 mm
03:41 AM 62.2°F16.8°C 44.9°F7.2°C 53% 3.8 mph SSE6.1 kmh SSE 7.6 mph12.2 kmh 29.83 in1010.2 mb 0.00 in0.0 mm 0.00 in0.0 mm 0.00 in0.0 mm
03:42 AM 62.2°F16.8°C 44.9°F7.2°C 53% 3.1 mph SSE5.0 kmh SSE 7.6 mph12.2 kmh 29.84 in1010.5 mb 0.00 in0.0 mm 0.00 in0.0 mm 0.00 in0.0 mm
03:43 AM 62.2°F16.8°C 44.9°F7.2°C 53% 3.1 mph SSE5.0 kmh SSE 7.6 mph12.2 kmh 29.83 in1010.2 mb 0.00 in0.0 mm 0.00 in0.0 mm 0.00 in0.0 mm
03:44 AM 62.2°F16.8°C 44.9°F7.2°C 53% 3.1 mph SSE5.0 kmh SSE 7.6 mph12.2 kmh 29.83 in1010.2 mb 0.00 in0.0 mm 0.00 in0.0 mm 0.00 in0.0 mm
03:45 AM 62.2°F16.8°C 44.9°F7.2°C 53% 1.6 mph SSE2.6 kmh SSE 5.4 mph8.7 kmh 29.84 in1010.5 mb 0.00 in0.0 mm 0.00 in0.0 mm 0.00 in0.0 mm
03:46 AM 62.2°F16.8°C 44.9°F7.2°C 53% 3.1 mph SSE5.0 kmh SSE 5.4 mph8.7 kmh 29.84 in1010.5 mb 0.00 in0.0 mm 0.00 in0.0 mm 0.00 in0.0 mm
03:47 AM 62.2°F16.8°C 44.9°F7.2°C 53% 2.2 mph SSE3.5 kmh SSE 5.4 mph8.7 kmh 29.84 in1010.5 mb 0.00 in0.0 mm 0.00 in0.0 mm 0.00 in0.0 mm
03:48 AM 62.2°F16.8°C 44.9°F7.2°C 53% 2.2 mph SSE3.5 kmh SSE 5.4 mph8.7 kmh 29.84 in1010.5 mb 0.00 in0.0 mm 0.00 in0.0 mm 0.00 in0.0 mm
03:49 AM 62.2°F16.8°C 44.9°F7.2°C 53% 2.2 mph SSE3.5 kmh SSE 5.4 mph8.7 kmh 29.84 in1010.5 mb 0.00 in0.0 mm 0.00 in0.0 mm 0.00 in0.0 mm
03:50 AM 62.2°F16.8°C 44.9°F7.2°C 53% 2.2 mph SSE3.5 kmh SSE 5.4 mph8.7 kmh 29.84 in1010.5 mb 0.00 in0.0 mm 0.00 in0.0 mm 0.00 in0.0 mm
03:51 AM 62.2°F16.8°C 44.9°F7.2°C 53% 2.2 mph S3.5 kmh S 5.4 mph8.7 kmh 29.83 in1010.2 mb 0.00 in0.0 mm 0.00 in0.0 mm 0.00 in0.0 mm
03:52 AM 62.2°F16.8°C 44.9°F7.2°C 53% 3.8 mph S6.1 kmh S 5.4 mph8.7 kmh 29.84 in1010.5 mb 0.00 in0.0 mm 0.00 in0.0 mm 0.00 in0.0 mm
03:53 AM 62.2°F16.8°C 44.9°F7.2°C 53% 3.1 mph S5.0 kmh S 6.9 mph11.1 kmh 29.84 in1010.5 mb 0.00 in0.0 mm 0.00 in0.0 mm 0.00 in0.0 mm
03:54 AM 62.2°F16.8°C 44.9°F7.2°C 53% 6.0 mph S9.7 kmh S 8.3 mph13.4 kmh 29.83 in1010.2 mb 0.00 in0.0 mm 0.00 in0.0 mm 0.00 in0.0 mm
03:55 AM 62.2°F16.8°C 44.9°F7.2°C 53% 5.4 mph S8.7 kmh S 9.2 mph14.8 kmh 29.83 in1010.2 mb 0.00 in0.0 mm 0.00 in0.0 mm 0.00 in0.0 mm
03:56 AM 62.2°F16.8°C 44.9°F7.2°C 53% 3.8 mph S6.1 kmh S 9.2 mph14.8 kmh 29.84 in1010.5 mb 0.00 in0.0 mm 0.00 in0.0 mm 0.00 in0.0 mm
03:57 AM 62.2°F16.8°C 44.9°F7.2°C 53% 3.8 mph S6.1 kmh S 9.2 mph14.8 kmh 29.84 in1010.5 mb 0.00 in0.0 mm 0.00 in0.0 mm 0.00 in0.0 mm
03:58 AM 62.2°F16.8°C 44.9°F7.2°C 53% 3.8 mph S6.1 kmh S 9.2 mph14.8 kmh 29.84 in1010.5 mb 0.00 in0.0 mm 0.00 in0.0 mm 0.00 in0.0 mm
03:59 AM 62.2°F16.8°C 44.9°F7.2°C 53% 3.1 mph S5.0 kmh S 9.2 mph14.8 kmh 29.83 in1010.2 mb 0.00 in0.0 mm 0.00 in0.0 mm 0.00 in0.0 mm
04:00 AM 62.2°F16.8°C 44.9°F7.2°C 53% 2.2 mph S3.5 kmh S 9.2 mph14.8 kmh 29.83 in1010.2 mb 0.00 in0.0 mm 0.00 in0.0 mm 0.00 in0.0 mm
04:01 AM 62.2°F16.8°C 44.9°F7.2°C 53% 2.2 mph S3.5 kmh S 9.2 mph14.8 kmh 29.83 in1010.2 mb 0.00 in0.0 mm 0.00 in0.0 mm 0.00 in0.0 mm
04:02 AM 62.2°F16.8°C 44.9°F7.2°C 53% 3.1 mph S5.0 kmh S 9.2 mph14.8 kmh 29.83 in1010.2 mb 0.00 in0.0 mm 0.00 in0.0 mm 0.00 in0.0 mm
04:03 AM 62.2°F16.8°C 44.9°F7.2°C 53% 3.8 mph S6.1 kmh S 9.2 mph14.8 kmh 29.83 in1010.2 mb 0.00 in0.0 mm 0.00 in0.0 mm 0.00 in0.0 mm
04:04 AM 62.2°F16.8°C 44.9°F7.2°C 53% 3.8 mph S6.1 kmh S 9.2 mph14.8 kmh 29.83 in1010.2 mb 0.00 in0.0 mm 0.00 in0.0 mm 0.00 in0.0 mm
04:05 AM 62.2°F16.8°C 44.9°F7.2°C 53% 2.2 mph SSE3.5 kmh SSE 9.2 mph14.8 kmh 29.83 in1010.2 mb 0.00 in0.0 mm 0.00 in0.0 mm 0.00 in0.0 mm
04:06 AM 62.2°F16.8°C 44.9°F7.2°C 53% 3.8 mph SSE6.1 kmh SSE 7.6 mph12.2 kmh 29.82 in1009.8 mb 0.00 in0.0 mm 0.00 in0.0 mm 0.00 in0.0 mm
04:07 AM 62.2°F16.8°C 44.9°F7.2°C 53% 3.1 mph SSE5.0 kmh SSE 6.9 mph11.1 kmh 29.82 in1009.8 mb 0.00 in0.0 mm 0.00 in0.0 mm 0.00 in0.0 mm
04:08 AM 62.2°F16.8°C 44.9°F7.2°C 53% 2.2 mph S3.5 kmh S 6.9 mph11.1 kmh 29.82 in1009.8 mb 0.00 in0.0 mm 0.00 in0.0 mm 0.00 in0.0 mm
04:09 AM 62.2°F16.8°C 44.9°F7.2°C 53% 3.1 mph S5.0 kmh S 6.9 mph11.1 kmh 29.83 in1010.2 mb 0.00 in0.0 mm 0.00 in0.0 mm 0.00 in0.0 mm
04:10 AM 62.2°F16.8°C 44.9°F7.2°C 53% 5.4 mph S8.7 kmh S 9.2 mph14.8 kmh 29.83 in1010.2 mb 0.00 in0.0 mm 0.00 in0.0 mm 0.00 in0.0 mm
04:11 AM 62.2°F16.8°C 44.9°F7.2°C 53% 3.1 mph S5.0 kmh S 9.2 mph14.8 kmh 29.82 in1009.8 mb 0.00 in0.0 mm 0.00 in0.0 mm 0.00 in0.0 mm
04:12 AM 62.2°F16.8°C 44.9°F7.2°C 53% 3.1 mph S5.0 kmh S 9.2 mph14.8 kmh 29.82 in1009.8 mb 0.00 in0.0 mm 0.00 in0.0 mm 0.00 in0.0 mm
04:13 AM 62.1°F16.7°C 44.7°F7.1°C 53% 3.1 mph S5.0 kmh S 9.2 mph14.8 kmh 29.82 in1009.8 mb 0.00 in0.0 mm 0.00 in0.0 mm 0.00 in0.0 mm
04:14 AM 62.1°F16.7°C 44.7°F7.1°C 53% 2.2 mph S3.5 kmh S 9.2 mph14.8 kmh 29.82 in1009.8 mb 0.00 in0.0 mm 0.00 in0.0 mm 0.00 in0.0 mm
04:15 AM 62.2°F16.8°C 44.9°F7.2°C 53% 2.2 mph S3.5 kmh S 9.2 mph14.8 kmh 29.82 in1009.8 mb 0.00 in0.0 mm 0.00 in0.0 mm 0.00 in0.0 mm
04:16 AM 62.2°F16.8°C 44.9°F7.2°C 53% 2.2 mph S3.5 kmh S 9.2 mph14.8 kmh 29.82 in1009.8 mb 0.00 in0.0 mm 0.00 in0.0 mm 0.00 in0.0 mm
04:17 AM 62.2°F16.8°C 44.9°F7.2°C 53% 2.2 mph S3.5 kmh S 9.2 mph14.8 kmh 29.82 in1009.8 mb 0.00 in0.0 mm 0.00 in0.0 mm 0.00 in0.0 mm
04:18 AM 62.2°F16.8°C 45.4°F7.4°C 54% 3.8 mph SSE6.1 kmh SSE 9.2 mph14.8 kmh 29.82 in1009.8 mb 0.00 in0.0 mm 0.00 in0.0 mm 0.00 in0.0 mm
04:19 AM 62.2°F16.8°C 45.4°F7.4°C 54% 1.6 mph SSE2.6 kmh SSE 9.2 mph14.8 kmh 29.83 in1010.2 mb 0.00 in0.0 mm 0.00 in0.0 mm 0.00 in0.0 mm
04:20 AM 62.2°F16.8°C 45.4°F7.4°C 54% 3.8 mph SSE6.1 kmh SSE 9.2 mph14.8 kmh 29.82 in1009.8 mb 0.00 in0.0 mm 0.00 in0.0 mm 0.00 in0.0 mm
04:21 AM 62.2°F16.8°C 45.4°F7.4°C 54% 3.8 mph SSE6.1 kmh SSE 7.6 mph12.2 kmh 29.82 in1009.8 mb 0.00 in0.0 mm 0.00 in0.0 mm 0.00 in0.0 mm
04:22 AM 62.2°F16.8°C 45.4°F7.4°C 54% 4.5 mph SE7.2 kmh SE 7.6 mph12.2 kmh 29.82 in1009.8 mb 0.00 in0.0 mm 0.00 in0.0 mm 0.00 in0.0 mm
04:23 AM 62.2°F16.8°C 45.4°F7.4°C 54% 4.5 mph SE7.2 kmh SE 7.6 mph12.2 kmh 29.82 in1009.8 mb 0.00 in0.0 mm 0.00 in0.0 mm 0.00 in0.0 mm
04:24 AM 62.2°F16.8°C 45.4°F7.4°C 54% 4.5 mph SE7.2 kmh SE 7.6 mph12.2 kmh 29.81 in1009.5 mb 0.00 in0.0 mm 0.00 in0.0 mm 0.00 in0.0 mm
04:25 AM 62.2°F16.8°C 45.4°F7.4°C 54% 3.1 mph SE5.0 kmh SE 7.6 mph12.2 kmh 29.82 in1009.8 mb 0.00 in0.0 mm 0.00 in0.0 mm 0.00 in0.0 mm
04:26 AM 62.2°F16.8°C 45.4°F7.4°C 54% 3.1 mph SE5.0 kmh SE 7.6 mph12.2 kmh 29.82 in1009.8 mb 0.00 in0.0 mm 0.00 in0.0 mm 0.00 in0.0 mm
04:27 AM 62.2°F16.8°C 45.4°F7.4°C 54% 3.1 mph SE5.0 kmh SE 7.6 mph12.2 kmh 29.81 in1009.5 mb 0.00 in0.0 mm 0.00 in0.0 mm 0.00 in0.0 mm
04:28 AM 62.2°F16.8°C 45.4°F7.4°C 54% 3.1 mph SE5.0 kmh SE 7.6 mph12.2 kmh 29.81 in1009.5 mb 0.00 in0.0 mm 0.00 in0.0 mm 0.00 in0.0 mm
04:29 AM 62.2°F16.8°C 45.4°F7.4°C 54% 3.1 mph SE5.0 kmh SE 7.6 mph12.2 kmh 29.80 in1009.1 mb 0.00 in0.0 mm 0.00 in0.0 mm 0.00 in0.0 mm
04:30 AM 62.2°F16.8°C 45.4°F7.4°C 54% 3.1 mph SE5.0 kmh SE 7.6 mph12.2 kmh 29.81 in1009.5 mb 0.00 in0.0 mm 0.00 in0.0 mm 0.00 in0.0 mm
04:31 AM 62.2°F16.8°C 45.4°F7.4°C 54% 3.1 mph SE5.0 kmh SE 7.6 mph12.2 kmh 29.82 in1009.8 mb 0.00 in0.0 mm 0.00 in0.0 mm 0.00 in0.0 mm
04:32 AM 62.2°F16.8°C 45.4°F7.4°C 54% 3.1 mph SE5.0 kmh SE 7.6 mph12.2 kmh 29.82 in1009.8 mb 0.00 in0.0 mm 0.00 in0.0 mm 0.00 in0.0 mm
04:33 AM 62.2°F16.8°C 45.4°F7.4°C 54% 3.1 mph SE5.0 kmh SE 7.6 mph12.2 kmh 29.82 in1009.8 mb 0.00 in0.0 mm 0.00 in0.0 mm 0.00 in0.0 mm
04:34 AM 62.2°F16.8°C 45.4°F7.4°C 54% 3.1 mph SE5.0 kmh SE 7.6 mph12.2 kmh 29.82 in1009.8 mb 0.00 in0.0 mm 0.00 in0.0 mm 0.00 in0.0 mm
04:35 AM 62.4°F16.9°C 45.1°F7.3°C 53% 3.8 mph SE6.1 kmh SE 7.6 mph12.2 kmh 29.82 in1009.8 mb 0.00 in0.0 mm 0.00 in0.0 mm 0.00 in0.0 mm
04:36 AM 62.4°F16.9°C 45.1°F7.3°C 53% 3.8 mph SE6.1 kmh SE 6.0 mph9.7 kmh 29.82 in1009.8 mb 0.00 in0.0 mm 0.00 in0.0 mm 0.00 in0.0 mm
04:37 AM 62.6°F17.0°C 44.7°F7.1°C 52% 6.9 mph SE11.1 kmh SE 11.4 mph18.3 kmh 29.82 in1009.8 mb 0.00 in0.0 mm 0.00 in0.0 mm 0.00 in0.0 mm
04:38 AM 62.6°F17.0°C 44.7°F7.1°C 52% 6.9 mph SE11.1 kmh SE 11.4 mph18.3 kmh 29.83 in1010.2 mb 0.00 in0.0 mm 0.00 in0.0 mm 0.00 in0.0 mm
04:39 AM 62.6°F17.0°C 44.7°F7.1°C 52% 6.9 mph ESE11.1 kmh ESE 11.4 mph18.3 kmh 29.83 in1010.2 mb 0.00 in0.0 mm 0.00 in0.0 mm 0.00 in0.0 mm
04:40 AM 62.6°F17.0°C 44.7°F7.1°C 52% 6.9 mph ESE11.1 kmh ESE 11.4 mph18.3 kmh 29.82 in1009.8 mb 0.00 in0.0 mm 0.00 in0.0 mm 0.00 in0.0 mm
04:41 AM 62.6°F17.0°C 44.7°F7.1°C 52% 6.9 mph ESE11.1 kmh ESE 11.4 mph18.3 kmh 29.82 in1009.8 mb 0.00 in0.0 mm 0.00 in0.0 mm 0.00 in0.0 mm
04:42 AM 62.6°F17.0°C 44.7°F7.1°C 52% 6.9 mph E11.1 kmh E 11.4 mph18.3 kmh 29.83 in1010.2 mb 0.00 in0.0 mm 0.00 in0.0 mm 0.00 in0.0 mm
04:43 AM 62.6°F17.0°C 44.7°F7.1°C 52% 6.9 mph E11.1 kmh E 11.4 mph18.3 kmh 29.83 in1010.2 mb 0.00 in0.0 mm 0.00 in0.0 mm 0.00 in0.0 mm
04:44 AM 62.6°F17.0°C 44.7°F7.1°C 52% 3.8 mph E6.1 kmh E 11.4 mph18.3 kmh 29.83 in1010.2 mb 0.00 in0.0 mm 0.00 in0.0 mm 0.00 in0.0 mm
04:45 AM 62.6°F17.0°C 44.7°F7.1°C 52% 3.8 mph E6.1 kmh E 11.4 mph18.3 kmh 29.82 in1009.8 mb 0.00 in0.0 mm 0.00 in0.0 mm 0.00 in0.0 mm
04:46 AM 62.4°F16.9°C 44.6°F7.0°C 52% 5.4 mph E8.7 kmh E 11.4 mph18.3 kmh 29.82 in1009.8 mb 0.00 in0.0 mm 0.00 in0.0 mm 0.00 in0.0 mm
04:47 AM 62.4°F16.9°C 44.6°F7.0°C 52% 5.4 mph ESE8.7 kmh ESE 11.4 mph18.3 kmh 29.82 in1009.8 mb 0.00 in0.0 mm 0.00 in0.0 mm 0.00 in0.0 mm
04:48 AM 62.4°F16.9°C 44.6°F7.0°C 52% 3.1 mph ESE5.0 kmh ESE 11.4 mph18.3 kmh 29.82 in1009.8 mb 0.00 in0.0 mm 0.00 in0.0 mm 0.00 in0.0 mm
04:49 AM 62.4°F16.9°C 44.6°F7.0°C 52% 3.1 mph SE5.0 kmh SE 11.4 mph18.3 kmh 29.82 in1009.8 mb 0.00 in0.0 mm 0.00 in0.0 mm 0.00 in0.0 mm
04:50 AM 62.4°F16.9°C 44.6°F7.0°C 52% 5.4 mph SE8.7 kmh SE 11.4 mph18.3 kmh 29.82 in1009.8 mb 0.00 in0.0 mm 0.00 in0.0 mm 0.00 in0.0 mm
04:51 AM 62.4°F16.9°C 44.6°F7.0°C 52% 3.8 mph SE6.1 kmh SE 11.4 mph18.3 kmh 29.82 in1009.8 mb 0.00 in0.0 mm 0.00 in0.0 mm 0.00 in0.0 mm
04:52 AM 62.2°F16.8°C 44.4°F6.9°C 52% 3.1 mph SSE5.0 kmh SSE 11.4 mph18.3 kmh 29.83 in1010.2 mb 0.00 in0.0 mm 0.00 in0.0 mm 0.00 in0.0 mm
04:53 AM 62.2°F16.8°C 44.4°F6.9°C 52% 6.0 mph S9.7 kmh S 11.4 mph18.3 kmh 29.82 in1009.8 mb 0.00 in0.0 mm 0.00 in0.0 mm 0.00 in0.0 mm
04:54 AM 62.2°F16.8°C 44.4°F6.9°C 52% 1.6 mph S2.6 kmh S 9.2 mph14.8 kmh 29.82 in1009.8 mb 0.00 in0.0 mm 0.00 in0.0 mm 0.00 in0.0 mm
04:55 AM 62.2°F16.8°C 44.4°F6.9°C 52% 1.6 mph S2.6 kmh S 9.2 mph14.8 kmh 29.82 in1009.8 mb 0.00 in0.0 mm 0.00 in0.0 mm 0.00 in0.0 mm
04:56 AM 62.2°F16.8°C 44.4°F6.9°C 52% 1.6 mph S2.6 kmh S 9.2 mph14.8 kmh 29.82 in1009.8 mb 0.00 in0.0 mm 0.00 in0.0 mm 0.00 in0.0 mm
04:57 AM 62.2°F16.8°C 44.4°F6.9°C 52% 2.2 mph SSE3.5 kmh SSE 9.2 mph14.8 kmh 29.82 in1009.8 mb 0.00 in0.0 mm 0.00 in0.0 mm 0.00 in0.0 mm
04:58 AM 62.2°F16.8°C 44.4°F6.9°C 52% 2.2 mph SSE3.5 kmh SSE 9.2 mph14.8 kmh 29.82 in1009.8 mb 0.00 in0.0 mm 0.00 in0.0 mm 0.00 in0.0 mm
04:59 AM 62.2°F16.8°C 44.4°F6.9°C 52% 3.1 mph SSE5.0 kmh SSE 9.2 mph14.8 kmh 29.82 in1009.8 mb 0.00 in0.0 mm 0.00 in0.0 mm 0.00 in0.0 mm
05:00 AM 62.2°F16.8°C 44.4°F6.9°C 52% 3.1 mph SSE5.0 kmh SSE 9.2 mph14.8 kmh 29.82 in1009.8 mb 0.00 in0.0 mm 0.00 in0.0 mm 0.00 in0.0 mm
05:01 AM 62.2°F16.8°C 44.4°F6.9°C 52% 3.1 mph SSE5.0 kmh SSE 9.2 mph14.8 kmh 29.83 in1010.2 mb 0.00 in0.0 mm 0.00 in0.0 mm 0.00 in0.0 mm
05:02 AM 62.2°F16.8°C 44.4°F6.9°C 52% 3.1 mph SSE5.0 kmh SSE 9.2 mph14.8 kmh 29.83 in1010.2 mb 0.00 in0.0 mm 0.00 in0.0 mm 0.00 in0.0 mm
05:03 AM 62.2°F16.8°C 44.4°F6.9°C 52% 3.1 mph S5.0 kmh S 9.2 mph14.8 kmh 29.82 in1009.8 mb 0.00 in0.0 mm 0.00 in0.0 mm 0.00 in0.0 mm
05:04 AM 62.2°F16.8°C 44.4°F6.9°C 52% 3.1 mph S5.0 kmh S 6.9 mph11.1 kmh 29.83 in1010.2 mb 0.00 in0.0 mm 0.00 in0.0 mm 0.00 in0.0 mm
05:05 AM 62.2°F16.8°C 44.4°F6.9°C 52% 3.1 mph S5.0 kmh S 6.9 mph11.1 kmh 29.82 in1009.8 mb 0.00 in0.0 mm 0.00 in0.0 mm 0.00 in0.0 mm
05:06 AM 62.2°F16.8°C 44.4°F6.9°C 52% 3.1 mph S5.0 kmh S 6.9 mph11.1 kmh 29.82 in1009.8 mb 0.00 in0.0 mm 0.00 in0.0 mm 0.00 in0.0 mm
05:07 AM 62.2°F16.8°C 44.4°F6.9°C 52% 3.1 mph S5.0 kmh S 6.9 mph11.1 kmh 29.82 in1009.8 mb 0.00 in0.0 mm 0.00 in0.0 mm 0.00 in0.0 mm
05:08 AM 62.2°F16.8°C 44.4°F6.9°C 52% 3.1 mph S5.0 kmh S 6.9 mph11.1 kmh 29.82 in1009.8 mb 0.00 in0.0 mm 0.00 in0.0 mm 0.00 in0.0 mm
05:09 AM 62.2°F16.8°C 44.4°F6.9°C 52% 3.1 mph S5.0 kmh S 6.9 mph11.1 kmh 29.82 in1009.8 mb 0.00 in0.0 mm 0.00 in0.0 mm 0.00 in0.0 mm
05:10 AM 62.2°F16.8°C 44.4°F6.9°C 52% 3.1 mph S5.0 kmh S 6.9 mph11.1 kmh 29.82 in1009.8 mb 0.00 in0.0 mm 0.00 in0.0 mm 0.00 in0.0 mm
05:11 AM 62.2°F16.8°C 44.4°F6.9°C 52% 3.1 mph S5.0 kmh S 6.9 mph11.1 kmh 29.84 in1010.5 mb 0.00 in0.0 mm 0.00 in0.0 mm 0.00 in0.0 mm
05:12 AM 62.2°F16.8°C 44.4°F6.9°C 52% 3.1 mph S5.0 kmh S 6.9 mph11.1 kmh 29.84 in1010.5 mb 0.00 in0.0 mm 0.00 in0.0 mm 0.00 in0.0 mm
05:13 AM 62.2°F16.8°C 44.4°F6.9°C 52% 3.1 mph S5.0 kmh S 6.9 mph11.1 kmh 29.84 in1010.5 mb 0.00 in0.0 mm 0.00 in0.0 mm 0.00 in0.0 mm
05:14 AM 62.1°F16.7°C 45.2°F7.3°C 54% 3.8 mph S6.1 kmh S 6.9 mph11.1 kmh 29.83 in1010.2 mb 0.00 in0.0 mm 0.00 in0.0 mm 0.00 in0.0 mm
05:15 AM 62.1°F16.7°C 45.2°F7.3°C 54% 3.8 mph S6.1 kmh S 6.9 mph11.1 kmh 29.83 in1010.2 mb 0.00 in0.0 mm 0.00 in0.0 mm 0.00 in0.0 mm
05:16 AM 62.1°F16.7°C 45.2°F7.3°C 54% 3.1 mph SSE5.0 kmh SSE 6.9 mph11.1 kmh 29.84 in1010.5 mb 0.00 in0.0 mm 0.00 in0.0 mm 0.00 in0.0 mm
05:17 AM 62.1°F16.7°C 45.2°F7.3°C 54% 3.1 mph SE5.0 kmh SE 6.9 mph11.1 kmh 29.85 in1010.8 mb 0.00 in0.0 mm 0.00 in0.0 mm 0.00 in0.0 mm
05:18 AM 62.1°F16.7°C 45.2°F7.3°C 54% 4.5 mph SE7.2 kmh SE 6.9 mph11.1 kmh 29.84 in1010.5 mb 0.00 in0.0 mm 0.00 in0.0 mm 0.00 in0.0 mm
05:19 AM 62.1°F16.7°C 45.2°F7.3°C 54% 4.5 mph SE7.2 kmh SE 6.9 mph11.1 kmh 29.84 in1010.5 mb 0.00 in0.0 mm 0.00 in0.0 mm 0.00 in0.0 mm
05:20 AM 62.1°F16.7°C 45.2°F7.3°C 54% 4.5 mph SE7.2 kmh SE 6.9 mph11.1 kmh 29.84 in1010.5 mb 0.00 in0.0 mm 0.00 in0.0 mm 0.00 in0.0 mm
05:21 AM 62.1°F16.7°C 45.2°F7.3°C 54% 9.2 mph SE14.8 kmh SE 12.1 mph19.5 kmh 29.84 in1010.5 mb 0.00 in0.0 mm 0.00 in0.0 mm 0.00 in0.0 mm
05:22 AM 62.1°F16.7°C 45.2°F7.3°C 54% 4.5 mph SE7.2 kmh SE 12.1 mph19.5 kmh 29.84 in1010.5 mb 0.00 in0.0 mm 0.00 in0.0 mm 0.00 in0.0 mm
05:23 AM 62.1°F16.7°C 45.2°F7.3°C 54% 5.4 mph SE8.7 kmh SE 12.1 mph19.5 kmh 29.83 in1010.2 mb 0.00 in0.0 mm 0.00 in0.0 mm 0.00 in0.0 mm
05:24 AM 62.1°F16.7°C 45.2°F7.3°C 54% 5.4 mph SSE8.7 kmh SSE 12.1 mph19.5 kmh 29.84 in1010.5 mb 0.00 in0.0 mm 0.00 in0.0 mm 0.00 in0.0 mm
05:25 AM 62.1°F16.7°C 45.2°F7.3°C 54% 6.0 mph SSE9.7 kmh SSE 12.1 mph19.5 kmh 29.84 in1010.5 mb 0.00 in0.0 mm 0.00 in0.0 mm 0.00 in0.0 mm
05:26 AM 62.1°F16.7°C 45.2°F7.3°C 54% 4.5 mph SSE7.2 kmh SSE 12.1 mph19.5 kmh 29.84 in1010.5 mb 0.00 in0.0 mm 0.00 in0.0 mm 0.00 in0.0 mm
05:27 AM 62.1°F16.7°C 45.2°F7.3°C 54% 5.4 mph S8.7 kmh S 12.1 mph19.5 kmh 29.84 in1010.5 mb 0.00 in0.0 mm 0.00 in0.0 mm 0.00 in0.0 mm
05:28 AM 62.1°F16.7°C 45.2°F7.3°C 54% 5.4 mph S8.7 kmh S 12.1 mph19.5 kmh 29.84 in1010.5 mb 0.00 in0.0 mm 0.00 in0.0 mm 0.00 in0.0 mm
05:29 AM 62.1°F16.7°C 45.2°F7.3°C 54% 5.4 mph S8.7 kmh S 12.1 mph19.5 kmh 29.84 in1010.5 mb 0.00 in0.0 mm 0.00 in0.0 mm 0.00 in0.0 mm
05:30 AM 62.1°F16.7°C 45.2°F7.3°C 54% 5.4 mph S8.7 kmh S 12.1 mph19.5 kmh 29.84 in1010.5 mb 0.00 in0.0 mm 0.00 in0.0 mm 0.00 in0.0 mm
05:31 AM 62.1°F16.7°C 45.7°F7.6°C 55% 6.9 mph S11.1 kmh S 9.8 mph15.8 kmh 29.84 in1010.5 mb 0.00 in0.0 mm 0.00 in0.0 mm 0.00 in0.0 mm
05:32 AM 62.1°F16.7°C 46.2°F7.9°C 56% 3.8 mph S6.1 kmh S 9.8 mph15.8 kmh 29.84 in1010.5 mb 0.00 in0.0 mm 0.00 in0.0 mm 0.00 in0.0 mm
05:33 AM 62.1°F16.7°C 46.2°F7.9°C 56% 3.8 mph S6.1 kmh S 9.8 mph15.8 kmh 29.84 in1010.5 mb 0.00 in0.0 mm 0.00 in0.0 mm 0.00 in0.0 mm
05:34 AM 62.1°F16.7°C 46.2°F7.9°C 56% 6.0 mph S9.7 kmh S 9.8 mph15.8 kmh 29.84 in1010.5 mb 0.00 in0.0 mm 0.00 in0.0 mm 0.00 in0.0 mm
05:35 AM 62.1°F16.7°C 46.2°F7.9°C 56% 6.0 mph S9.7 kmh S 9.8 mph15.8 kmh 29.85 in1010.8 mb 0.00 in0.0 mm 0.00 in0.0 mm 0.00 in0.0 mm
05:36 AM 62.1°F16.7°C 46.2°F7.9°C 56% 6.0 mph S9.7 kmh S 9.8 mph15.8 kmh 29.84 in1010.5 mb 0.00 in0.0 mm 0.00 in0.0 mm 0.00 in0.0 mm
05:37 AM 62.1°F16.7°C 46.2°F7.9°C 56% 6.0 mph S9.7 kmh S 9.8 mph15.8 kmh 29.84 in1010.5 mb 0.00 in0.0 mm 0.00 in0.0 mm 0.00 in0.0 mm
05:38 AM 62.1°F16.7°C 46.2°F7.9°C 56% 6.0 mph S9.7 kmh S 9.8 mph15.8 kmh 29.84 in1010.5 mb 0.00 in0.0 mm 0.00 in0.0 mm 0.00 in0.0 mm
05:39 AM 62.1°F16.7°C 46.7°F8.2°C 57% 5.4 mph S8.7 kmh S 9.8 mph15.8 kmh 29.84 in1010.5 mb 0.00 in0.0 mm 0.00 in0.0 mm 0.00 in0.0 mm
05:40 AM 62.1°F16.7°C 46.7°F8.2°C 57% 3.1 mph S5.0 kmh S 9.8 mph15.8 kmh 29.84 in1010.5 mb 0.00 in0.0 mm 0.00 in0.0 mm 0.00 in0.0 mm
05:41 AM 62.1°F16.7°C 46.7°F8.2°C 57% 3.1 mph S5.0 kmh S 9.8 mph15.8 kmh 29.84 in1010.5 mb 0.00 in0.0 mm 0.00 in0.0 mm 0.00 in0.0 mm
05:42 AM 62.1°F16.7°C 46.7°F8.2°C 57% 4.5 mph S7.2 kmh S 9.2 mph14.8 kmh 29.84 in1010.5 mb 0.00 in0.0 mm 0.00 in0.0 mm 0.00 in0.0 mm
05:43 AM 61.9°F16.6°C 46.5°F8.1°C 57% 4.5 mph S7.2 kmh S 9.2 mph14.8 kmh 29.84 in1010.5 mb 0.00 in0.0 mm 0.00 in0.0 mm 0.00 in0.0 mm
05:44 AM 61.9°F16.6°C 46.5°F8.1°C 57% 4.5 mph S7.2 kmh S 9.2 mph14.8 kmh 29.84 in1010.5 mb 0.00 in0.0 mm 0.00 in0.0 mm 0.00 in0.0 mm
05:45 AM 61.9°F16.6°C 47.0°F8.3°C 58% 2.2 mph S3.5 kmh S 9.2 mph14.8 kmh 29.84 in1010.5 mb 0.00 in0.0 mm 0.00 in0.0 mm 0.00 in0.0 mm
05:46 AM 61.9°F16.6°C 47.0°F8.3°C 58% 2.2 mph S3.5 kmh S 9.2 mph14.8 kmh 29.84 in1010.5 mb 0.00 in0.0 mm 0.00 in0.0 mm 0.00 in0.0 mm
05:48 AM 61.9°F16.6°C 47.4°F8.6°C 59% 3.8 mph S6.1 kmh S 9.2 mph14.8 kmh 29.84 in1010.5 mb 0.00 in0.0 mm 0.00 in0.0 mm 0.00 in0.0 mm
05:49 AM 61.9°F16.6°C 47.4°F8.6°C 59% 3.1 mph S5.0 kmh S 9.2 mph14.8 kmh 29.84 in1010.5 mb 0.00 in0.0 mm 0.00 in0.0 mm 0.00 in0.0 mm
05:50 AM 61.9°F16.6°C 47.0°F8.3°C 58% 8.3 mph S13.4 kmh S 11.4 mph18.3 kmh 29.84 in1010.5 mb 0.00 in0.0 mm 0.00 in0.0 mm 0.00 in0.0 mm
05:51 AM 61.9°F16.6°C 47.4°F8.6°C 59% 3.8 mph S6.1 kmh S 11.4 mph18.3 kmh 29.84 in1010.5 mb 0.00 in0.0 mm 0.00 in0.0 mm 0.00 in0.0 mm
05:52 AM 61.9°F16.6°C 47.4°F8.6°C 59% 3.1 mph S5.0 kmh S 11.4 mph18.3 kmh 29.84 in1010.5 mb 0.00 in0.0 mm 0.00 in0.0 mm 0.00 in0.0 mm
05:53 AM 61.9°F16.6°C 47.4°F8.6°C 59% 3.8 mph S6.1 kmh S 11.4 mph18.3 kmh 29.84 in1010.5 mb 0.00 in0.0 mm 0.00 in0.0 mm 0.00 in0.0 mm
05:54 AM 61.9°F16.6°C 47.4°F8.6°C 59% 4.5 mph S7.2 kmh S 11.4 mph18.3 kmh 29.84 in1010.5 mb 0.00 in0.0 mm 0.00 in0.0 mm 0.00 in0.0 mm
05:55 AM 61.9°F16.6°C 47.4°F8.6°C 59% 4.5 mph S7.2 kmh S 11.4 mph18.3 kmh 29.83 in1010.2 mb 0.00 in0.0 mm 0.00 in0.0 mm 0.00 in0.0 mm
05:56 AM 61.9°F16.6°C 47.0°F8.3°C 58% 3.8 mph S6.1 kmh S 11.4 mph18.3 kmh 29.83 in1010.2 mb 0.00 in0.0 mm 0.00 in0.0 mm 0.00 in0.0 mm
05:57 AM 61.9°F16.6°C 47.0°F8.3°C 58% 8.3 mph S13.4 kmh S 11.4 mph18.3 kmh 29.83 in1010.2 mb 0.00 in0.0 mm 0.00 in0.0 mm 0.00 in0.0 mm
05:58 AM 61.9°F16.6°C 46.5°F8.1°C 57% 4.5 mph S7.2 kmh S 11.4 mph18.3 kmh 29.83 in1010.2 mb 0.00 in0.0 mm 0.00 in0.0 mm 0.00 in0.0 mm
05:59 AM 61.9°F16.6°C 46.5°F8.1°C 57% 6.9 mph S11.1 kmh S 11.4 mph18.3 kmh 29.83 in1010.2 mb 0.00 in0.0 mm 0.00 in0.0 mm 0.00 in0.0 mm
06:00 AM 61.9°F16.6°C 46.0°F7.8°C 56% 5.4 mph S8.7 kmh S 10.7 mph17.2 kmh 29.83 in1010.2 mb 0.00 in0.0 mm 0.00 in0.0 mm 0.00 in0.0 mm
06:01 AM 61.9°F16.6°C 46.0°F7.8°C 56% 3.1 mph S5.0 kmh S 10.7 mph17.2 kmh 29.83 in1010.2 mb 0.00 in0.0 mm 0.00 in0.0 mm 0.00 in0.0 mm
06:02 AM 61.9°F16.6°C 46.0°F7.8°C 56% 3.1 mph S5.0 kmh S 10.7 mph17.2 kmh 29.83 in1010.2 mb 0.00 in0.0 mm 0.00 in0.0 mm 0.00 in0.0 mm
06:03 AM 61.9°F16.6°C 46.0°F7.8°C 56% 1.6 mph SSE2.6 kmh SSE 10.7 mph17.2 kmh 29.83 in1010.2 mb 0.00 in0.0 mm 0.00 in0.0 mm 0.00 in0.0 mm
06:04 AM 61.9°F16.6°C 46.0°F7.8°C 56% 3.1 mph SSE5.0 kmh SSE 10.7 mph17.2 kmh 29.83 in1010.2 mb 0.00 in0.0 mm 0.00 in0.0 mm 0.00 in0.0 mm
06:05 AM 61.9°F16.6°C 46.0°F7.8°C 56% 3.1 mph SSE5.0 kmh SSE 10.7 mph17.2 kmh 29.84 in1010.5 mb 0.00 in0.0 mm 0.00 in0.0 mm 0.00 in0.0 mm
06:06 AM 61.9°F16.6°C 46.0°F7.8°C 56% 2.2 mph SSE3.5 kmh SSE 10.7 mph17.2 kmh 29.84 in1010.5 mb 0.00 in0.0 mm 0.00 in0.0 mm 0.00 in0.0 mm
06:07 AM 61.9°F16.6°C 46.0°F7.8°C 56% 0.7 mph S1.1 kmh S 10.7 mph17.2 kmh 29.83 in1010.2 mb 0.00 in0.0 mm 0.00 in0.0 mm 0.00 in0.0 mm
06:08 AM 61.9°F16.6°C 46.0°F7.8°C 56% 0.7 mph S1.1 kmh S 10.7 mph17.2 kmh 29.83 in1010.2 mb 0.00 in0.0 mm 0.00 in0.0 mm 0.00 in0.0 mm
06:09 AM 61.9°F16.6°C 46.0°F7.8°C 56% 1.6 mph S2.6 kmh S 10.7 mph17.2 kmh 29.83 in1010.2 mb 0.00 in0.0 mm 0.00 in0.0 mm 0.00 in0.0 mm
06:10 AM 61.9°F16.6°C 46.0°F7.8°C 56% 1.6 mph S2.6 kmh S 8.3 mph13.4 kmh 29.83 in1010.2 mb 0.00 in0.0 mm 0.00 in0.0 mm 0.00 in0.0 mm
06:11 AM 61.9°F16.6°C 46.0°F7.8°C 56% Calm Calm 6.0 mph9.7 kmh 29.83 in1010.2 mb 0.00 in0.0 mm 0.00 in0.0 mm 0.00 in0.0 mm
06:12 AM 61.9°F16.6°C 46.0°F7.8°C 56% Calm Calm 4.5 mph7.2 kmh 29.83 in1010.2 mb 0.00 in0.0 mm 0.00 in0.0 mm 0.00 in0.0 mm
06:13 AM 61.7°F16.5°C 45.9°F7.7°C 56% Calm Calm 4.5 mph7.2 kmh 29.83 in1010.2 mb 0.00 in0.0 mm 0.00 in0.0 mm 0.00 in0.0 mm
06:14 AM 61.9°F16.6°C 46.0°F7.8°C 56% Calm Calm 4.5 mph7.2 kmh 29.83 in1010.2 mb 0.00 in0.0 mm 0.00 in0.0 mm 0.00 in0.0 mm
06:15 AM 61.9°F16.6°C 46.0°F7.8°C 56% 1.6 mph S2.6 kmh S 3.8 mph6.1 kmh 29.83 in1010.2 mb 0.00 in0.0 mm 0.00 in0.0 mm 0.00 in0.0 mm
06:16 AM 61.9°F16.6°C 46.0°F7.8°C 56% 4.5 mph S7.2 kmh S 7.6 mph12.2 kmh 29.83 in1010.2 mb 0.00 in0.0 mm 0.00 in0.0 mm 0.00 in0.0 mm
06:17 AM 61.7°F16.5°C 46.3°F7.9°C 57% 1.6 mph S2.6 kmh S 7.6 mph12.2 kmh 29.83 in1010.2 mb 0.00 in0.0 mm 0.00 in0.0 mm 0.00 in0.0 mm
06:18 AM 61.7°F16.5°C 46.3°F7.9°C 57% 1.6 mph SSE2.6 kmh SSE 7.6 mph12.2 kmh 29.83 in1010.2 mb 0.00 in0.0 mm 0.00 in0.0 mm 0.00 in0.0 mm
06:19 AM 61.7°F16.5°C 46.3°F7.9°C 57% 0.7 mph SSE1.1 kmh SSE 7.6 mph12.2 kmh 29.82 in1009.8 mb 0.00 in0.0 mm 0.00 in0.0 mm 0.00 in0.0 mm
06:20 AM 61.5°F16.4°C 46.2°F7.9°C 57% 0.7 mph SE1.1 kmh SE 7.6 mph12.2 kmh 29.82 in1009.8 mb 0.00 in0.0 mm 0.00 in0.0 mm 0.00 in0.0 mm
06:21 AM 61.5°F16.4°C 46.2°F7.9°C 57% 0.7 mph SE1.1 kmh SE 7.6 mph12.2 kmh 29.82 in1009.8 mb 0.00 in0.0 mm 0.00 in0.0 mm 0.00 in0.0 mm
06:22 AM 61.7°F16.5°C 46.3°F7.9°C 57% 1.6 mph SE2.6 kmh SE 7.6 mph12.2 kmh 29.82 in1009.8 mb 0.00 in0.0 mm 0.00 in0.0 mm 0.00 in0.0 mm
06:23 AM 61.5°F16.4°C 46.2°F7.9°C 57% 3.1 mph SE5.0 kmh SE 7.6 mph12.2 kmh 29.83 in1010.2 mb 0.00 in0.0 mm 0.00 in0.0 mm 0.00 in0.0 mm
06:24 AM 61.7°F16.5°C 46.3°F7.9°C 57% 2.2 mph SE3.5 kmh SE 7.6 mph12.2 kmh 29.82 in1009.8 mb 0.00 in0.0 mm 0.00 in0.0 mm 0.00 in0.0 mm
06:25 AM 61.5°F16.4°C 46.2°F7.9°C 57% 1.6 mph SE2.6 kmh SE 7.6 mph12.2 kmh 29.82 in1009.8 mb 0.00 in0.0 mm 0.00 in0.0 mm 0.00 in0.0 mm
06:26 AM 61.5°F16.4°C 46.2°F7.9°C 57% 0.7 mph SE1.1 kmh SE 7.6 mph12.2 kmh 29.82 in1009.8 mb 0.00 in0.0 mm 0.00 in0.0 mm 0.00 in0.0 mm
06:27 AM 61.7°F16.5°C 46.3°F7.9°C 57% 2.2 mph SE3.5 kmh SE 4.5 mph7.2 kmh 29.83 in1010.2 mb 0.00 in0.0 mm 0.00 in0.0 mm 0.00 in0.0 mm
06:28 AM 61.7°F16.5°C 46.3°F7.9°C 57% 2.2 mph SSE3.5 kmh SSE 4.5 mph7.2 kmh 29.82 in1009.8 mb 0.00 in0.0 mm 0.00 in0.0 mm 0.00 in0.0 mm
06:29 AM 61.7°F16.5°C 46.3°F7.9°C 57% 2.2 mph SSE3.5 kmh SSE 4.5 mph7.2 kmh 29.83 in1010.2 mb 0.00 in0.0 mm 0.00 in0.0 mm 0.00 in0.0 mm
06:30 AM 61.5°F16.4°C 46.2°F7.9°C 57% 2.2 mph S3.5 kmh S 4.5 mph7.2 kmh 29.83 in1010.2 mb 0.00 in0.0 mm 0.00 in0.0 mm 0.00 in0.0 mm
06:31 AM 61.5°F16.4°C 46.2°F7.9°C 57% 1.6 mph S2.6 kmh S 4.5 mph7.2 kmh 29.83 in1010.2 mb 0.00 in0.0 mm 0.00 in0.0 mm 0.00 in0.0 mm
06:32 AM 61.5°F16.4°C 46.2°F7.9°C 57% 2.2 mph S3.5 kmh S 4.5 mph7.2 kmh 29.83 in1010.2 mb 0.00 in0.0 mm 0.00 in0.0 mm 0.00 in0.0 mm
06:33 AM 61.9°F16.6°C 46.5°F8.1°C 57% 1.6 mph S2.6 kmh S 4.5 mph7.2 kmh 29.84 in1010.5 mb 0.00 in0.0 mm 0.00 in0.0 mm 0.00 in0.0 mm
06:34 AM 61.7°F16.5°C 46.3°F7.9°C 57% 0.7 mph S1.1 kmh S 4.5 mph7.2 kmh 29.83 in1010.2 mb 0.00 in0.0 mm 0.00 in0.0 mm 0.00 in0.0 mm
06:35 AM 61.7°F16.5°C 46.3°F7.9°C 57% 2.2 mph S3.5 kmh S 4.5 mph7.2 kmh 29.83 in1010.2 mb 0.00 in0.0 mm 0.00 in0.0 mm 0.00 in0.0 mm
06:36 AM 61.9°F16.6°C 46.5°F8.1°C 57% 3.8 mph S6.1 kmh S 6.9 mph11.1 kmh 29.84 in1010.5 mb 0.00 in0.0 mm 0.00 in0.0 mm 0.00 in0.0 mm
06:37 AM 61.9°F16.6°C 46.5°F8.1°C 57% 3.8 mph S6.1 kmh S 6.9 mph11.1 kmh 29.83 in1010.2 mb 0.00 in0.0 mm 0.00 in0.0 mm 0.00 in0.0 mm
06:38 AM 61.9°F16.6°C 46.5°F8.1°C 57% 1.6 mph S2.6 kmh S 6.9 mph11.1 kmh 29.83 in1010.2 mb 0.00 in0.0 mm 0.00 in0.0 mm 0.00 in0.0 mm
06:39 AM 61.9°F16.6°C 46.5°F8.1°C 57% 1.6 mph S2.6 kmh S 6.9 mph11.1 kmh 29.82 in1009.8 mb 0.00 in0.0 mm 0.00 in0.0 mm 0.00 in0.0 mm
06:40 AM 61.9°F16.6°C 46.5°F8.1°C 57% 1.6 mph S2.6 kmh S 6.9 mph11.1 kmh 29.83 in1010.2 mb 0.00 in0.0 mm 0.00 in0.0 mm 0.00 in0.0 mm
06:41 AM 61.9°F16.6°C 47.0°F8.3°C 58% 1.6 mph S2.6 kmh S 6.9 mph11.1 kmh 29.83 in1010.2 mb 0.00 in0.0 mm 0.00 in0.0 mm 0.00 in0.0 mm
06:42 AM 61.9°F16.6°C 47.0°F8.3°C 58% 1.6 mph SSW2.6 kmh SSW 6.9 mph11.1 kmh 29.84 in1010.5 mb 0.00 in0.0 mm 0.00 in0.0 mm 0.00 in0.0 mm
06:43 AM 61.9°F16.6°C 47.0°F8.3°C 58% 2.2 mph SSW3.5 kmh SSW 6.9 mph11.1 kmh 29.83 in1010.2 mb 0.00 in0.0 mm 0.00 in0.0 mm 0.00 in0.0 mm
06:44 AM 61.9°F16.6°C 47.0°F8.3°C 58% 2.2 mph SW3.5 kmh SW 6.9 mph11.1 kmh 29.83 in1010.2 mb 0.00 in0.0 mm 0.00 in0.0 mm 0.00 in0.0 mm
06:45 AM 62.1°F16.7°C 47.1°F8.4°C 58% 3.1 mph SSW5.0 kmh SSW 6.9 mph11.1 kmh 29.83 in1010.2 mb 0.00 in0.0 mm 0.00 in0.0 mm 0.00 in0.0 mm
06:46 AM 62.1°F16.7°C 47.1°F8.4°C 58% 3.1 mph SSW5.0 kmh SSW 6.9 mph11.1 kmh 29.83 in1010.2 mb 0.00 in0.0 mm 0.00 in0.0 mm 0.00 in0.0 mm
06:47 AM 61.9°F16.6°C 47.0°F8.3°C 58% 2.2 mph SSW3.5 kmh SSW 5.4 mph8.7 kmh 29.83 in1010.2 mb 0.00 in0.0 mm 0.00 in0.0 mm 0.00 in0.0 mm
06:48 AM 61.9°F16.6°C 47.0°F8.3°C 58% 1.6 mph SSW2.6 kmh SSW 5.4 mph8.7 kmh 29.84 in1010.5 mb 0.00 in0.0 mm 0.00 in0.0 mm 0.00 in0.0 mm
06:49 AM 61.9°F16.6°C 47.4°F8.6°C 59% 2.2 mph SSW3.5 kmh SSW 5.4 mph8.7 kmh 29.84 in1010.5 mb 0.00 in0.0 mm 0.00 in0.0 mm 0.00 in0.0 mm
06:50 AM 61.9°F16.6°C 47.9°F8.8°C 60% 4.5 mph SSW7.2 kmh SSW 6.0 mph9.7 kmh 29.84 in1010.5 mb 0.00 in0.0 mm 0.00 in0.0 mm 0.00 in0.0 mm
06:51 AM 61.7°F16.5°C 48.1°F8.9°C 61% 2.2 mph SSW3.5 kmh SSW 6.0 mph9.7 kmh 29.84 in1010.5 mb 0.00 in0.0 mm 0.00 in0.0 mm 0.00 in0.0 mm
06:52 AM 61.7°F16.5°C 48.1°F8.9°C 61% 3.1 mph SSW5.0 kmh SSW 6.0 mph9.7 kmh 29.83 in1010.2 mb 0.00 in0.0 mm 0.00 in0.0 mm 0.00 in0.0 mm
06:53 AM 61.7°F16.5°C 48.6°F9.2°C 62% 3.8 mph SSW6.1 kmh SSW 6.0 mph9.7 kmh 29.84 in1010.5 mb 0.00 in0.0 mm 0.00 in0.0 mm 0.00 in0.0 mm
06:54 AM 61.7°F16.5°C 48.6°F9.2°C 62% 5.4 mph SSW8.7 kmh SSW 7.6 mph12.2 kmh 29.84 in1010.5 mb 0.00 in0.0 mm 0.00 in0.0 mm 0.00 in0.0 mm
06:55 AM 61.5°F16.4°C 47.5°F8.6°C 60% 1.6 mph S2.6 kmh S 7.6 mph12.2 kmh 29.83 in1010.2 mb 0.00 in0.0 mm 0.00 in0.0 mm 0.00 in0.0 mm
06:56 AM 61.7°F16.5°C 47.7°F8.7°C 60% 1.6 mph S2.6 kmh S 7.6 mph12.2 kmh 29.83 in1010.2 mb 0.00 in0.0 mm 0.00 in0.0 mm 0.00 in0.0 mm
06:57 AM 61.7°F16.5°C 47.7°F8.7°C 60% 3.8 mph S6.1 kmh S 7.6 mph12.2 kmh 29.83 in1010.2 mb 0.00 in0.0 mm 0.00 in0.0 mm 0.00 in0.0 mm
06:58 AM 61.7°F16.5°C 47.7°F8.7°C 60% 3.8 mph S6.1 kmh S 7.6 mph12.2 kmh 29.83 in1010.2 mb 0.00 in0.0 mm 0.00 in0.0 mm 0.00 in0.0 mm
06:59 AM 61.7°F16.5°C 47.7°F8.7°C 60% 3.1 mph S5.0 kmh S 7.6 mph12.2 kmh 29.84 in1010.5 mb 0.00 in0.0 mm 0.00 in0.0 mm 0.00 in0.0 mm
07:00 AM 61.7°F16.5°C 47.7°F8.7°C 60% 1.6 mph S2.6 kmh S 7.6 mph12.2 kmh 29.84 in1010.5 mb 0.00 in0.0 mm 0.00 in0.0 mm 0.00 in0.0 mm
07:01 AM 61.7°F16.5°C 47.7°F8.7°C 60% 2.2 mph S3.5 kmh S 7.6 mph12.2 kmh 29.84 in1010.5 mb 0.00 in0.0 mm 0.00 in0.0 mm 0.00 in0.0 mm
07:02 AM 61.7°F16.5°C 48.1°F8.9°C 61% 0.7 mph S1.1 kmh S 7.6 mph12.2 kmh 29.84 in1010.5 mb 0.00 in0.0 mm 0.00 in0.0 mm 0.00 in0.0 mm
07:03 AM 61.7°F16.5°C 48.1°F8.9°C 61% 3.1 mph S5.0 kmh S 7.6 mph12.2 kmh 29.84 in1010.5 mb 0.00 in0.0 mm 0.00 in0.0 mm 0.00 in0.0 mm
07:04 AM 61.7°F16.5°C 47.7°F8.7°C 60% 3.8 mph S6.1 kmh S 7.6 mph12.2 kmh 29.84 in1010.5 mb 0.00 in0.0 mm 0.00 in0.0 mm 0.00 in0.0 mm
07:05 AM 61.7°F16.5°C 47.2°F8.4°C 59% 2.2 mph S3.5 kmh S 6.9 mph11.1 kmh 29.84 in1010.5 mb 0.00 in0.0 mm 0.00 in0.0 mm 0.00 in0.0 mm
07:06 AM 61.7°F16.5°C 47.2°F8.4°C 59% 0.7 mph S1.1 kmh S 6.9 mph11.1 kmh 29.84 in1010.5 mb 0.00 in0.0 mm 0.00 in0.0 mm 0.00 in0.0 mm
07:07 AM 61.7°F16.5°C 47.2°F8.4°C 59% 3.8 mph S6.1 kmh S 6.9 mph11.1 kmh 29.84 in1010.5 mb 0.00 in0.0 mm 0.00 in0.0 mm 0.00 in0.0 mm
07:08 AM 61.7°F16.5°C 47.2°F8.4°C 59% 1.6 mph S2.6 kmh S 6.9 mph11.1 kmh 29.84 in1010.5 mb 0.00 in0.0 mm 0.00 in0.0 mm 0.00 in0.0 mm
07:09 AM 61.7°F16.5°C 47.2°F8.4°C 59% 3.1 mph SSE5.0 kmh SSE 6.0 mph9.7 kmh 29.84 in1010.5 mb 0.00 in0.0 mm 0.00 in0.0 mm 0.00 in0.0 mm
07:10 AM 61.7°F16.5°C 47.7°F8.7°C 60% Calm Calm 6.0 mph9.7 kmh 29.84 in1010.5 mb 0.00 in0.0 mm 0.00 in0.0 mm 0.00 in0.0 mm
07:11 AM 61.9°F16.6°C 47.9°F8.8°C 60% 1.6 mph SSE2.6 kmh SSE 6.0 mph9.7 kmh 29.85 in1010.8 mb 0.00 in0.0 mm 0.00 in0.0 mm 0.00 in0.0 mm
07:12 AM 61.9°F16.6°C 47.9°F8.8°C 60% 2.2 mph SSE3.5 kmh SSE 6.0 mph9.7 kmh 29.84 in1010.5 mb 0.00 in0.0 mm 0.00 in0.0 mm 0.00 in0.0 mm
07:13 AM 61.9°F16.6°C 47.9°F8.8°C 60% 3.1 mph SE5.0 kmh SE 6.0 mph9.7 kmh 29.85 in1010.8 mb 0.00 in0.0 mm 0.00 in0.0 mm 0.00 in0.0 mm
07:14 AM 61.9°F16.6°C 47.9°F8.8°C 60% 2.2 mph SE3.5 kmh SE 6.0 mph9.7 kmh 29.85 in1010.8 mb 0.00 in0.0 mm 0.00 in0.0 mm 0.00 in0.0 mm
07:15 AM 62.1°F16.7°C 48.0°F8.9°C 60% 3.1 mph SE5.0 kmh SE 6.0 mph9.7 kmh 29.85 in1010.8 mb 0.00 in0.0 mm 0.00 in0.0 mm 0.00 in0.0 mm
07:16 AM 62.1°F16.7°C 47.6°F8.7°C 59% 3.8 mph SSE6.1 kmh SSE 6.0 mph9.7 kmh 29.85 in1010.8 mb 0.00 in0.0 mm 0.00 in0.0 mm 0.00 in0.0 mm
07:17 AM 62.1°F16.7°C 47.6°F8.7°C 59% 3.1 mph SSE5.0 kmh SSE 6.0 mph9.7 kmh 29.85 in1010.8 mb 0.00 in0.0 mm 0.00 in0.0 mm 0.00 in0.0 mm
07:18 AM 62.1°F16.7°C 47.6°F8.7°C 59% 3.8 mph SSE6.1 kmh SSE 6.0 mph9.7 kmh 29.85 in1010.8 mb 0.00 in0.0 mm 0.00 in0.0 mm 0.00 in0.0 mm
07:19 AM 62.1°F16.7°C 48.0°F8.9°C 60% 3.1 mph SSE5.0 kmh SSE 6.0 mph9.7 kmh 29.85 in1010.8 mb 0.00 in0.0 mm 0.00 in0.0 mm 0.00 in0.0 mm
07:20 AM 62.2°F16.8°C 47.7°F8.7°C 59% 3.1 mph SSE5.0 kmh SSE 6.9 mph11.1 kmh 29.85 in1010.8 mb 0.00 in0.0 mm 0.00 in0.0 mm 0.00 in0.0 mm
07:21 AM 62.2°F16.8°C 47.7°F8.7°C 59% 1.6 mph SSE2.6 kmh SSE 6.9 mph11.1 kmh 29.86 in1011.2 mb 0.00 in0.0 mm 0.00 in0.0 mm 0.00 in0.0 mm
07:22 AM 62.2°F16.8°C 47.7°F8.7°C 59% 3.1 mph SSE5.0 kmh SSE 6.9 mph11.1 kmh 29.85 in1010.8 mb 0.00 in0.0 mm 0.00 in0.0 mm 0.00 in0.0 mm
07:23 AM 62.6°F17.0°C 47.6°F8.7°C 58% 4.5 mph SSE7.2 kmh SSE 6.9 mph11.1 kmh 29.85 in1010.8 mb 0.00 in0.0 mm 0.00 in0.0 mm 0.00 in0.0 mm
07:24 AM 63.0°F17.2°C 48.0°F8.9°C 58% 3.8 mph SSE6.1 kmh SSE 6.9 mph11.1 kmh 29.85 in1010.8 mb 0.00 in0.0 mm 0.00 in0.0 mm 0.00 in0.0 mm
07:25 AM 63.1°F17.3°C 47.7°F8.7°C 57% 5.4 mph SSE8.7 kmh SSE 6.9 mph11.1 kmh 29.85 in1010.8 mb 0.00 in0.0 mm 0.00 in0.0 mm 0.00 in0.0 mm
07:26 AM 63.3°F17.4°C 47.4°F8.6°C 56% 3.1 mph SSE5.0 kmh SSE 6.9 mph11.1 kmh 29.85 in1010.8 mb 0.00 in0.0 mm 0.00 in0.0 mm 0.00 in0.0 mm
07:27 AM 63.9°F17.7°C 47.4°F8.6°C 55% 4.5 mph S7.2 kmh S 9.2 mph14.8 kmh 29.85 in1010.8 mb 0.00 in0.0 mm 0.00 in0.0 mm 0.00 in0.0 mm
07:28 AM 63.9°F17.7°C 46.9°F8.3°C 54% 2.2 mph S3.5 kmh S 9.2 mph14.8 kmh 29.84 in1010.5 mb 0.00 in0.0 mm 0.00 in0.0 mm 0.00 in0.0 mm
07:29 AM 63.9°F17.7°C 46.4°F8.0°C 53% 6.9 mph SSE11.1 kmh SSE 10.7 mph17.2 kmh 29.85 in1010.8 mb 0.00 in0.0 mm 0.00 in0.0 mm 0.00 in0.0 mm
07:30 AM 63.9°F17.7°C 46.4°F8.0°C 53% 6.9 mph SSE11.1 kmh SSE 10.7 mph17.2 kmh 29.84 in1010.5 mb 0.00 in0.0 mm 0.00 in0.0 mm 0.00 in0.0 mm
07:31 AM 63.7°F17.6°C 45.2°F7.3°C 51% 8.3 mph SE13.4 kmh SE 10.7 mph17.2 kmh 29.84 in1010.5 mb 0.00 in0.0 mm 0.00 in0.0 mm 0.00 in0.0 mm
07:32 AM 63.7°F17.6°C 45.2°F7.3°C 51% 7.6 mph SE12.2 kmh SE 10.7 mph17.2 kmh 29.85 in1010.8 mb 0.00 in0.0 mm 0.00 in0.0 mm 0.00 in0.0 mm
07:33 AM 63.7°F17.6°C 45.2°F7.3°C 51% 6.0 mph SE9.7 kmh SE 10.7 mph17.2 kmh 29.85 in1010.8 mb 0.00 in0.0 mm 0.00 in0.0 mm 0.00 in0.0 mm
07:34 AM 63.5°F17.5°C 45.1°F7.3°C 51% 5.4 mph SE8.7 kmh SE 10.7 mph17.2 kmh 29.85 in1010.8 mb 0.00 in0.0 mm 0.00 in0.0 mm 0.00 in0.0 mm
07:35 AM 63.7°F17.6°C 45.2°F7.3°C 51% 4.5 mph SE7.2 kmh SE 10.7 mph17.2 kmh 29.85 in1010.8 mb 0.00 in0.0 mm 0.00 in0.0 mm 0.00 in0.0 mm
07:36 AM 63.7°F17.6°C 45.2°F7.3°C 51% 4.5 mph SE7.2 kmh SE 10.7 mph17.2 kmh 29.84 in1010.5 mb 0.00 in0.0 mm 0.00 in0.0 mm 0.00 in0.0 mm
07:37 AM 63.7°F17.6°C 45.2°F7.3°C 51% 4.5 mph SE7.2 kmh SE 10.7 mph17.2 kmh 29.84 in1010.5 mb 0.00 in0.0 mm 0.00 in0.0 mm 0.00 in0.0 mm
07:38 AM 63.7°F17.6°C 45.2°F7.3°C 51% 4.5 mph SE7.2 kmh SE 10.7 mph17.2 kmh 29.85 in1010.8 mb 0.00 in0.0 mm 0.00 in0.0 mm 0.00 in0.0 mm
07:39 AM 64.2°F17.9°C 45.7°F7.6°C 51% 3.8 mph SSE6.1 kmh SSE 10.7 mph17.2 kmh 29.85 in1010.8 mb 0.00 in0.0 mm 0.00 in0.0 mm 0.00 in0.0 mm
07:40 AM 64.2°F17.9°C 45.7°F7.6°C 51% 3.8 mph SSE6.1 kmh SSE 10.7 mph17.2 kmh 29.84 in1010.5 mb 0.00 in0.0 mm 0.00 in0.0 mm 0.00 in0.0 mm
07:41 AM 65.1°F18.4°C 46.6°F8.1°C 51% 3.8 mph SSE6.1 kmh SSE 10.7 mph17.2 kmh 29.84 in1010.5 mb 0.00 in0.0 mm 0.00 in0.0 mm 0.00 in0.0 mm
07:42 AM 65.5°F18.6°C 46.4°F8.0°C 50% 1.6 mph SSE2.6 kmh SSE 10.7 mph17.2 kmh 29.85 in1010.8 mb 0.00 in0.0 mm 0.00 in0.0 mm 0.00 in0.0 mm
07:43 AM 66.2°F19.0°C 46.0°F7.8°C 48% 5.4 mph S8.7 kmh S 9.8 mph15.8 kmh 29.85 in1010.8 mb 0.00 in0.0 mm 0.00 in0.0 mm 0.00 in0.0 mm
07:44 AM 66.4°F19.1°C 46.1°F7.8°C 48% 4.5 mph S7.2 kmh S 9.8 mph15.8 kmh 29.86 in1011.2 mb 0.00 in0.0 mm 0.00 in0.0 mm 0.00 in0.0 mm
07:45 AM 66.4°F19.1°C 45.6°F7.6°C 47% 6.0 mph S9.7 kmh S 10.7 mph17.2 kmh 29.85 in1010.8 mb 0.00 in0.0 mm 0.00 in0.0 mm 0.00 in0.0 mm
07:46 AM 66.2°F19.0°C 44.8°F7.1°C 46% 5.4 mph S8.7 kmh S 10.7 mph17.2 kmh 29.86 in1011.2 mb 0.00 in0.0 mm 0.00 in0.0 mm 0.00 in0.0 mm
07:47 AM 65.3°F18.5°C 44.6°F7.0°C 47% 5.4 mph S8.7 kmh S 10.7 mph17.2 kmh 29.86 in1011.2 mb 0.00 in0.0 mm 0.00 in0.0 mm 0.00 in0.0 mm
07:48 AM 64.9°F18.3°C 44.8°F7.1°C 48% 6.9 mph S11.1 kmh S 11.4 mph18.3 kmh 29.86 in1011.2 mb 0.00 in0.0 mm 0.00 in0.0 mm 0.00 in0.0 mm
07:49 AM 64.8°F18.2°C 44.6°F7.0°C 48% 3.8 mph S6.1 kmh S 11.4 mph18.3 kmh 29.86 in1011.2 mb 0.00 in0.0 mm 0.00 in0.0 mm 0.00 in0.0 mm
07:50 AM 64.6°F18.1°C 45.0°F7.2°C 49% 6.9 mph S11.1 kmh S 15.9 mph25.6 kmh 29.86 in1011.2 mb 0.00 in0.0 mm 0.00 in0.0 mm 0.00 in0.0 mm
07:51 AM 64.2°F17.9°C 45.2°F7.3°C 50% 7.6 mph SSE12.2 kmh SSE 15.9 mph25.6 kmh 29.86 in1011.2 mb 0.00 in0.0 mm 0.00 in0.0 mm 0.00 in0.0 mm
07:52 AM 64.2°F17.9°C 45.2°F7.3°C 50% 7.6 mph SSE12.2 kmh SSE 15.9 mph25.6 kmh 29.86 in1011.2 mb 0.00 in0.0 mm 0.00 in0.0 mm 0.00 in0.0 mm
07:53 AM 64.0°F17.8°C 45.0°F7.2°C 50% 3.8 mph SE6.1 kmh SE 15.9 mph25.6 kmh 29.86 in1011.2 mb 0.00 in0.0 mm 0.00 in0.0 mm 0.00 in0.0 mm
07:54 AM 64.0°F17.8°C 45.0°F7.2°C 50% 5.4 mph SSE8.7 kmh SSE 15.9 mph25.6 kmh 29.86 in1011.2 mb 0.00 in0.0 mm 0.00 in0.0 mm 0.00 in0.0 mm
07:55 AM 64.0°F17.8°C 45.6°F7.6°C 51% 4.5 mph SSE7.2 kmh SSE 15.9 mph25.6 kmh 29.87 in1011.5 mb 0.00 in0.0 mm 0.00 in0.0 mm 0.00 in0.0 mm
07:56 AM 63.9°F17.7°C 45.4°F7.4°C 51% 6.0 mph SE9.7 kmh SE 15.9 mph25.6 kmh 29.87 in1011.5 mb 0.00 in0.0 mm 0.00 in0.0 mm 0.00 in0.0 mm
07:57 AM 63.9°F17.7°C 45.4°F7.4°C 51% 6.9 mph SSE11.1 kmh SSE 15.9 mph25.6 kmh 29.87 in1011.5 mb 0.00 in0.0 mm 0.00 in0.0 mm 0.00 in0.0 mm
07:58 AM 63.9°F17.7°C 45.4°F7.4°C 51% 6.9 mph SSE11.1 kmh SSE 15.9 mph25.6 kmh 29.87 in1011.5 mb 0.00 in0.0 mm 0.00 in0.0 mm 0.00 in0.0 mm
07:59 AM 63.9°F17.7°C 45.4°F7.4°C 51% 5.4 mph SE8.7 kmh SE 15.9 mph25.6 kmh 29.87 in1011.5 mb 0.00 in0.0 mm 0.00 in0.0 mm 0.00 in0.0 mm
08:00 AM 63.9°F17.7°C 45.4°F7.4°C 51% 5.4 mph SE8.7 kmh SE 11.4 mph18.3 kmh 29.88 in1011.9 mb 0.00 in0.0 mm 0.00 in0.0 mm 0.00 in0.0 mm
08:01 AM 64.4°F18.0°C 44.8°F7.1°C 49% 5.4 mph SSE8.7 kmh SSE 11.4 mph18.3 kmh 29.87 in1011.5 mb 0.00 in0.0 mm 0.00 in0.0 mm 0.00 in0.0 mm
08:02 AM 64.4°F18.0°C 44.8°F7.1°C 49% 5.4 mph SSE8.7 kmh SSE 11.4 mph18.3 kmh 29.87 in1011.5 mb 0.00 in0.0 mm 0.00 in0.0 mm 0.00 in0.0 mm
08:03 AM 64.8°F18.2°C 45.2°F7.3°C 49% 6.0 mph S9.7 kmh S 10.7 mph17.2 kmh 29.88 in1011.9 mb 0.00 in0.0 mm 0.00 in0.0 mm 0.00 in0.0 mm
08:04 AM 64.8°F18.2°C 45.2°F7.3°C 49% 6.0 mph S9.7 kmh S 10.7 mph17.2 kmh 29.87 in1011.5 mb 0.00 in0.0 mm 0.00 in0.0 mm 0.00 in0.0 mm
08:05 AM 64.8°F18.2°C 45.2°F7.3°C 49% 6.0 mph S9.7 kmh S 10.7 mph17.2 kmh 29.88 in1011.9 mb 0.00 in0.0 mm 0.00 in0.0 mm 0.00 in0.0 mm
08:06 AM 64.8°F18.2°C 45.2°F7.3°C 49% 6.0 mph S9.7 kmh S 10.7 mph17.2 kmh 29.88 in1011.9 mb 0.00 in0.0 mm 0.00 in0.0 mm 0.00 in0.0 mm
08:07 AM 64.8°F18.2°C 45.2°F7.3°C 49% 6.0 mph S9.7 kmh S 10.7 mph17.2 kmh 29.87 in1011.5 mb 0.00 in0.0 mm 0.00 in0.0 mm 0.00 in0.0 mm
08:08 AM 64.8°F18.2°C 45.2°F7.3°C 49% 6.0 mph S9.7 kmh S 9.8 mph15.8 kmh 29.87 in1011.5 mb 0.00 in0.0 mm 0.00 in0.0 mm 0.00 in0.0 mm
08:09 AM 64.8°F18.2°C 45.2°F7.3°C 49% 6.0 mph S9.7 kmh S 9.8 mph15.8 kmh 29.87 in1011.5 mb 0.00 in0.0 mm 0.00 in0.0 mm 0.00 in0.0 mm
08:10 AM 65.3°F18.5°C 45.1°F7.3°C 48% 6.0 mph S9.7 kmh S 9.8 mph15.8 kmh 29.87 in1011.5 mb 0.00 in0.0 mm 0.00 in0.0 mm 0.00 in0.0 mm
08:11 AM 65.3°F18.5°C 45.1°F7.3°C 48% 6.0 mph S9.7 kmh S 9.8 mph15.8 kmh 29.87 in1011.5 mb 0.00 in0.0 mm 0.00 in0.0 mm 0.00 in0.0 mm
08:12 AM 64.8°F18.2°C 45.2°F7.3°C 49% 5.4 mph S8.7 kmh S 9.2 mph14.8 kmh 29.87 in1011.5 mb 0.00 in0.0 mm 0.00 in0.0 mm 0.00 in0.0 mm
08:13 AM 64.8°F18.2°C 45.2°F7.3°C 49% 5.4 mph S8.7 kmh S 9.2 mph14.8 kmh 29.87 in1011.5 mb 0.00 in0.0 mm 0.00 in0.0 mm 0.00 in0.0 mm
08:14 AM 64.6°F18.1°C 45.0°F7.2°C 49% 5.4 mph S8.7 kmh S 9.2 mph14.8 kmh 29.87 in1011.5 mb 0.00 in0.0 mm 0.00 in0.0 mm 0.00 in0.0 mm
08:15 AM 64.6°F18.1°C 45.5°F7.5°C 50% 4.5 mph S7.2 kmh S 9.2 mph14.8 kmh 29.87 in1011.5 mb 0.00 in0.0 mm 0.00 in0.0 mm 0.00 in0.0 mm
08:16 AM 64.6°F18.1°C 45.5°F7.5°C 50% 3.1 mph S5.0 kmh S 9.2 mph14.8 kmh 29.87 in1011.5 mb 0.00 in0.0 mm 0.00 in0.0 mm 0.00 in0.0 mm
08:17 AM 64.6°F18.1°C 45.5°F7.5°C 50% 2.2 mph S3.5 kmh S 9.2 mph14.8 kmh 29.87 in1011.5 mb 0.00 in0.0 mm 0.00 in0.0 mm 0.00 in0.0 mm
08:18 AM 64.6°F18.1°C 45.5°F7.5°C 50% 6.9 mph S11.1 kmh S 9.2 mph14.8 kmh 29.87 in1011.5 mb 0.00 in0.0 mm 0.00 in0.0 mm 0.00 in0.0 mm
08:19 AM 64.6°F18.1°C 45.5°F7.5°C 50% 8.3 mph SSE13.4 kmh SSE 10.7 mph17.2 kmh 29.88 in1011.9 mb 0.00 in0.0 mm 0.00 in0.0 mm 0.00 in0.0 mm
08:20 AM 64.6°F18.1°C 45.5°F7.5°C 50% 7.6 mph SSE12.2 kmh SSE 10.7 mph17.2 kmh 29.87 in1011.5 mb 0.00 in0.0 mm 0.00 in0.0 mm 0.00 in0.0 mm
08:21 AM 64.4°F18.0°C 45.9°F7.7°C 51% 4.5 mph SE7.2 kmh SE 10.7 mph17.2 kmh 29.87 in1011.5 mb 0.00 in0.0 mm 0.00 in0.0 mm 0.00 in0.0 mm
08:22 AM 64.2°F17.9°C 46.2°F7.9°C 52% 4.5 mph SE7.2 kmh SE 10.7 mph17.2 kmh 29.87 in1011.5 mb 0.00 in0.0 mm 0.00 in0.0 mm 0.00 in0.0 mm
08:23 AM 64.4°F18.0°C 45.9°F7.7°C 51% 6.0 mph SE9.7 kmh SE 10.7 mph17.2 kmh 29.87 in1011.5 mb 0.00 in0.0 mm 0.00 in0.0 mm 0.00 in0.0 mm
08:24 AM 64.4°F18.0°C 45.9°F7.7°C 51% 6.0 mph SE9.7 kmh SE 10.7 mph17.2 kmh 29.87 in1011.5 mb 0.00 in0.0 mm 0.00 in0.0 mm 0.00 in0.0 mm
08:25 AM 64.6°F18.1°C 46.6°F8.1°C 52% 3.1 mph SE5.0 kmh SE 10.7 mph17.2 kmh 29.87 in1011.5 mb 0.00 in0.0 mm 0.00 in0.0 mm 0.00 in0.0 mm
08:26 AM 64.8°F18.2°C 46.7°F8.2°C 52% 4.5 mph SSE7.2 kmh SSE 10.7 mph17.2 kmh 29.87 in1011.5 mb 0.00 in0.0 mm 0.00 in0.0 mm 0.00 in0.0 mm
08:27 AM 65.3°F18.5°C 47.2°F8.4°C 52% 2.2 mph SSE3.5 kmh SSE 10.7 mph17.2 kmh 29.88 in1011.9 mb 0.00 in0.0 mm 0.00 in0.0 mm 0.00 in0.0 mm
08:28 AM 65.8°F18.8°C 47.7°F8.7°C 52% 4.5 mph SE7.2 kmh SE 10.7 mph17.2 kmh 29.87 in1011.5 mb 0.00 in0.0 mm 0.00 in0.0 mm 0.00 in0.0 mm
08:29 AM 65.8°F18.8°C 47.7°F8.7°C 52% 4.5 mph SSE7.2 kmh SSE 10.7 mph17.2 kmh 29.88 in1011.9 mb 0.00 in0.0 mm 0.00 in0.0 mm 0.00 in0.0 mm
08:30 AM 66.4°F19.1°C 46.7°F8.2°C 49% 6.9 mph SSE11.1 kmh SSE 11.4 mph18.3 kmh 29.88 in1011.9 mb 0.00 in0.0 mm 0.00 in0.0 mm 0.00 in0.0 mm
08:31 AM 66.6°F19.2°C 45.7°F7.6°C 47% 5.4 mph SSE8.7 kmh SSE 11.4 mph18.3 kmh 29.87 in1011.5 mb 0.00 in0.0 mm 0.00 in0.0 mm 0.00 in0.0 mm
08:32 AM 66.6°F19.2°C 45.7°F7.6°C 47% 5.4 mph S8.7 kmh S 11.4 mph18.3 kmh 29.88 in1011.9 mb 0.00 in0.0 mm 0.00 in0.0 mm 0.00 in0.0 mm
08:33 AM 66.9°F19.4°C 46.1°F7.8°C 47% 6.0 mph S9.7 kmh S 12.1 mph19.5 kmh 29.88 in1011.9 mb 0.00 in0.0 mm 0.00 in0.0 mm 0.00 in0.0 mm
08:34 AM 66.9°F19.4°C 46.1°F7.8°C 47% 6.0 mph S9.7 kmh S 12.1 mph19.5 kmh 29.88 in1011.9 mb 0.00 in0.0 mm 0.00 in0.0 mm 0.00 in0.0 mm
08:35 AM 66.9°F19.4°C 46.1°F7.8°C 47% 6.0 mph S9.7 kmh S 12.1 mph19.5 kmh 29.88 in1011.9 mb 0.00 in0.0 mm 0.00 in0.0 mm 0.00 in0.0 mm
08:36 AM 67.1°F19.5°C 45.1°F7.3°C 45% 6.9 mph S11.1 kmh S 12.1 mph19.5 kmh 29.87 in1011.5 mb 0.00 in0.0 mm 0.00 in0.0 mm 0.00 in0.0 mm
08:37 AM 67.1°F19.5°C 44.5°F6.9°C 44% 5.4 mph S8.7 kmh S 12.1 mph19.5 kmh 29.88 in1011.9 mb 0.00 in0.0 mm 0.00 in0.0 mm 0.00 in0.0 mm
08:38 AM 67.1°F19.5°C 44.5°F6.9°C 44% 7.6 mph S12.2 kmh S 13.0 mph20.9 kmh 29.88 in1011.9 mb 0.00 in0.0 mm 0.00 in0.0 mm 0.00 in0.0 mm
08:39 AM 67.1°F19.5°C 44.5°F6.9°C 44% 8.3 mph S13.4 kmh S 13.0 mph20.9 kmh 29.88 in1011.9 mb 0.00 in0.0 mm 0.00 in0.0 mm 0.00 in0.0 mm
08:40 AM 67.1°F19.5°C 44.5°F6.9°C 44% 5.4 mph S8.7 kmh S 13.0 mph20.9 kmh 29.88 in1011.9 mb 0.00 in0.0 mm 0.00 in0.0 mm 0.00 in0.0 mm
08:41 AM 67.3°F19.6°C 44.6°F7.0°C 44% 6.0 mph S9.7 kmh S 13.0 mph20.9 kmh 29.89 in1012.2 mb 0.00 in0.0 mm 0.00 in0.0 mm 0.00 in0.0 mm
08:42 AM 67.3°F19.6°C 44.6°F7.0°C 44% 6.0 mph S9.7 kmh S 13.0 mph20.9 kmh 29.88 in1011.9 mb 0.00 in0.0 mm 0.00 in0.0 mm 0.00 in0.0 mm
08:43 AM 67.8°F19.9°C 44.5°F6.9°C 43% 4.5 mph S7.2 kmh S 13.0 mph20.9 kmh 29.89 in1012.2 mb 0.00 in0.0 mm 0.00 in0.0 mm 0.00 in0.0 mm
08:44 AM 67.8°F19.9°C 44.5°F6.9°C 43% 6.9 mph S11.1 kmh S 13.0 mph20.9 kmh 29.88 in1011.9 mb 0.00 in0.0 mm 0.00 in0.0 mm 0.00 in0.0 mm
08:45 AM 67.8°F19.9°C 44.5°F6.9°C 43% 6.9 mph S11.1 kmh S 13.0 mph20.9 kmh 29.89 in1012.2 mb 0.00 in0.0 mm 0.00 in0.0 mm 0.00 in0.0 mm
08:46 AM 68.4°F20.2°C 43.8°F6.6°C 41% 3.1 mph S5.0 kmh S 13.0 mph20.9 kmh 29.89 in1012.2 mb 0.00 in0.0 mm 0.00 in0.0 mm 0.00 in0.0 mm
08:47 AM 68.7°F20.4°C 43.4°F6.3°C 40% 3.1 mph S5.0 kmh S 13.0 mph20.9 kmh 29.89 in1012.2 mb 0.00 in0.0 mm 0.00 in0.0 mm 0.00 in0.0 mm
08:48 AM 68.7°F20.4°C 43.4°F6.3°C 40% 3.1 mph S5.0 kmh S 13.0 mph20.9 kmh 29.89 in1012.2 mb 0.00 in0.0 mm 0.00 in0.0 mm 0.00 in0.0 mm
08:49 AM 68.9°F20.5°C 42.9°F6.1°C 39% 3.1 mph S5.0 kmh S 13.0 mph20.9 kmh 29.89 in1012.2 mb 0.00 in0.0 mm 0.00 in0.0 mm 0.00 in0.0 mm
08:50 AM 69.1°F20.6°C 43.8°F6.6°C 40% 2.2 mph S3.5 kmh S 13.0 mph20.9 kmh 29.89 in1012.2 mb 0.00 in0.0 mm 0.00 in0.0 mm 0.00 in0.0 mm
08:51 AM 69.4°F20.8°C 44.1°F6.7°C 40% 4.5 mph S7.2 kmh S 13.0 mph20.9 kmh 29.89 in1012.2 mb 0.00 in0.0 mm 0.00 in0.0 mm 0.00 in0.0 mm
08:52 AM 69.4°F20.8°C 43.4°F6.3°C 39% 4.5 mph SSE7.2 kmh SSE 13.0 mph20.9 kmh 29.89 in1012.2 mb 0.00 in0.0 mm 0.00 in0.0 mm 0.00 in0.0 mm
08:53 AM 69.4°F20.8°C 44.1°F6.7°C 40% 3.8 mph SSE6.1 kmh SSE 9.2 mph14.8 kmh 29.89 in1012.2 mb 0.00 in0.0 mm 0.00 in0.0 mm 0.00 in0.0 mm
08:54 AM 69.6°F20.9°C 44.3°F6.8°C 40% 5.4 mph SSE8.7 kmh SSE 9.2 mph14.8 kmh 29.89 in1012.2 mb 0.00 in0.0 mm 0.00 in0.0 mm 0.00 in0.0 mm
08:55 AM 69.4°F20.8°C 44.1°F6.7°C 40% 5.4 mph SSE8.7 kmh SSE 9.8 mph15.8 kmh 29.89 in1012.2 mb 0.00 in0.0 mm 0.00 in0.0 mm 0.00 in0.0 mm
08:56 AM 69.3°F20.7°C 43.9°F6.6°C 40% 8.3 mph SSE13.4 kmh SSE 11.4 mph18.3 kmh 29.89 in1012.2 mb 0.00 in0.0 mm 0.00 in0.0 mm 0.00 in0.0 mm
08:57 AM 69.1°F20.6°C 43.8°F6.6°C 40% 7.6 mph SSE12.2 kmh SSE 12.1 mph19.5 kmh 29.89 in1012.2 mb 0.00 in0.0 mm 0.00 in0.0 mm 0.00 in0.0 mm
08:58 AM 68.7°F20.4°C 44.1°F6.7°C 41% 6.9 mph SSE11.1 kmh SSE 12.1 mph19.5 kmh 29.89 in1012.2 mb 0.00 in0.0 mm 0.00 in0.0 mm 0.00 in0.0 mm
08:59 AM 68.5°F20.3°C 44.6°F7.0°C 42% 5.4 mph SSE8.7 kmh SSE 12.1 mph19.5 kmh 29.89 in1012.2 mb 0.00 in0.0 mm 0.00 in0.0 mm 0.00 in0.0 mm
09:00 AM 68.5°F20.3°C 45.2°F7.3°C 43% 7.6 mph SSE12.2 kmh SSE 15.2 mph24.5 kmh 29.89 in1012.2 mb 0.00 in0.0 mm 0.00 in0.0 mm 0.00 in0.0 mm
09:01 AM 68.7°F20.4°C 45.3°F7.4°C 43% 12.1 mph SSE19.5 kmh SSE 15.2 mph24.5 kmh 29.89 in1012.2 mb 0.00 in0.0 mm 0.00 in0.0 mm 0.00 in0.0 mm
09:02 AM 68.5°F20.3°C 44.6°F7.0°C 42% 7.6 mph SSE12.2 kmh SSE 15.2 mph24.5 kmh 29.89 in1012.2 mb 0.00 in0.0 mm 0.00 in0.0 mm 0.00 in0.0 mm
09:03 AM 68.2°F20.1°C 44.2°F6.8°C 42% 5.4 mph S8.7 kmh S 15.2 mph24.5 kmh 29.89 in1012.2 mb 0.00 in0.0 mm 0.00 in0.0 mm 0.00 in0.0 mm
09:04 AM 68.2°F20.1°C 44.2°F6.8°C 42% 5.4 mph S8.7 kmh S 15.2 mph24.5 kmh 29.89 in1012.2 mb 0.00 in0.0 mm 0.00 in0.0 mm 0.00 in0.0 mm
09:05 AM 68.4°F20.2°C 44.4°F6.9°C 42% 4.5 mph S7.2 kmh S 15.2 mph24.5 kmh 29.89 in1012.2 mb 0.00 in0.0 mm 0.00 in0.0 mm 0.00 in0.0 mm
09:06 AM 68.7°F20.4°C 44.7°F7.1°C 42% 9.2 mph S14.8 kmh S 15.2 mph24.5 kmh 29.89 in1012.2 mb 0.00 in0.0 mm 0.00 in0.0 mm 0.00 in0.0 mm
09:07 AM 68.9°F20.5°C 42.9°F6.1°C 39% 4.5 mph SSE7.2 kmh SSE 15.2 mph24.5 kmh 29.89 in1012.2 mb 0.00 in0.0 mm 0.00 in0.0 mm 0.00 in0.0 mm
09:08 AM 68.9°F20.5°C 42.9°F6.1°C 39% 5.4 mph SSE8.7 kmh SSE 15.2 mph24.5 kmh 29.89 in1012.2 mb 0.00 in0.0 mm 0.00 in0.0 mm 0.00 in0.0 mm
09:09 AM 68.9°F20.5°C 43.6°F6.4°C 40% 2.2 mph SSE3.5 kmh SSE 15.2 mph24.5 kmh 29.89 in1012.2 mb 0.00 in0.0 mm 0.00 in0.0 mm 0.00 in0.0 mm
09:10 AM 69.1°F20.6°C 43.8°F6.6°C 40% 3.1 mph SSE5.0 kmh SSE 15.2 mph24.5 kmh 29.89 in1012.2 mb 0.00 in0.0 mm 0.00 in0.0 mm 0.00 in0.0 mm
09:11 AM 69.6°F20.9°C 44.3°F6.8°C 40% 7.6 mph SSE12.2 kmh SSE 13.0 mph20.9 kmh 29.89 in1012.2 mb 0.00 in0.0 mm 0.00 in0.0 mm 0.00 in0.0 mm
09:12 AM 69.6°F20.9°C 42.9°F6.1°C 38% 5.4 mph SSE8.7 kmh SSE 13.0 mph20.9 kmh 29.89 in1012.2 mb 0.00 in0.0 mm 0.00 in0.0 mm 0.00 in0.0 mm
09:13 AM 69.6°F20.9°C 42.2°F5.7°C 37% 4.5 mph SSE7.2 kmh SSE 13.0 mph20.9 kmh 29.89 in1012.2 mb 0.00 in0.0 mm 0.00 in0.0 mm 0.00 in0.0 mm
09:14 AM 69.4°F20.8°C 42.8°F6.0°C 38% 6.0 mph SSE9.7 kmh SSE 13.0 mph20.9 kmh 29.89 in1012.2 mb 0.00 in0.0 mm 0.00 in0.0 mm 0.00 in0.0 mm
09:15 AM 69.3°F20.7°C 41.9°F5.5°C 37% 2.2 mph SSE3.5 kmh SSE 13.0 mph20.9 kmh 29.90 in1012.5 mb 0.00 in0.0 mm 0.00 in0.0 mm 0.00 in0.0 mm
09:16 AM 69.1°F20.6°C 42.4°F5.8°C 38% 4.5 mph SSE7.2 kmh SSE 13.0 mph20.9 kmh 29.89 in1012.2 mb 0.00 in0.0 mm 0.00 in0.0 mm 0.00 in0.0 mm
09:17 AM 69.3°F20.7°C 42.6°F5.9°C 38% 6.0 mph SSE9.7 kmh SSE 12.1 mph19.5 kmh 29.89 in1012.2 mb 0.00 in0.0 mm 0.00 in0.0 mm 0.00 in0.0 mm
09:18 AM 69.3°F20.7°C 41.9°F5.5°C 37% 6.0 mph SE9.7 kmh SE 12.1 mph19.5 kmh 29.89 in1012.2 mb 0.00 in0.0 mm 0.00 in0.0 mm 0.00 in0.0 mm
09:19 AM 69.1°F20.6°C 41.7°F5.4°C 37% 6.0 mph SE9.7 kmh SE 12.1 mph19.5 kmh 29.89 in1012.2 mb 0.00 in0.0 mm 0.00 in0.0 mm 0.00 in0.0 mm
09:20 AM 68.9°F20.5°C 40.9°F4.9°C 36% 6.0 mph SE9.7 kmh SE 12.1 mph19.5 kmh 29.89 in1012.2 mb 0.00 in0.0 mm 0.00 in0.0 mm 0.00 in0.0 mm
09:21 AM 68.7°F20.4°C 40.7°F4.8°C 36% 6.9 mph SE11.1 kmh SE 12.1 mph19.5 kmh 29.89 in1012.2 mb 0.00 in0.0 mm 0.00 in0.0 mm 0.00 in0.0 mm
09:22 AM 68.4°F20.2°C 40.4°F4.7°C 36% 5.4 mph SE8.7 kmh SE 12.1 mph19.5 kmh 29.89 in1012.2 mb 0.00 in0.0 mm 0.00 in0.0 mm 0.00 in0.0 mm
09:23 AM 68.2°F20.1°C 40.9°F4.9°C 37% 4.5 mph SE7.2 kmh SE 12.1 mph19.5 kmh 29.88 in1011.9 mb 0.00 in0.0 mm 0.00 in0.0 mm 0.00 in0.0 mm
09:24 AM 68.2°F20.1°C 40.9°F4.9°C 37% 4.5 mph SE7.2 kmh SE 11.4 mph18.3 kmh 29.88 in1011.9 mb 0.00 in0.0 mm 0.00 in0.0 mm 0.00 in0.0 mm
09:25 AM 68.5°F20.3°C 42.6°F5.9°C 39% 4.5 mph SE7.2 kmh SE 11.4 mph18.3 kmh 29.89 in1012.2 mb 0.00 in0.0 mm 0.00 in0.0 mm 0.00 in0.0 mm
09:26 AM 68.7°F20.4°C 42.8°F6.0°C 39% 7.6 mph SE12.2 kmh SE 11.4 mph18.3 kmh 29.89 in1012.2 mb 0.00 in0.0 mm 0.00 in0.0 mm 0.00 in0.0 mm
09:27 AM 68.9°F20.5°C 41.6°F5.3°C 37% 6.9 mph SE11.1 kmh SE 13.0 mph20.9 kmh 29.88 in1011.9 mb 0.00 in0.0 mm 0.00 in0.0 mm 0.00 in0.0 mm
09:28 AM 68.9°F20.5°C 41.6°F5.3°C 37% 6.9 mph SSE11.1 kmh SSE 13.0 mph20.9 kmh 29.89 in1012.2 mb 0.00 in0.0 mm 0.00 in0.0 mm 0.00 in0.0 mm
09:29 AM 69.1°F20.6°C 41.0°F5.0°C 36% 6.0 mph SSE9.7 kmh SSE 13.0 mph20.9 kmh 29.89 in1012.2 mb 0.00 in0.0 mm 0.00 in0.0 mm 0.00 in0.0 mm
09:30 AM 69.1°F20.6°C 41.0°F5.0°C 36% 8.3 mph SSE13.4 kmh SSE 13.0 mph20.9 kmh 29.89 in1012.2 mb 0.00 in0.0 mm 0.00 in0.0 mm 0.00 in0.0 mm
09:31 AM 69.1°F20.6°C 40.3°F4.6°C 35% 7.6 mph SSE12.2 kmh SSE 14.5 mph23.3 kmh 29.88 in1011.9 mb 0.00 in0.0 mm 0.00 in0.0 mm 0.00 in0.0 mm
09:32 AM 68.9°F20.5°C 40.1°F4.5°C 35% 7.6 mph SSE12.2 kmh SSE 15.2 mph24.5 kmh 29.88 in1011.9 mb 0.00 in0.0 mm 0.00 in0.0 mm 0.00 in0.0 mm
09:33 AM 68.9°F20.5°C 40.1°F4.5°C 35% 7.6 mph SSE12.2 kmh SSE 15.2 mph24.5 kmh 29.88 in1011.9 mb 0.00 in0.0 mm 0.00 in0.0 mm 0.00 in0.0 mm
09:34 AM 68.5°F20.3°C 39.8°F4.3°C 35% 5.4 mph SSE8.7 kmh SSE 15.2 mph24.5 kmh 29.88 in1011.9 mb 0.00 in0.0 mm 0.00 in0.0 mm 0.00 in0.0 mm
09:35 AM 68.5°F20.3°C 39.8°F4.3°C 35% 5.4 mph SSE8.7 kmh SSE 15.2 mph24.5 kmh 29.88 in1011.9 mb 0.00 in0.0 mm 0.00 in0.0 mm 0.00 in0.0 mm
09:36 AM 68.5°F20.3°C 39.8°F4.3°C 35% 5.4 mph S8.7 kmh S 15.2 mph24.5 kmh 29.89 in1012.2 mb 0.00 in0.0 mm 0.00 in0.0 mm 0.00 in0.0 mm
09:37 AM 68.9°F20.5°C 40.1°F4.5°C 35% 9.8 mph S15.8 kmh S 15.2 mph24.5 kmh 29.89 in1012.2 mb 0.00 in0.0 mm 0.00 in0.0 mm 0.00 in0.0 mm
09:38 AM 68.9°F20.5°C 40.1°F4.5°C 35% 8.3 mph S13.4 kmh S 15.2 mph24.5 kmh 29.89 in1012.2 mb 0.00 in0.0 mm 0.00 in0.0 mm 0.00 in0.0 mm
09:39 AM 68.9°F20.5°C 40.1°F4.5°C 35% 5.4 mph S8.7 kmh S 15.2 mph24.5 kmh 29.89 in1012.2 mb 0.00 in0.0 mm 0.00 in0.0 mm 0.00 in0.0 mm
09:40 AM 69.1°F20.6°C 41.0°F5.0°C 36% 9.2 mph S14.8 kmh S 15.2 mph24.5 kmh 29.88 in1011.9 mb 0.00 in0.0 mm 0.00 in0.0 mm 0.00 in0.0 mm
09:41 AM 69.1°F20.6°C 41.0°F5.0°C 36% 9.2 mph S14.8 kmh S 15.2 mph24.5 kmh 29.88 in1011.9 mb 0.00 in0.0 mm 0.00 in0.0 mm 0.00 in0.0 mm
09:42 AM 69.1°F20.6°C 41.0°F5.0°C 36% 4.5 mph S7.2 kmh S 15.2 mph24.5 kmh 29.88 in1011.9 mb 0.00 in0.0 mm 0.00 in0.0 mm 0.00 in0.0 mm
09:43 AM 68.9°F20.5°C 40.9°F4.9°C 36% 6.0 mph S9.7 kmh S 14.5 mph23.3 kmh 29.88 in1011.9 mb 0.00 in0.0 mm 0.00 in0.0 mm 0.00 in0.0 mm
09:44 AM 68.9°F20.5°C 40.9°F4.9°C 36% 3.1 mph SSE5.0 kmh SSE 14.5 mph23.3 kmh 29.88 in1011.9 mb 0.00 in0.0 mm 0.00 in0.0 mm 0.00 in0.0 mm
09:45 AM 69.1°F20.6°C 41.0°F5.0°C 36% 4.5 mph SSE7.2 kmh SSE 14.5 mph23.3 kmh 29.88 in1011.9 mb 0.00 in0.0 mm 0.00 in0.0 mm 0.00 in0.0 mm
09:46 AM 69.1°F20.6°C 41.0°F5.0°C 36% 4.5 mph SSE7.2 kmh SSE 14.5 mph23.3 kmh 29.88 in1011.9 mb 0.00 in0.0 mm 0.00 in0.0 mm 0.00 in0.0 mm
09:47 AM 69.4°F20.8°C 41.3°F5.2°C 36% 6.9 mph SE11.1 kmh SE 13.6 mph21.9 kmh 29.88 in1011.9 mb 0.00 in0.0 mm 0.00 in0.0 mm 0.00 in0.0 mm
09:48 AM 69.3°F20.7°C 40.5°F4.7°C 35% 4.5 mph SE7.2 kmh SE 13.0 mph20.9 kmh 29.88 in1011.9 mb 0.00 in0.0 mm 0.00 in0.0 mm 0.00 in0.0 mm
09:49 AM 69.3°F20.7°C 40.5°F4.7°C 35% 6.9 mph SE11.1 kmh SE 13.0 mph20.9 kmh 29.88 in1011.9 mb 0.00 in0.0 mm 0.00 in0.0 mm 0.00 in0.0 mm
09:50 AM 69.4°F20.8°C 40.6°F4.8°C 35% 6.0 mph SE9.7 kmh SE 13.0 mph20.9 kmh 29.89 in1012.2 mb 0.00 in0.0 mm 0.00 in0.0 mm 0.00 in0.0 mm
09:51 AM 69.4°F20.8°C 40.6°F4.8°C 35% 6.0 mph SE9.7 kmh SE 13.0 mph20.9 kmh 29.89 in1012.2 mb 0.00 in0.0 mm 0.00 in0.0 mm 0.00 in0.0 mm
09:52 AM 69.4°F20.8°C 40.6°F4.8°C 35% 6.0 mph SE9.7 kmh SE 13.0 mph20.9 kmh 29.88 in1011.9 mb 0.00 in0.0 mm 0.00 in0.0 mm 0.00 in0.0 mm
09:53 AM 69.4°F20.8°C 40.6°F4.8°C 35% 6.0 mph SSE9.7 kmh SSE 13.0 mph20.9 kmh 29.89 in1012.2 mb 0.00 in0.0 mm 0.00 in0.0 mm 0.00 in0.0 mm
09:54 AM 69.4°F20.8°C 40.6°F4.8°C 35% 6.0 mph SSE9.7 kmh SSE 13.0 mph20.9 kmh 29.88 in1011.9 mb 0.00 in0.0 mm 0.00 in0.0 mm 0.00 in0.0 mm
09:55 AM 69.4°F20.8°C 40.6°F4.8°C 35% 6.0 mph SSE9.7 kmh SSE 13.0 mph20.9 kmh 29.88 in1011.9 mb 0.00 in0.0 mm 0.00 in0.0 mm 0.00 in0.0 mm
09:56 AM 69.4°F20.8°C 39.9°F4.4°C 34% 8.3 mph S13.4 kmh S 13.0 mph20.9 kmh 29.88 in1011.9 mb 0.00 in0.0 mm 0.00 in0.0 mm 0.00 in0.0 mm
09:57 AM 69.4°F20.8°C 39.9°F4.4°C 34% 8.3 mph S13.4 kmh S 13.0 mph20.9 kmh 29.88 in1011.9 mb 0.00 in0.0 mm 0.00 in0.0 mm 0.00 in0.0 mm
09:58 AM 69.4°F20.8°C 39.9°F4.4°C 34% 6.9 mph S11.1 kmh S 13.6 mph21.9 kmh 29.88 in1011.9 mb 0.00 in0.0 mm 0.00 in0.0 mm 0.00 in0.0 mm
09:59 AM 69.6°F20.9°C 40.0°F4.4°C 34% 5.4 mph S8.7 kmh S 13.6 mph21.9 kmh 29.88 in1011.9 mb 0.00 in0.0 mm 0.00 in0.0 mm 0.00 in0.0 mm
10:00 AM 69.6°F20.9°C 40.0°F4.4°C 34% 5.4 mph S8.7 kmh S 13.6 mph21.9 kmh 29.88 in1011.9 mb 0.00 in0.0 mm 0.00 in0.0 mm 0.00 in0.0 mm
10:01 AM 69.6°F20.9°C 39.3°F4.1°C 33% 3.8 mph S6.1 kmh S 13.6 mph21.9 kmh 29.88 in1011.9 mb 0.00 in0.0 mm 0.00 in0.0 mm 0.00 in0.0 mm
10:02 AM 69.8°F21.0°C 38.6°F3.7°C 32% 6.0 mph S9.7 kmh S 13.6 mph21.9 kmh 29.88 in1011.9 mb 0.00 in0.0 mm 0.00 in0.0 mm 0.00 in0.0 mm
10:03 AM 69.8°F21.0°C 38.6°F3.7°C 32% 6.0 mph S9.7 kmh S 13.6 mph21.9 kmh 29.88 in1011.9 mb 0.00 in0.0 mm 0.00 in0.0 mm 0.00 in0.0 mm
10:04 AM 69.8°F21.0°C 38.6°F3.7°C 32% 6.0 mph S9.7 kmh S 13.6 mph21.9 kmh 29.88 in1011.9 mb 0.00 in0.0 mm 0.00 in0.0 mm 0.00 in0.0 mm
10:05 AM 69.8°F21.0°C 38.6°F3.7°C 32% 6.0 mph S9.7 kmh S 13.6 mph21.9 kmh 29.88 in1011.9 mb 0.00 in0.0 mm 0.00 in0.0 mm 0.00 in0.0 mm
10:06 AM 69.8°F21.0°C 38.6°F3.7°C 32% 8.3 mph SSE13.4 kmh SSE 13.6 mph21.9 kmh 29.88 in1011.9 mb 0.00 in0.0 mm 0.00 in0.0 mm 0.00 in0.0 mm
10:07 AM 69.6°F20.9°C 39.3°F4.1°C 33% 3.8 mph SSE6.1 kmh SSE 13.6 mph21.9 kmh 29.88 in1011.9 mb 0.00 in0.0 mm 0.00 in0.0 mm 0.00 in0.0 mm
10:08 AM 69.6°F20.9°C 39.3°F4.1°C 33% 3.8 mph SSE6.1 kmh SSE 13.6 mph21.9 kmh 29.87 in1011.5 mb 0.00 in0.0 mm 0.00 in0.0 mm 0.00 in0.0 mm
10:09 AM 70.2°F21.2°C 39.7°F4.3°C 33% 5.4 mph SSE8.7 kmh SSE 13.6 mph21.9 kmh 29.88 in1011.9 mb 0.00 in0.0 mm 0.00 in0.0 mm 0.00 in0.0 mm
10:10 AM 70.2°F21.2°C 39.7°F4.3°C 33% 5.4 mph SSE8.7 kmh SSE 13.6 mph21.9 kmh 29.87 in1011.5 mb 0.00 in0.0 mm 0.00 in0.0 mm 0.00 in0.0 mm
10:11 AM 70.5°F21.4°C 39.3°F4.1°C 32% 5.4 mph SSE8.7 kmh SSE 13.6 mph21.9 kmh 29.87 in1011.5 mb 0.00 in0.0 mm 0.00 in0.0 mm 0.00 in0.0 mm
10:12 AM 70.5°F21.4°C 39.3°F4.1°C 32% 5.4 mph S8.7 kmh S 13.6 mph21.9 kmh 29.87 in1011.5 mb 0.00 in0.0 mm 0.00 in0.0 mm 0.00 in0.0 mm
10:13 AM 70.7°F21.5°C 39.4°F4.1°C 32% 7.6 mph S12.2 kmh S 13.6 mph21.9 kmh 29.88 in1011.9 mb 0.00 in0.0 mm 0.00 in0.0 mm 0.00 in0.0 mm
10:14 AM 70.7°F21.5°C 39.4°F4.1°C 32% 9.8 mph SSE15.8 kmh SSE 15.9 mph25.6 kmh 29.87 in1011.5 mb 0.00 in0.0 mm 0.00 in0.0 mm 0.00 in0.0 mm
10:15 AM 70.7°F21.5°C 39.4°F4.1°C 32% 9.8 mph SSE15.8 kmh SSE 15.9 mph25.6 kmh 29.87 in1011.5 mb 0.00 in0.0 mm 0.00 in0.0 mm 0.00 in0.0 mm
10:16 AM 70.7°F21.5°C 39.4°F4.1°C 32% 9.8 mph SSE15.8 kmh SSE 15.9 mph25.6 kmh 29.88 in1011.9 mb 0.00 in0.0 mm 0.00 in0.0 mm 0.00 in0.0 mm
10:17 AM 70.7°F21.5°C 39.4°F4.1°C 32% 9.8 mph SE15.8 kmh SE 15.9 mph25.6 kmh 29.88 in1011.9 mb 0.00 in0.0 mm 0.00 in0.0 mm 0.00 in0.0 mm
10:18 AM 70.7°F21.5°C 39.4°F4.1°C 32% 9.8 mph SE15.8 kmh SE 15.9 mph25.6 kmh 29.88 in1011.9 mb 0.00 in0.0 mm 0.00 in0.0 mm 0.00 in0.0 mm
10:19 AM 70.2°F21.2°C 35.6°F2.0°C 28% 9.2 mph SE14.8 kmh SE 15.9 mph25.6 kmh 29.88 in1011.9 mb 0.00 in0.0 mm 0.00 in0.0 mm 0.00 in0.0 mm
10:20 AM 70.0°F21.1°C 35.4°F1.9°C 28% 6.9 mph SE11.1 kmh SE 15.9 mph25.6 kmh 29.88 in1011.9 mb 0.00 in0.0 mm 0.00 in0.0 mm 0.00 in0.0 mm
10:21 AM 70.0°F21.1°C 34.5°F1.4°C 27% 9.2 mph SE14.8 kmh SE 15.9 mph25.6 kmh 29.88 in1011.9 mb 0.00 in0.0 mm 0.00 in0.0 mm 0.00 in0.0 mm
10:22 AM 69.8°F21.0°C 34.3°F1.3°C 27% 6.0 mph SE9.7 kmh SE 15.9 mph25.6 kmh 29.87 in1011.5 mb 0.00 in0.0 mm 0.00 in0.0 mm 0.00 in0.0 mm
10:23 AM 70.0°F21.1°C 33.5°F0.8°C 26% 13.6 mph SE21.9 kmh SE 19.7 mph31.7 kmh 29.87 in1011.5 mb 0.00 in0.0 mm 0.00 in0.0 mm 0.00 in0.0 mm
10:24 AM 70.0°F21.1°C 32.6°F0.3°C 25% 10.7 mph SE17.2 kmh SE 19.7 mph31.7 kmh 29.87 in1011.5 mb 0.00 in0.0 mm 0.00 in0.0 mm 0.00 in0.0 mm
10:25 AM 70.0°F21.1°C 32.6°F0.3°C 25% 7.6 mph SE12.2 kmh SE 19.7 mph31.7 kmh 29.88 in1011.9 mb 0.00 in0.0 mm 0.00 in0.0 mm 0.00 in0.0 mm
10:26 AM 70.0°F21.1°C 32.6°F0.3°C 25% 13.0 mph SE20.9 kmh SE 19.7 mph31.7 kmh 29.86 in1011.2 mb 0.00 in0.0 mm 0.00 in0.0 mm 0.00 in0.0 mm
10:27 AM 70.0°F21.1°C 32.6°F0.3°C 25% 13.0 mph SE20.9 kmh SE 19.7 mph31.7 kmh 29.87 in1011.5 mb 0.00 in0.0 mm 0.00 in0.0 mm 0.00 in0.0 mm
10:28 AM 70.0°F21.1°C 32.6°F0.3°C 25% 13.0 mph SE20.9 kmh SE 19.7 mph31.7 kmh 29.87 in1011.5 mb 0.00 in0.0 mm 0.00 in0.0 mm 0.00 in0.0 mm
10:29 AM 70.0°F21.1°C 32.6°F0.3°C 25% 13.0 mph SE20.9 kmh SE 19.7 mph31.7 kmh 29.87 in1011.5 mb 0.00 in0.0 mm 0.00 in0.0 mm 0.00 in0.0 mm
10:30 AM 70.0°F21.1°C 32.6°F0.3°C 25% 13.0 mph SE20.9 kmh SE 19.7 mph31.7 kmh 29.87 in1011.5 mb 0.00 in0.0 mm 0.00 in0.0 mm 0.00 in0.0 mm
10:31 AM 70.0°F21.1°C 32.6°F0.3°C 25% 4.5 mph SE7.2 kmh SE 19.7 mph31.7 kmh 29.87 in1011.5 mb 0.00 in0.0 mm 0.00 in0.0 mm 0.00 in0.0 mm
10:32 AM 70.0°F21.1°C 32.6°F0.3°C 25% 4.5 mph SE7.2 kmh SE 19.7 mph31.7 kmh 29.87 in1011.5 mb 0.00 in0.0 mm 0.00 in0.0 mm 0.00 in0.0 mm
10:33 AM 70.0°F21.1°C 32.6°F0.3°C 25% 4.5 mph SE7.2 kmh SE 19.7 mph31.7 kmh 29.87 in1011.5 mb 0.00 in0.0 mm 0.00 in0.0 mm 0.00 in0.0 mm
10:34 AM 70.0°F21.1°C 32.6°F0.3°C 25% 4.5 mph SE7.2 kmh SE 17.4 mph28.0 kmh 29.87 in1011.5 mb 0.00 in0.0 mm 0.00 in0.0 mm 0.00 in0.0 mm
10:35 AM 70.5°F21.4°C 32.0°F0.0°C 24% 9.2 mph SE14.8 kmh SE 17.4 mph28.0 kmh 29.87 in1011.5 mb 0.00 in0.0 mm 0.00 in0.0 mm 0.00 in0.0 mm
10:36 AM 70.5°F21.4°C 32.0°F0.0°C 24% 9.2 mph SSE14.8 kmh SSE 17.4 mph28.0 kmh 29.86 in1011.2 mb 0.00 in0.0 mm 0.00 in0.0 mm 0.00 in0.0 mm
10:37 AM 70.5°F21.4°C 33.0°F0.6°C 25% 8.3 mph SSE13.4 kmh SSE 17.4 mph28.0 kmh 29.87 in1011.5 mb 0.00 in0.0 mm 0.00 in0.0 mm 0.00 in0.0 mm
10:38 AM 70.5°F21.4°C 33.0°F0.6°C 25% 8.3 mph S13.4 kmh S 17.4 mph28.0 kmh 29.87 in1011.5 mb 0.00 in0.0 mm 0.00 in0.0 mm 0.00 in0.0 mm
10:39 AM 70.5°F21.4°C 33.0°F0.6°C 25% 8.3 mph S13.4 kmh S 17.4 mph28.0 kmh 29.87 in1011.5 mb 0.00 in0.0 mm 0.00 in0.0 mm 0.00 in0.0 mm
10:40 AM 70.9°F21.6°C 33.3°F0.7°C 25% 11.4 mph S18.3 kmh S 17.4 mph28.0 kmh 29.87 in1011.5 mb 0.00 in0.0 mm 0.00 in0.0 mm 0.00 in0.0 mm
10:41 AM 70.7°F21.5°C 33.2°F0.7°C 25% 8.3 mph S13.4 kmh S 17.4 mph28.0 kmh 29.87 in1011.5 mb 0.00 in0.0 mm 0.00 in0.0 mm 0.00 in0.0 mm
10:42 AM 70.5°F21.4°C 32.0°F0.0°C 24% 7.6 mph S12.2 kmh S 17.4 mph28.0 kmh 29.87 in1011.5 mb 0.00 in0.0 mm 0.00 in0.0 mm 0.00 in0.0 mm
10:43 AM 70.3°F21.3°C 31.9°F-0.1°C 24% 6.0 mph S9.7 kmh S 17.4 mph28.0 kmh 29.86 in1011.2 mb 0.00 in0.0 mm 0.00 in0.0 mm 0.00 in0.0 mm
10:44 AM 70.5°F21.4°C 32.0°F0.0°C 24% 9.2 mph S14.8 kmh S 17.4 mph28.0 kmh 29.87 in1011.5 mb 0.00 in0.0 mm 0.00 in0.0 mm 0.00 in0.0 mm
10:45 AM 70.5°F21.4°C 32.0°F0.0°C 24% 9.2 mph S14.8 kmh S 17.4 mph28.0 kmh 29.87 in1011.5 mb 0.00 in0.0 mm 0.00 in0.0 mm 0.00 in0.0 mm
10:46 AM 70.5°F21.4°C 32.0°F0.0°C 24% 9.2 mph SSE14.8 kmh SSE 17.4 mph28.0 kmh 29.86 in1011.2 mb 0.00 in0.0 mm 0.00 in0.0 mm 0.00 in0.0 mm
10:47 AM 70.3°F21.3°C 31.9°F-0.1°C 24% 9.2 mph SSE14.8 kmh SSE 17.4 mph28.0 kmh 29.86 in1011.2 mb 0.00 in0.0 mm 0.00 in0.0 mm 0.00 in0.0 mm
10:48 AM 70.3°F21.3°C 31.9°F-0.1°C 24% 6.0 mph SSE9.7 kmh SSE 17.4 mph28.0 kmh 29.86 in1011.2 mb 0.00 in0.0 mm 0.00 in0.0 mm 0.00 in0.0 mm
10:49 AM 70.3°F21.3°C 32.9°F0.5°C 25% 5.4 mph SSE8.7 kmh SSE 17.4 mph28.0 kmh 29.87 in1011.5 mb 0.00 in0.0 mm 0.00 in0.0 mm 0.00 in0.0 mm
10:50 AM 70.3°F21.3°C 32.9°F0.5°C 25% 5.4 mph SE8.7 kmh SE 17.4 mph28.0 kmh 29.86 in1011.2 mb 0.00 in0.0 mm 0.00 in0.0 mm 0.00 in0.0 mm
10:51 AM 70.3°F21.3°C 32.9°F0.5°C 25% 5.4 mph SE8.7 kmh SE 14.5 mph23.3 kmh 29.87 in1011.5 mb 0.00 in0.0 mm 0.00 in0.0 mm 0.00 in0.0 mm
10:52 AM 70.3°F21.3°C 32.9°F0.5°C 25% 5.4 mph SE8.7 kmh SE 14.5 mph23.3 kmh 29.87 in1011.5 mb 0.00 in0.0 mm 0.00 in0.0 mm 0.00 in0.0 mm
10:53 AM 70.3°F21.3°C 32.9°F0.5°C 25% 5.4 mph SE8.7 kmh SE 14.5 mph23.3 kmh 29.87 in1011.5 mb 0.00 in0.0 mm 0.00 in0.0 mm 0.00 in0.0 mm
10:54 AM 71.1°F21.7°C 33.5°F0.8°C 25% 6.9 mph SE11.1 kmh SE 14.5 mph23.3 kmh 29.86 in1011.2 mb 0.00 in0.0 mm 0.00 in0.0 mm 0.00 in0.0 mm
10:55 AM 71.1°F21.7°C 33.5°F0.8°C 25% 6.9 mph SE11.1 kmh SE 14.5 mph23.3 kmh 29.86 in1011.2 mb 0.00 in0.0 mm 0.00 in0.0 mm 0.00 in0.0 mm
10:56 AM 71.1°F21.7°C 33.5°F0.8°C 25% 6.9 mph SE11.1 kmh SE 13.0 mph20.9 kmh 29.87 in1011.5 mb 0.00 in0.0 mm 0.00 in0.0 mm 0.00 in0.0 mm
10:57 AM 70.9°F21.6°C 32.3°F0.2°C 24% 7.6 mph SE12.2 kmh SE 14.5 mph23.3 kmh 29.86 in1011.2 mb 0.00 in0.0 mm 0.00 in0.0 mm 0.00 in0.0 mm
10:58 AM 70.9°F21.6°C 32.3°F0.2°C 24% 9.8 mph SE15.8 kmh SE 15.9 mph25.6 kmh 29.87 in1011.5 mb 0.00 in0.0 mm 0.00 in0.0 mm 0.00 in0.0 mm
10:59 AM 70.9°F21.6°C 33.3°F0.7°C 25% 5.4 mph SE8.7 kmh SE 15.9 mph25.6 kmh 29.86 in1011.2 mb 0.00 in0.0 mm 0.00 in0.0 mm 0.00 in0.0 mm
11:00 AM 70.9°F21.6°C 33.3°F0.7°C 25% 7.6 mph SE12.2 kmh SE 15.9 mph25.6 kmh 29.87 in1011.5 mb 0.00 in0.0 mm 0.00 in0.0 mm 0.00 in0.0 mm
11:01 AM 70.9°F21.6°C 33.3°F0.7°C 25% 5.4 mph SE8.7 kmh SE 15.9 mph25.6 kmh 29.86 in1011.2 mb 0.00 in0.0 mm 0.00 in0.0 mm 0.00 in0.0 mm
11:02 AM 70.7°F21.5°C 33.2°F0.7°C 25% 6.0 mph SE9.7 kmh SE 15.9 mph25.6 kmh 29.87 in1011.5 mb 0.00 in0.0 mm 0.00 in0.0 mm 0.00 in0.0 mm
11:03 AM 70.7°F21.5°C 34.2°F1.2°C 26% 6.0 mph SE9.7 kmh SE 15.9 mph25.6 kmh 29.87 in1011.5 mb 0.00 in0.0 mm 0.00 in0.0 mm 0.00 in0.0 mm
11:04 AM 70.9°F21.6°C 34.3°F1.3°C 26% 7.6 mph SE12.2 kmh SE 15.9 mph25.6 kmh 29.86 in1011.2 mb 0.00 in0.0 mm 0.00 in0.0 mm 0.00 in0.0 mm
11:05 AM 71.1°F21.7°C 35.4°F1.9°C 27% 7.6 mph SSE12.2 kmh SSE 15.9 mph25.6 kmh 29.86 in1011.2 mb 0.00 in0.0 mm 0.00 in0.0 mm 0.00 in0.0 mm
11:06 AM 71.1°F21.7°C 35.4°F1.9°C 27% 9.2 mph SSE14.8 kmh SSE 15.9 mph25.6 kmh 29.87 in1011.5 mb 0.00 in0.0 mm 0.00 in0.0 mm 0.00 in0.0 mm
11:07 AM 70.9°F21.6°C 35.3°F1.8°C 27% 6.0 mph SSE9.7 kmh SSE 15.9 mph25.6 kmh 29.87 in1011.5 mb 0.00 in0.0 mm 0.00 in0.0 mm 0.00 in0.0 mm
11:08 AM 70.9°F21.6°C 36.2°F2.3°C 28% 4.5 mph SSE7.2 kmh SSE 14.5 mph23.3 kmh 29.86 in1011.2 mb 0.00 in0.0 mm 0.00 in0.0 mm 0.00 in0.0 mm
11:09 AM 70.9°F21.6°C 36.2°F2.3°C 28% 7.6 mph SSE12.2 kmh SSE 14.5 mph23.3 kmh 29.87 in1011.5 mb 0.00 in0.0 mm 0.00 in0.0 mm 0.00 in0.0 mm
11:10 AM 70.9°F21.6°C 35.3°F1.8°C 27% 6.0 mph SSE9.7 kmh SSE 14.5 mph23.3 kmh 29.86 in1011.2 mb 0.00 in0.0 mm 0.00 in0.0 mm 0.00 in0.0 mm
11:11 AM 70.9°F21.6°C 35.3°F1.8°C 27% 6.9 mph SSE11.1 kmh SSE 14.5 mph23.3 kmh 29.86 in1011.2 mb 0.00 in0.0 mm 0.00 in0.0 mm 0.00 in0.0 mm
11:12 AM 71.1°F21.7°C 34.5°F1.4°C 26% 6.9 mph S11.1 kmh S 14.5 mph23.3 kmh 29.87 in1011.5 mb 0.00 in0.0 mm 0.00 in0.0 mm 0.00 in0.0 mm
11:13 AM 71.1°F21.7°C 33.5°F0.8°C 25% 7.6 mph S12.2 kmh S 13.6 mph21.9 kmh 29.86 in1011.2 mb 0.00 in0.0 mm 0.00 in0.0 mm 0.00 in0.0 mm
11:14 AM 71.2°F21.8°C 33.6°F0.9°C 25% 7.6 mph S12.2 kmh S 14.5 mph23.3 kmh 29.86 in1011.2 mb 0.00 in0.0 mm 0.00 in0.0 mm 0.00 in0.0 mm
11:15 AM 71.1°F21.7°C 33.5°F0.8°C 25% 6.0 mph SSE9.7 kmh SSE 14.5 mph23.3 kmh 29.87 in1011.5 mb 0.00 in0.0 mm 0.00 in0.0 mm 0.00 in0.0 mm
11:16 AM 71.1°F21.7°C 33.5°F0.8°C 25% 6.9 mph SSE11.1 kmh SSE 14.5 mph23.3 kmh 29.87 in1011.5 mb 0.00 in0.0 mm 0.00 in0.0 mm 0.00 in0.0 mm
11:17 AM 71.1°F21.7°C 33.5°F0.8°C 25% 6.0 mph SSE9.7 kmh SSE 14.5 mph23.3 kmh 29.87 in1011.5 mb 0.00 in0.0 mm 0.00 in0.0 mm 0.00 in0.0 mm
11:18 AM 71.1°F21.7°C 33.5°F0.8°C 25% 13.0 mph S20.9 kmh S 16.8 mph27.0 kmh 29.86 in1011.2 mb 0.00 in0.0 mm 0.00 in0.0 mm 0.00 in0.0 mm
11:19 AM 71.1°F21.7°C 31.4°F-0.3°C 23% 6.0 mph SSE9.7 kmh SSE 16.8 mph27.0 kmh 29.87 in1011.5 mb 0.00 in0.0 mm 0.00 in0.0 mm 0.00 in0.0 mm
11:20 AM 71.1°F21.7°C 31.4°F-0.3°C 23% 6.0 mph SSE9.7 kmh SSE 16.8 mph27.0 kmh 29.86 in1011.2 mb 0.00 in0.0 mm 0.00 in0.0 mm 0.00 in0.0 mm
11:21 AM 71.2°F21.8°C 32.6°F0.3°C 24% 7.6 mph SSE12.2 kmh SSE 16.8 mph27.0 kmh 29.86 in1011.2 mb 0.00 in0.0 mm 0.00 in0.0 mm 0.00 in0.0 mm
11:22 AM 71.2°F21.8°C 32.6°F0.3°C 24% 7.6 mph S12.2 kmh S 16.8 mph27.0 kmh 29.86 in1011.2 mb 0.00 in0.0 mm 0.00 in0.0 mm 0.00 in0.0 mm
11:23 AM 71.2°F21.8°C 32.6°F0.3°C 24% 5.4 mph SSE8.7 kmh SSE 16.8 mph27.0 kmh 29.86 in1011.2 mb 0.00 in0.0 mm 0.00 in0.0 mm 0.00 in0.0 mm
11:24 AM 71.4°F21.9°C 32.8°F0.4°C 24% 6.9 mph SSE11.1 kmh SSE 16.8 mph27.0 kmh 29.86 in1011.2 mb 0.00 in0.0 mm 0.00 in0.0 mm 0.00 in0.0 mm
11:25 AM 71.4°F21.9°C 31.7°F-0.2°C 23% 6.0 mph SSE9.7 kmh SSE 16.8 mph27.0 kmh 29.87 in1011.5 mb 0.00 in0.0 mm 0.00 in0.0 mm 0.00 in0.0 mm
11:26 AM 71.4°F21.9°C 31.7°F-0.2°C 23% 6.9 mph SSE11.1 kmh SSE 16.8 mph27.0 kmh 29.86 in1011.2 mb 0.00 in0.0 mm 0.00 in0.0 mm 0.00 in0.0 mm
11:27 AM 71.4°F21.9°C 32.8°F0.4°C 24% 3.8 mph SSE6.1 kmh SSE 16.8 mph27.0 kmh 29.87 in1011.5 mb 0.00 in0.0 mm 0.00 in0.0 mm 0.00 in0.0 mm
11:28 AM 71.4°F21.9°C 32.8°F0.4°C 24% 3.8 mph SSE6.1 kmh SSE 13.6 mph21.9 kmh 29.87 in1011.5 mb 0.00 in0.0 mm 0.00 in0.0 mm 0.00 in0.0 mm
11:29 AM 71.8°F22.1°C 32.0°F0.0°C 23% 7.6 mph SSE12.2 kmh SSE 12.1 mph19.5 kmh 29.87 in1011.5 mb 0.00 in0.0 mm 0.00 in0.0 mm 0.00 in0.0 mm
11:30 AM 71.8°F22.1°C 32.0°F0.0°C 23% 8.3 mph SSE13.4 kmh SSE 12.1 mph19.5 kmh 29.87 in1011.5 mb 0.00 in0.0 mm 0.00 in0.0 mm 0.00 in0.0 mm
11:31 AM 71.6°F22.0°C 30.8°F-0.7°C 22% 9.2 mph SSE14.8 kmh SSE 13.0 mph20.9 kmh 29.87 in1011.5 mb 0.00 in0.0 mm 0.00 in0.0 mm 0.00 in0.0 mm
11:32 AM 71.6°F22.0°C 30.8°F-0.7°C 22% 7.6 mph SE12.2 kmh SE 13.0 mph20.9 kmh 29.86 in1011.2 mb 0.00 in0.0 mm 0.00 in0.0 mm 0.00 in0.0 mm
11:33 AM 71.2°F21.8°C 31.6°F-0.2°C 23% 9.2 mph SE14.8 kmh SE 15.2 mph24.5 kmh 29.87 in1011.5 mb 0.00 in0.0 mm 0.00 in0.0 mm 0.00 in0.0 mm
11:34 AM 71.2°F21.8°C 31.6°F-0.2°C 23% 9.2 mph SE14.8 kmh SE 15.2 mph24.5 kmh 29.88 in1011.9 mb 0.00 in0.0 mm 0.00 in0.0 mm 0.00 in0.0 mm
11:35 AM 71.2°F21.8°C 30.5°F-0.8°C 22% 6.0 mph SE9.7 kmh SE 15.2 mph24.5 kmh 29.87 in1011.5 mb 0.00 in0.0 mm 0.00 in0.0 mm 0.00 in0.0 mm
11:36 AM 71.2°F21.8°C 30.5°F-0.8°C 22% 6.0 mph SE9.7 kmh SE 15.2 mph24.5 kmh 29.87 in1011.5 mb 0.00 in0.0 mm 0.00 in0.0 mm 0.00 in0.0 mm
11:37 AM 71.6°F22.0°C 30.8°F-0.7°C 22% 6.0 mph SSE9.7 kmh SSE 15.2 mph24.5 kmh 29.86 in1011.2 mb 0.00 in0.0 mm 0.00 in0.0 mm 0.00 in0.0 mm
11:38 AM 72.0°F22.2°C 31.1°F-0.5°C 22% 6.0 mph SSE9.7 kmh SSE 15.2 mph24.5 kmh 29.87 in1011.5 mb 0.00 in0.0 mm 0.00 in0.0 mm 0.00 in0.0 mm
11:39 AM 72.1°F22.3°C 32.3°F0.2°C 23% 7.6 mph SSE12.2 kmh SSE 15.2 mph24.5 kmh 29.87 in1011.5 mb 0.00 in0.0 mm 0.00 in0.0 mm 0.00 in0.0 mm
11:40 AM 72.3°F22.4°C 32.5°F0.3°C 23% 5.4 mph SSE8.7 kmh SSE 15.2 mph24.5 kmh 29.87 in1011.5 mb 0.00 in0.0 mm 0.00 in0.0 mm 0.00 in0.0 mm
11:41 AM 72.5°F22.5°C 32.6°F0.3°C 23% 9.2 mph SSE14.8 kmh SSE 15.2 mph24.5 kmh 29.87 in1011.5 mb 0.00 in0.0 mm 0.00 in0.0 mm 0.00 in0.0 mm
11:42 AM 72.7°F22.6°C 31.7°F-0.2°C 22% 6.0 mph S9.7 kmh S 15.2 mph24.5 kmh 29.87 in1011.5 mb 0.00 in0.0 mm 0.00 in0.0 mm 0.00 in0.0 mm
11:43 AM 72.5°F22.5°C 31.5°F-0.3°C 22% 8.3 mph S13.4 kmh S 15.2 mph24.5 kmh 29.87 in1011.5 mb 0.00 in0.0 mm 0.00 in0.0 mm 0.00 in0.0 mm
11:44 AM 72.5°F22.5°C 31.5°F-0.3°C 22% 7.6 mph S12.2 kmh S 14.5 mph23.3 kmh 29.88 in1011.9 mb 0.00 in0.0 mm 0.00 in0.0 mm 0.00 in0.0 mm
11:45 AM 72.5°F22.5°C 30.4°F-0.9°C 21% 8.3 mph S13.4 kmh S 13.6 mph21.9 kmh 29.88 in1011.9 mb 0.00 in0.0 mm 0.00 in0.0 mm 0.00 in0.0 mm
11:46 AM 72.3°F22.4°C 30.2°F-1.0°C 21% 7.6 mph SSW12.2 kmh SSW 13.6 mph21.9 kmh 29.88 in1011.9 mb 0.00 in0.0 mm 0.00 in0.0 mm 0.00 in0.0 mm
11:47 AM 72.3°F22.4°C 30.2°F-1.0°C 21% 12.1 mph SSW19.5 kmh SSW 19.0 mph30.6 kmh 29.87 in1011.5 mb 0.00 in0.0 mm 0.00 in0.0 mm 0.00 in0.0 mm
11:48 AM 72.5°F22.5°C 30.4°F-0.9°C 21% 12.1 mph SSW19.5 kmh SSW 19.0 mph30.6 kmh 29.88 in1011.9 mb 0.00 in0.0 mm 0.00 in0.0 mm 0.00 in0.0 mm
11:49 AM 72.3°F22.4°C 30.2°F-1.0°C 21% 9.8 mph SSW15.8 kmh SSW 19.0 mph30.6 kmh 29.87 in1011.5 mb 0.00 in0.0 mm 0.00 in0.0 mm 0.00 in0.0 mm
11:50 AM 72.0°F22.2°C 29.9°F-1.2°C 21% 9.2 mph S14.8 kmh S 19.0 mph30.6 kmh 29.87 in1011.5 mb 0.00 in0.0 mm 0.00 in0.0 mm 0.00 in0.0 mm
11:51 AM 71.6°F22.0°C 30.8°F-0.7°C 22% 8.3 mph S13.4 kmh S 19.0 mph30.6 kmh 29.86 in1011.2 mb 0.00 in0.0 mm 0.00 in0.0 mm 0.00 in0.0 mm
11:52 AM 71.8°F22.1°C 29.8°F-1.2°C 21% 8.3 mph S13.4 kmh S 19.0 mph30.6 kmh 29.87 in1011.5 mb 0.00 in0.0 mm 0.00 in0.0 mm 0.00 in0.0 mm
11:53 AM 71.8°F22.1°C 29.8°F-1.2°C 21% 5.4 mph S8.7 kmh S 19.0 mph30.6 kmh 29.87 in1011.5 mb 0.00 in0.0 mm 0.00 in0.0 mm 0.00 in0.0 mm
11:54 AM 71.8°F22.1°C 30.9°F-0.6°C 22% 6.9 mph S11.1 kmh S 19.0 mph30.6 kmh 29.87 in1011.5 mb 0.00 in0.0 mm 0.00 in0.0 mm 0.00 in0.0 mm
11:55 AM 72.0°F22.2°C 29.9°F-1.2°C 21% 6.9 mph S11.1 kmh S 19.0 mph30.6 kmh 29.87 in1011.5 mb 0.00 in0.0 mm 0.00 in0.0 mm 0.00 in0.0 mm
11:56 AM 72.1°F22.3°C 31.2°F-0.4°C 22% 7.6 mph S12.2 kmh S 19.0 mph30.6 kmh 29.87 in1011.5 mb 0.00 in0.0 mm 0.00 in0.0 mm 0.00 in0.0 mm
11:57 AM 72.1°F22.3°C 31.2°F-0.4°C 22% 4.5 mph S7.2 kmh S 19.0 mph30.6 kmh 29.87 in1011.5 mb 0.00 in0.0 mm 0.00 in0.0 mm 0.00 in0.0 mm
11:58 AM 72.3°F22.4°C 31.4°F-0.3°C 22% 6.0 mph S9.7 kmh S 16.8 mph27.0 kmh 29.87 in1011.5 mb 0.00 in0.0 mm 0.00 in0.0 mm 0.00 in0.0 mm
11:59 AM 72.5°F22.5°C 31.5°F-0.3°C 22% 6.0 mph S9.7 kmh S 16.8 mph27.0 kmh 29.87 in1011.5 mb 0.00 in0.0 mm 0.00 in0.0 mm 0.00 in0.0 mm
12:00 PM 72.7°F22.6°C 31.7°F-0.2°C 22% 5.4 mph S8.7 kmh S 13.6 mph21.9 kmh 29.87 in1011.5 mb 0.00 in0.0 mm 0.00 in0.0 mm 0.00 in0.0 mm
12:01 PM 72.7°F22.6°C 32.8°F0.4°C 23% 6.0 mph S9.7 kmh S 13.6 mph21.9 kmh 29.87 in1011.5 mb 0.00 in0.0 mm 0.00 in0.0 mm 0.00 in0.0 mm
12:02 PM 72.9°F22.7°C 34.0°F1.1°C 24% 6.9 mph S11.1 kmh S 13.6 mph21.9 kmh 29.87 in1011.5 mb 0.00 in0.0 mm 0.00 in0.0 mm 0.00 in0.0 mm
12:03 PM 73.2°F22.9°C 33.2°F0.7°C 23% 3.8 mph S6.1 kmh S 13.6 mph21.9 kmh 29.87 in1011.5 mb 0.00 in0.0 mm 0.00 in0.0 mm 0.00 in0.0 mm
12:04 PM 73.4°F23.0°C 36.5°F2.5°C 26% 3.8 mph S6.1 kmh S 13.6 mph21.9 kmh 29.87 in1011.5 mb 0.00 in0.0 mm 0.00 in0.0 mm 0.00 in0.0 mm
12:05 PM 73.6°F23.1°C 36.6°F2.6°C 26% 3.1 mph S5.0 kmh S 13.6 mph21.9 kmh 29.87 in1011.5 mb 0.00 in0.0 mm 0.00 in0.0 mm 0.00 in0.0 mm
12:06 PM 73.8°F23.2°C 36.8°F2.7°C 26% 3.8 mph S6.1 kmh S 11.4 mph18.3 kmh 29.87 in1011.5 mb 0.00 in0.0 mm 0.00 in0.0 mm 0.00 in0.0 mm
12:07 PM 74.3°F23.5°C 37.2°F2.9°C 26% 6.9 mph S11.1 kmh S 11.4 mph18.3 kmh 29.87 in1011.5 mb 0.00 in0.0 mm 0.00 in0.0 mm 0.00 in0.0 mm
12:08 PM 74.3°F23.5°C 37.2°F2.9°C 26% 6.9 mph SSW11.1 kmh SSW 11.4 mph18.3 kmh 29.87 in1011.5 mb 0.00 in0.0 mm 0.00 in0.0 mm 0.00 in0.0 mm
12:09 PM 74.3°F23.5°C 37.2°F2.9°C 26% 6.9 mph SSW11.1 kmh SSW 11.4 mph18.3 kmh 29.87 in1011.5 mb 0.00 in0.0 mm 0.00 in0.0 mm 0.00 in0.0 mm
12:10 PM 74.3°F23.5°C 37.2°F2.9°C 26% 6.9 mph SSW11.1 kmh SSW 11.4 mph18.3 kmh 29.87 in1011.5 mb 0.00 in0.0 mm 0.00 in0.0 mm 0.00 in0.0 mm
12:11 PM 74.3°F23.5°C 37.2°F2.9°C 26% 6.9 mph SSW11.1 kmh SSW 11.4 mph18.3 kmh 29.87 in1011.5 mb 0.00 in0.0 mm 0.00 in0.0 mm 0.00 in0.0 mm
12:12 PM 74.3°F23.5°C 36.2°F2.3°C 25% 6.9 mph SSW11.1 kmh SSW 11.4 mph18.3 kmh 29.87 in1011.5 mb 0.00 in0.0 mm 0.00 in0.0 mm 0.00 in0.0 mm
12:13 PM 74.1°F23.4°C 36.1°F2.3°C 25% 5.4 mph SSW8.7 kmh SSW 11.4 mph18.3 kmh 29.87 in1011.5 mb 0.00 in0.0 mm 0.00 in0.0 mm 0.00 in0.0 mm
12:14 PM 74.3°F23.5°C 36.2°F2.3°C 25% 6.0 mph SSW9.7 kmh SSW 11.4 mph18.3 kmh 29.87 in1011.5 mb 0.00 in0.0 mm 0.00 in0.0 mm 0.00 in0.0 mm
12:15 PM 74.1°F23.4°C 36.1°F2.3°C 25% 5.4 mph SSW8.7 kmh SSW 13.0 mph20.9 kmh 29.86 in1011.2 mb 0.00 in0.0 mm 0.00 in0.0 mm 0.00 in0.0 mm
12:16 PM 73.9°F23.3°C 35.9°F2.2°C 25% 8.3 mph SSW13.4 kmh SSW 13.0 mph20.9 kmh 29.86 in1011.2 mb 0.00 in0.0 mm 0.00 in0.0 mm 0.00 in0.0 mm
12:17 PM 73.8°F23.2°C 35.8°F2.1°C 25% 6.0 mph S9.7 kmh S 13.0 mph20.9 kmh 29.87 in1011.5 mb 0.00 in0.0 mm 0.00 in0.0 mm 0.00 in0.0 mm
12:18 PM 73.8°F23.2°C 35.8°F2.1°C 25% 9.8 mph S15.8 kmh S 13.0 mph20.9 kmh 29.86 in1011.2 mb 0.00 in0.0 mm 0.00 in0.0 mm 0.00 in0.0 mm
12:19 PM 73.8°F23.2°C 35.8°F2.1°C 25% 7.6 mph S12.2 kmh S 13.0 mph20.9 kmh 29.86 in1011.2 mb 0.00 in0.0 mm 0.00 in0.0 mm 0.00 in0.0 mm
12:20 PM 73.4°F23.0°C 35.5°F1.9°C 25% 4.5 mph S7.2 kmh S 13.0 mph20.9 kmh 29.86 in1011.2 mb 0.00 in0.0 mm 0.00 in0.0 mm 0.00 in0.0 mm
12:21 PM 73.4°F23.0°C 35.5°F1.9°C 25% 4.5 mph S7.2 kmh S 13.0 mph20.9 kmh 29.86 in1011.2 mb 0.00 in0.0 mm 0.00 in0.0 mm 0.00 in0.0 mm
12:22 PM 73.4°F23.0°C 35.5°F1.9°C 25% 4.5 mph S7.2 kmh S 13.0 mph20.9 kmh 29.86 in1011.2 mb 0.00 in0.0 mm 0.00 in0.0 mm 0.00 in0.0 mm
12:23 PM 73.8°F23.2°C 35.8°F2.1°C 25% 6.0 mph S9.7 kmh S 13.0 mph20.9 kmh 29.86 in1011.2 mb 0.00 in0.0 mm 0.00 in0.0 mm 0.00 in0.0 mm
12:24 PM 73.8°F23.2°C 35.8°F2.1°C 25% 11.4 mph S18.3 kmh S 14.5 mph23.3 kmh 29.85 in1010.8 mb 0.00 in0.0 mm 0.00 in0.0 mm 0.00 in0.0 mm
12:25 PM 73.8°F23.2°C 35.8°F2.1°C 25% 11.4 mph S18.3 kmh S 14.5 mph23.3 kmh 29.86 in1011.2 mb 0.00 in0.0 mm 0.00 in0.0 mm 0.00 in0.0 mm
12:26 PM 73.6°F23.1°C 35.6°F2.0°C 25% 5.4 mph S8.7 kmh S 14.5 mph23.3 kmh 29.86 in1011.2 mb 0.00 in0.0 mm 0.00 in0.0 mm 0.00 in0.0 mm
12:27 PM 73.4°F23.0°C 35.5°F1.9°C 25% 4.5 mph S7.2 kmh S 14.5 mph23.3 kmh 29.85 in1010.8 mb 0.00 in0.0 mm 0.00 in0.0 mm 0.00 in0.0 mm
12:28 PM 73.6°F23.1°C 35.6°F2.0°C 25% 4.5 mph S7.2 kmh S 14.5 mph23.3 kmh 29.86 in1011.2 mb 0.00 in0.0 mm 0.00 in0.0 mm 0.00 in0.0 mm
12:29 PM 73.6°F23.1°C 35.6°F2.0°C 25% 4.5 mph S7.2 kmh S 14.5 mph23.3 kmh 29.85 in1010.8 mb 0.00 in0.0 mm 0.00 in0.0 mm 0.00 in0.0 mm
12:30 PM 73.9°F23.3°C 35.9°F2.2°C 25% 8.3 mph S13.4 kmh S 14.5 mph23.3 kmh 29.86 in1011.2 mb 0.00 in0.0 mm 0.00 in0.0 mm 0.00 in0.0 mm
12:31 PM 73.9°F23.3°C 35.9°F2.2°C 25% 8.3 mph S13.4 kmh S 14.5 mph23.3 kmh 29.86 in1011.2 mb 0.00 in0.0 mm 0.00 in0.0 mm 0.00 in0.0 mm
12:32 PM 73.9°F23.3°C 35.9°F2.2°C 25% 8.3 mph S13.4 kmh S 14.5 mph23.3 kmh 29.85 in1010.8 mb 0.00 in0.0 mm 0.00 in0.0 mm 0.00 in0.0 mm
12:33 PM 73.9°F23.3°C 35.9°F2.2°C 25% 8.3 mph S13.4 kmh S 14.5 mph23.3 kmh 29.86 in1011.2 mb 0.00 in0.0 mm 0.00 in0.0 mm 0.00 in0.0 mm
12:34 PM 73.9°F23.3°C 35.9°F2.2°C 25% 8.3 mph SSE13.4 kmh SSE 14.5 mph23.3 kmh 29.86 in1011.2 mb 0.00 in0.0 mm 0.00 in0.0 mm 0.00 in0.0 mm
12:35 PM 73.2°F22.9°C 31.0°F-0.6°C 21% 7.6 mph SSE12.2 kmh SSE 13.0 mph20.9 kmh 29.85 in1010.8 mb 0.00 in0.0 mm 0.00 in0.0 mm 0.00 in0.0 mm
12:36 PM 73.4°F23.0°C 35.5°F1.9°C 25% 6.0 mph SSE9.7 kmh SSE 13.0 mph20.9 kmh 29.86 in1011.2 mb 0.00 in0.0 mm 0.00 in0.0 mm 0.00 in0.0 mm
12:37 PM 73.4°F23.0°C 35.5°F1.9°C 25% 8.3 mph SSE13.4 kmh SSE 13.0 mph20.9 kmh 29.85 in1010.8 mb 0.00 in0.0 mm 0.00 in0.0 mm 0.00 in0.0 mm
12:39 PM 73.2°F22.9°C 31.0°F-0.6°C 21% 5.4 mph SE8.7 kmh SE 13.0 mph20.9 kmh 29.86 in1011.2 mb 0.00 in0.0 mm 0.00 in0.0 mm 0.00 in0.0 mm
12:40 PM 73.4°F23.0°C 35.5°F1.9°C 25% 9.2 mph SE14.8 kmh SE 14.5 mph23.3 kmh 29.86 in1011.2 mb 0.00 in0.0 mm 0.00 in0.0 mm 0.00 in0.0 mm
12:41 PM 73.2°F22.9°C 31.0°F-0.6°C 21% 3.8 mph SE6.1 kmh SE 14.5 mph23.3 kmh 29.85 in1010.8 mb 0.00 in0.0 mm 0.00 in0.0 mm 0.00 in0.0 mm
12:42 PM 73.2°F22.9°C 31.0°F-0.6°C 21% 8.3 mph SSE13.4 kmh SSE 14.5 mph23.3 kmh 29.85 in1010.8 mb 0.00 in0.0 mm 0.00 in0.0 mm 0.00 in0.0 mm
12:43 PM 73.4°F23.0°C 35.5°F1.9°C 25% 4.5 mph SSE7.2 kmh SSE 14.5 mph23.3 kmh 29.86 in1011.2 mb 0.00 in0.0 mm 0.00 in0.0 mm 0.00 in0.0 mm
12:44 PM 73.4°F23.0°C 35.5°F1.9°C 25% 9.8 mph SSE15.8 kmh SSE 14.5 mph23.3 kmh 29.85 in1010.8 mb 0.00 in0.0 mm 0.00 in0.0 mm 0.00 in0.0 mm
12:45 PM 73.8°F23.2°C 35.8°F2.1°C 25% 6.0 mph S9.7 kmh S 14.5 mph23.3 kmh 29.86 in1011.2 mb 0.00 in0.0 mm 0.00 in0.0 mm 0.00 in0.0 mm
12:46 PM 73.8°F23.2°C 35.8°F2.1°C 25% 6.0 mph S9.7 kmh S 14.5 mph23.3 kmh 29.85 in1010.8 mb 0.00 in0.0 mm 0.00 in0.0 mm 0.00 in0.0 mm
12:47 PM 73.9°F23.3°C 35.9°F2.2°C 25% 6.0 mph S9.7 kmh S 14.5 mph23.3 kmh 29.86 in1011.2 mb 0.00 in0.0 mm 0.00 in0.0 mm 0.00 in0.0 mm
12:48 PM 73.8°F23.2°C 35.8°F2.1°C 25% 6.9 mph S11.1 kmh S 14.5 mph23.3 kmh 29.86 in1011.2 mb 0.00 in0.0 mm 0.00 in0.0 mm 0.00 in0.0 mm
12:49 PM 73.8°F23.2°C 35.8°F2.1°C 25% 9.2 mph S14.8 kmh S 14.5 mph23.3 kmh 29.86 in1011.2 mb 0.00 in0.0 mm 0.00 in0.0 mm 0.00 in0.0 mm
12:50 PM 73.6°F23.1°C 35.6°F2.0°C 25% 9.8 mph S15.8 kmh S 14.5 mph23.3 kmh 29.86 in1011.2 mb 0.00 in0.0 mm 0.00 in0.0 mm 0.00 in0.0 mm
12:51 PM 73.4°F23.0°C 35.5°F1.9°C 25% 7.6 mph S12.2 kmh S 13.6 mph21.9 kmh 29.86 in1011.2 mb 0.00 in0.0 mm 0.00 in0.0 mm 0.00 in0.0 mm
12:52 PM 73.4°F23.0°C 35.5°F1.9°C 25% 5.4 mph S8.7 kmh S 13.6 mph21.9 kmh 29.85 in1010.8 mb 0.00 in0.0 mm 0.00 in0.0 mm 0.00 in0.0 mm
12:53 PM 73.4°F23.0°C 35.5°F1.9°C 25% 9.2 mph S14.8 kmh S 13.6 mph21.9 kmh 29.86 in1011.2 mb 0.00 in0.0 mm 0.00 in0.0 mm 0.00 in0.0 mm
12:54 PM 73.6°F23.1°C 35.6°F2.0°C 25% 5.4 mph S8.7 kmh S 13.6 mph21.9 kmh 29.86 in1011.2 mb 0.00 in0.0 mm 0.00 in0.0 mm 0.00 in0.0 mm
12:55 PM 73.6°F23.1°C 35.6°F2.0°C 25% 6.0 mph S9.7 kmh S 13.6 mph21.9 kmh 29.86 in1011.2 mb 0.00 in0.0 mm 0.00 in0.0 mm 0.00 in0.0 mm
12:56 PM 73.8°F23.2°C 35.8°F2.1°C 25% 6.9 mph S11.1 kmh S 13.6 mph21.9 kmh 29.86 in1011.2 mb 0.00 in0.0 mm 0.00 in0.0 mm 0.00 in0.0 mm
12:57 PM 73.8°F23.2°C 35.8°F2.1°C 25% 6.0 mph S9.7 kmh S 13.0 mph20.9 kmh 29.85 in1010.8 mb 0.00 in0.0 mm 0.00 in0.0 mm 0.00 in0.0 mm
12:58 PM 73.8°F23.2°C 35.8°F2.1°C 25% 5.4 mph S8.7 kmh S 13.0 mph20.9 kmh 29.86 in1011.2 mb 0.00 in0.0 mm 0.00 in0.0 mm 0.00 in0.0 mm
12:59 PM 73.9°F23.3°C 35.9°F2.2°C 25% 8.3 mph SSE13.4 kmh SSE 15.2 mph24.5 kmh 29.86 in1011.2 mb 0.00 in0.0 mm 0.00 in0.0 mm 0.00 in0.0 mm
01:00 PM 73.8°F23.2°C 35.8°F2.1°C 25% 5.4 mph SSE8.7 kmh SSE 15.2 mph24.5 kmh 29.86 in1011.2 mb 0.00 in0.0 mm 0.00 in0.0 mm 0.00 in0.0 mm
01:01 PM 73.9°F23.3°C 35.9°F2.2°C 25% 9.8 mph SSE15.8 kmh SSE 15.2 mph24.5 kmh 29.86 in1011.2 mb 0.00 in0.0 mm 0.00 in0.0 mm 0.00 in0.0 mm
01:02 PM 74.1°F23.4°C 35.1°F1.7°C 24% 6.9 mph SSE11.1 kmh SSE 15.2 mph24.5 kmh 29.85 in1010.8 mb 0.00 in0.0 mm 0.00 in0.0 mm 0.00 in0.0 mm
01:03 PM 74.1°F23.4°C 34.0°F1.1°C 23% 3.8 mph SSE6.1 kmh SSE 15.2 mph24.5 kmh 29.86 in1011.2 mb 0.00 in0.0 mm 0.00 in0.0 mm 0.00 in0.0 mm
01:04 PM 74.1°F23.4°C 35.1°F1.7°C 24% 9.2 mph SSE14.8 kmh SSE 15.2 mph24.5 kmh 29.85 in1010.8 mb 0.00 in0.0 mm 0.00 in0.0 mm 0.00 in0.0 mm
01:05 PM 74.3°F23.5°C 34.1°F1.2°C 23% 8.3 mph SSE13.4 kmh SSE 15.2 mph24.5 kmh 29.85 in1010.8 mb 0.00 in0.0 mm 0.00 in0.0 mm 0.00 in0.0 mm
01:06 PM 74.1°F23.4°C 34.0°F1.1°C 23% 9.8 mph SSE15.8 kmh SSE 15.2 mph24.5 kmh 29.85 in1010.8 mb 0.00 in0.0 mm 0.00 in0.0 mm 0.00 in0.0 mm
01:07 PM 74.1°F23.4°C 34.0°F1.1°C 23% 2.2 mph SSE3.5 kmh SSE 15.2 mph24.5 kmh 29.85 in1010.8 mb 0.00 in0.0 mm 0.00 in0.0 mm 0.00 in0.0 mm
01:08 PM 74.1°F23.4°C 34.0°F1.1°C 23% 8.3 mph SSE13.4 kmh SSE 15.2 mph24.5 kmh 29.84 in1010.5 mb 0.00 in0.0 mm 0.00 in0.0 mm 0.00 in0.0 mm
01:09 PM 74.1°F23.4°C 34.0°F1.1°C 23% 8.3 mph SSE13.4 kmh SSE 15.2 mph24.5 kmh 29.85 in1010.8 mb 0.00 in0.0 mm 0.00 in0.0 mm 0.00 in0.0 mm
01:10 PM 74.1°F23.4°C 34.0°F1.1°C 23% 5.4 mph SSE8.7 kmh SSE 15.2 mph24.5 kmh 29.85 in1010.8 mb 0.00 in0.0 mm 0.00 in0.0 mm 0.00 in0.0 mm
01:11 PM 74.1°F23.4°C 35.1°F1.7°C 24% 6.0 mph SSE9.7 kmh SSE 15.2 mph24.5 kmh 29.85 in1010.8 mb 0.00 in0.0 mm 0.00 in0.0 mm 0.00 in0.0 mm
01:12 PM 74.3°F23.5°C 35.2°F1.8°C 24% 7.6 mph SSE12.2 kmh SSE 15.2 mph24.5 kmh 29.85 in1010.8 mb 0.00 in0.0 mm 0.00 in0.0 mm 0.00 in0.0 mm
01:13 PM 74.3°F23.5°C 35.2°F1.8°C 24% 12.1 mph SSE19.5 kmh SSE 15.9 mph25.6 kmh 29.85 in1010.8 mb 0.00 in0.0 mm 0.00 in0.0 mm 0.00 in0.0 mm
01:14 PM 74.1°F23.4°C 34.0°F1.1°C 23% 6.0 mph SSE9.7 kmh SSE 15.9 mph25.6 kmh 29.85 in1010.8 mb 0.00 in0.0 mm 0.00 in0.0 mm 0.00 in0.0 mm
01:15 PM 73.9°F23.3°C 34.9°F1.6°C 24% 5.4 mph SSE8.7 kmh SSE 15.9 mph25.6 kmh 29.85 in1010.8 mb 0.00 in0.0 mm 0.00 in0.0 mm 0.00 in0.0 mm
01:16 PM 73.9°F23.3°C 34.9°F1.6°C 24% 3.8 mph SSE6.1 kmh SSE 15.9 mph25.6 kmh 29.85 in1010.8 mb 0.00 in0.0 mm 0.00 in0.0 mm 0.00 in0.0 mm
01:17 PM 73.9°F23.3°C 34.9°F1.6°C 24% 8.3 mph SSE13.4 kmh SSE 15.9 mph25.6 kmh 29.85 in1010.8 mb 0.00 in0.0 mm 0.00 in0.0 mm 0.00 in0.0 mm
01:18 PM 73.9°F23.3°C 34.9°F1.6°C 24% 6.9 mph SSE11.1 kmh SSE 15.9 mph25.6 kmh 29.85 in1010.8 mb 0.00 in0.0 mm 0.00 in0.0 mm 0.00 in0.0 mm
01:19 PM 73.8°F23.2°C 35.8°F2.1°C 25% 3.1 mph S5.0 kmh S 15.9 mph25.6 kmh 29.85 in1010.8 mb 0.00 in0.0 mm 0.00 in0.0 mm 0.00 in0.0 mm
01:20 PM 73.9°F23.3°C 35.9°F2.2°C 25% 3.8 mph S6.1 kmh S 15.9 mph25.6 kmh 29.85 in1010.8 mb 0.00 in0.0 mm 0.00 in0.0 mm 0.00 in0.0 mm
01:21 PM 73.9°F23.3°C 35.9°F2.2°C 25% 3.8 mph S6.1 kmh S 15.9 mph25.6 kmh 29.85 in1010.8 mb 0.00 in0.0 mm 0.00 in0.0 mm 0.00 in0.0 mm
01:22 PM 74.1°F23.4°C 36.1°F2.3°C 25% 5.4 mph S8.7 kmh S 15.9 mph25.6 kmh 29.85 in1010.8 mb 0.00 in0.0 mm 0.00 in0.0 mm 0.00 in0.0 mm
01:23 PM 74.3°F23.5°C 36.2°F2.3°C 25% 4.5 mph S7.2 kmh S 11.4 mph18.3 kmh 29.84 in1010.5 mb 0.00 in0.0 mm 0.00 in0.0 mm 0.00 in0.0 mm
01:24 PM 74.5°F23.6°C 36.4°F2.4°C 25% 3.1 mph S5.0 kmh S 10.7 mph17.2 kmh 29.85 in1010.8 mb 0.00 in0.0 mm 0.00 in0.0 mm 0.00 in0.0 mm
01:25 PM 74.5°F23.6°C 35.4°F1.9°C 24% 6.9 mph S11.1 kmh S 10.7 mph17.2 kmh 29.84 in1010.5 mb 0.00 in0.0 mm 0.00 in0.0 mm 0.00 in0.0 mm
01:26 PM 74.5°F23.6°C 36.4°F2.4°C 25% 4.5 mph S7.2 kmh S 10.7 mph17.2 kmh 29.85 in1010.8 mb 0.00 in0.0 mm 0.00 in0.0 mm 0.00 in0.0 mm
01:27 PM 74.7°F23.7°C 36.5°F2.5°C 25% 7.6 mph S12.2 kmh S 10.7 mph17.2 kmh 29.84 in1010.5 mb 0.00 in0.0 mm 0.00 in0.0 mm 0.00 in0.0 mm
01:28 PM 74.7°F23.7°C 36.5°F2.5°C 25% 5.4 mph S8.7 kmh S 10.7 mph17.2 kmh 29.84 in1010.5 mb 0.00 in0.0 mm 0.00 in0.0 mm 0.00 in0.0 mm
01:29 PM 74.7°F23.7°C 36.5°F2.5°C 25% 6.0 mph S9.7 kmh S 11.4 mph18.3 kmh 29.85 in1010.8 mb 0.00 in0.0 mm 0.00 in0.0 mm 0.00 in0.0 mm
01:30 PM 74.8°F23.8°C 36.7°F2.6°C 25% 6.0 mph S9.7 kmh S 11.4 mph18.3 kmh 29.84 in1010.5 mb 0.00 in0.0 mm 0.00 in0.0 mm 0.00 in0.0 mm
01:31 PM 74.7°F23.7°C 36.5°F2.5°C 25% 6.0 mph S9.7 kmh S 11.4 mph18.3 kmh 29.84 in1010.5 mb 0.00 in0.0 mm 0.00 in0.0 mm 0.00 in0.0 mm
01:32 PM 74.7°F23.7°C 36.5°F2.5°C 25% 6.0 mph SSE9.7 kmh SSE 11.4 mph18.3 kmh 29.84 in1010.5 mb 0.00 in0.0 mm 0.00 in0.0 mm 0.00 in0.0 mm
01:33 PM 74.5°F23.6°C 36.4°F2.4°C 25% 6.0 mph SSE9.7 kmh SSE 11.4 mph18.3 kmh 29.84 in1010.5 mb 0.00 in0.0 mm 0.00 in0.0 mm 0.00 in0.0 mm
01:34 PM 74.3°F23.5°C 36.2°F2.3°C 25% 3.1 mph S5.0 kmh S 11.4 mph18.3 kmh 29.84 in1010.5 mb 0.00 in0.0 mm 0.00 in0.0 mm 0.00 in0.0 mm
01:35 PM 74.3°F23.5°C 36.2°F2.3°C 25% 3.8 mph SSE6.1 kmh SSE 11.4 mph18.3 kmh 29.84 in1010.5 mb 0.00 in0.0 mm 0.00 in0.0 mm 0.00 in0.0 mm
01:36 PM 74.3°F23.5°C 36.2°F2.3°C 25% 6.0 mph SSE9.7 kmh SSE 11.4 mph18.3 kmh 29.84 in1010.5 mb 0.00 in0.0 mm 0.00 in0.0 mm 0.00 in0.0 mm
01:37 PM 74.5°F23.6°C 36.4°F2.4°C 25% 6.0 mph S9.7 kmh S 11.4 mph18.3 kmh 29.84 in1010.5 mb 0.00 in0.0 mm 0.00 in0.0 mm 0.00 in0.0 mm
01:38 PM 74.8°F23.8°C 36.7°F2.6°C 25% 9.2 mph SSE14.8 kmh SSE 11.4 mph18.3 kmh 29.84 in1010.5 mb 0.00 in0.0 mm 0.00 in0.0 mm 0.00 in0.0 mm
01:39 PM 75.2°F24.0°C 33.8°F1.0°C 22% 5.4 mph S8.7 kmh S 11.4 mph18.3 kmh 29.84 in1010.5 mb 0.00 in0.0 mm 0.00 in0.0 mm 0.00 in0.0 mm
01:40 PM 75.4°F24.1°C 32.8°F0.4°C 21% 6.9 mph S11.1 kmh S 11.4 mph18.3 kmh 29.84 in1010.5 mb 0.00 in0.0 mm 0.00 in0.0 mm 0.00 in0.0 mm
01:41 PM 75.4°F24.1°C 32.8°F0.4°C 21% 6.0 mph S9.7 kmh S 11.4 mph18.3 kmh 29.84 in1010.5 mb 0.00 in0.0 mm 0.00 in0.0 mm 0.00 in0.0 mm
01:42 PM 75.7°F24.3°C 33.1°F0.6°C 21% 6.0 mph S9.7 kmh S 11.4 mph18.3 kmh 29.84 in1010.5 mb 0.00 in0.0 mm 0.00 in0.0 mm 0.00 in0.0 mm
01:43 PM 76.1°F24.5°C 34.5°F1.4°C 22% 4.5 mph S7.2 kmh S 11.4 mph18.3 kmh 29.84 in1010.5 mb 0.00 in0.0 mm 0.00 in0.0 mm 0.00 in0.0 mm
01:44 PM 76.3°F24.6°C 33.5°F0.8°C 21% 2.2 mph S3.5 kmh S 11.4 mph18.3 kmh 29.84 in1010.5 mb 0.00 in0.0 mm 0.00 in0.0 mm 0.00 in0.0 mm
01:45 PM 76.5°F24.7°C 34.8°F1.6°C 22% 6.9 mph SSW11.1 kmh SSW 11.4 mph18.3 kmh 29.84 in1010.5 mb 0.00 in0.0 mm 0.00 in0.0 mm 0.00 in0.0 mm
01:46 PM 76.8°F24.9°C 35.1°F1.7°C 22% 4.5 mph S7.2 kmh S 11.4 mph18.3 kmh 29.84 in1010.5 mb 0.00 in0.0 mm 0.00 in0.0 mm 0.00 in0.0 mm
01:47 PM 76.6°F24.8°C 33.8°F1.0°C 21% 4.5 mph S7.2 kmh S 11.4 mph18.3 kmh 29.83 in1010.2 mb 0.00 in0.0 mm 0.00 in0.0 mm 0.00 in0.0 mm
01:48 PM 76.6°F24.8°C 33.8°F1.0°C 21% 5.4 mph S8.7 kmh S 10.7 mph17.2 kmh 29.84 in1010.5 mb 0.00 in0.0 mm 0.00 in0.0 mm 0.00 in0.0 mm
01:49 PM 76.5°F24.7°C 33.7°F0.9°C 21% 5.4 mph S8.7 kmh S 9.8 mph15.8 kmh 29.83 in1010.2 mb 0.00 in0.0 mm 0.00 in0.0 mm 0.00 in0.0 mm
01:50 PM 76.3°F24.6°C 32.3°F0.2°C 20% 3.1 mph S5.0 kmh S 9.8 mph15.8 kmh 29.83 in1010.2 mb 0.00 in0.0 mm 0.00 in0.0 mm 0.00 in0.0 mm
01:51 PM 75.9°F24.4°C 33.2°F0.7°C 21% 4.5 mph S7.2 kmh S 9.8 mph15.8 kmh 29.83 in1010.2 mb 0.00 in0.0 mm 0.00 in0.0 mm 0.00 in0.0 mm
01:52 PM 76.1°F24.5°C 33.4°F0.8°C 21% 6.9 mph S11.1 kmh S 12.1 mph19.5 kmh 29.83 in1010.2 mb 0.00 in0.0 mm 0.00 in0.0 mm 0.00 in0.0 mm
01:53 PM 76.1°F24.5°C 33.4°F0.8°C 21% 9.2 mph S14.8 kmh S 13.6 mph21.9 kmh 29.83 in1010.2 mb 0.00 in0.0 mm 0.00 in0.0 mm 0.00 in0.0 mm
01:54 PM 76.1°F24.5°C 32.2°F0.1°C 20% 6.0 mph S9.7 kmh S 13.6 mph21.9 kmh 29.84 in1010.5 mb 0.00 in0.0 mm 0.00 in0.0 mm 0.00 in0.0 mm
01:55 PM 76.1°F24.5°C 32.2°F0.1°C 20% 6.0 mph S9.7 kmh S 13.6 mph21.9 kmh 29.83 in1010.2 mb 0.00 in0.0 mm 0.00 in0.0 mm 0.00 in0.0 mm
01:56 PM 75.9°F24.4°C 32.0°F0.0°C 20% 8.3 mph S13.4 kmh S 13.6 mph21.9 kmh 29.83 in1010.2 mb 0.00 in0.0 mm 0.00 in0.0 mm 0.00 in0.0 mm
01:57 PM 75.9°F24.4°C 32.0°F0.0°C 20% 5.4 mph S8.7 kmh S 13.6 mph21.9 kmh 29.84 in1010.5 mb 0.00 in0.0 mm 0.00 in0.0 mm 0.00 in0.0 mm
01:58 PM 75.9°F24.4°C 33.2°F0.7°C 21% 2.2 mph S3.5 kmh S 13.6 mph21.9 kmh 29.84 in1010.5 mb 0.00 in0.0 mm 0.00 in0.0 mm 0.00 in0.0 mm
01:59 PM 76.3°F24.6°C 33.5°F0.8°C 21% 9.2 mph S14.8 kmh S 13.6 mph21.9 kmh 29.83 in1010.2 mb 0.00 in0.0 mm 0.00 in0.0 mm 0.00 in0.0 mm
02:00 PM 76.5°F24.7°C 33.7°F0.9°C 21% 6.0 mph S9.7 kmh S 13.6 mph21.9 kmh 29.83 in1010.2 mb 0.00 in0.0 mm 0.00 in0.0 mm 0.00 in0.0 mm
02:01 PM 76.5°F24.7°C 32.5°F0.3°C 20% 3.8 mph S6.1 kmh S 13.6 mph21.9 kmh 29.83 in1010.2 mb 0.00 in0.0 mm 0.00 in0.0 mm 0.00 in0.0 mm
02:02 PM 76.5°F24.7°C 33.7°F0.9°C 21% 5.4 mph S8.7 kmh S 13.6 mph21.9 kmh 29.83 in1010.2 mb 0.00 in0.0 mm 0.00 in0.0 mm 0.00 in0.0 mm
02:03 PM 76.8°F24.9°C 35.1°F1.7°C 22% 3.1 mph S5.0 kmh S 12.1 mph19.5 kmh 29.83 in1010.2 mb 0.00 in0.0 mm 0.00 in0.0 mm 0.00 in0.0 mm
02:04 PM 76.8°F24.9°C 35.1°F1.7°C 22% 5.4 mph S8.7 kmh S 12.1 mph19.5 kmh 29.83 in1010.2 mb 0.00 in0.0 mm 0.00 in0.0 mm 0.00 in0.0 mm
02:05 PM 76.8°F24.9°C 35.1°F1.7°C 22% 5.4 mph S8.7 kmh S 11.4 mph18.3 kmh 29.83 in1010.2 mb 0.00 in0.0 mm 0.00 in0.0 mm 0.00 in0.0 mm
02:06 PM 76.8°F24.9°C 35.1°F1.7°C 22% 5.4 mph S8.7 kmh S 11.4 mph18.3 kmh 29.82 in1009.8 mb 0.00 in0.0 mm 0.00 in0.0 mm 0.00 in0.0 mm
02:07 PM 77.0°F25.0°C 32.9°F0.5°C 20% 4.5 mph S7.2 kmh S 11.4 mph18.3 kmh 29.83 in1010.2 mb 0.00 in0.0 mm 0.00 in0.0 mm 0.00 in0.0 mm
02:08 PM 77.2°F25.1°C 33.0°F0.6°C 20% 6.0 mph S9.7 kmh S 11.4 mph18.3 kmh 29.82 in1009.8 mb 0.00 in0.0 mm 0.00 in0.0 mm 0.00 in0.0 mm
02:09 PM 77.2°F25.1°C 33.0°F0.6°C 20% 9.2 mph S14.8 kmh S 13.0 mph20.9 kmh 29.82 in1009.8 mb 0.00 in0.0 mm 0.00 in0.0 mm 0.00 in0.0 mm
02:10 PM 77.4°F25.2°C 31.9°F-0.1°C 19% 5.4 mph S8.7 kmh S 13.0 mph20.9 kmh 29.82 in1009.8 mb 0.00 in0.0 mm 0.00 in0.0 mm 0.00 in0.0 mm
02:11 PM 77.2°F25.1°C 31.8°F-0.1°C 19% 7.6 mph S12.2 kmh S 13.0 mph20.9 kmh 29.83 in1010.2 mb 0.00 in0.0 mm 0.00 in0.0 mm 0.00 in0.0 mm
02:12 PM 77.2°F25.1°C 33.0°F0.6°C 20% 6.0 mph S9.7 kmh S 13.0 mph20.9 kmh 29.83 in1010.2 mb 0.00 in0.0 mm 0.00 in0.0 mm 0.00 in0.0 mm
02:13 PM 77.2°F25.1°C 33.0°F0.6°C 20% 8.3 mph S13.4 kmh S 13.0 mph20.9 kmh 29.82 in1009.8 mb 0.00 in0.0 mm 0.00 in0.0 mm 0.00 in0.0 mm
02:14 PM 77.0°F25.0°C 32.9°F0.5°C 20% 5.4 mph S8.7 kmh S 13.0 mph20.9 kmh 29.83 in1010.2 mb 0.00 in0.0 mm 0.00 in0.0 mm 0.00 in0.0 mm
02:15 PM 76.6°F24.8°C 33.8°F1.0°C 21% 3.8 mph S6.1 kmh S 13.0 mph20.9 kmh 29.82 in1009.8 mb 0.00 in0.0 mm 0.00 in0.0 mm 0.00 in0.0 mm
02:16 PM 76.5°F24.7°C 34.8°F1.6°C 22% 2.2 mph S3.5 kmh S 13.0 mph20.9 kmh 29.82 in1009.8 mb 0.00 in0.0 mm 0.00 in0.0 mm 0.00 in0.0 mm
02:17 PM 76.6°F24.8°C 35.0°F1.7°C 22% 5.4 mph S8.7 kmh S 13.0 mph20.9 kmh 29.82 in1009.8 mb 0.00 in0.0 mm 0.00 in0.0 mm 0.00 in0.0 mm
02:18 PM 76.6°F24.8°C 35.0°F1.7°C 22% 6.0 mph S9.7 kmh S 13.0 mph20.9 kmh 29.82 in1009.8 mb 0.00 in0.0 mm 0.00 in0.0 mm 0.00 in0.0 mm
02:19 PM 76.6°F24.8°C 36.1°F2.3°C 23% 3.1 mph S5.0 kmh S 12.1 mph19.5 kmh 29.82 in1009.8 mb 0.00 in0.0 mm 0.00 in0.0 mm 0.00 in0.0 mm
02:20 PM 76.8°F24.9°C 37.3°F2.9°C 24% 2.2 mph S3.5 kmh S 12.1 mph19.5 kmh 29.82 in1009.8 mb 0.00 in0.0 mm 0.00 in0.0 mm 0.00 in0.0 mm
02:21 PM 77.0°F25.0°C 36.4°F2.4°C 23% 6.9 mph S11.1 kmh S 12.1 mph19.5 kmh 29.82 in1009.8 mb 0.00 in0.0 mm 0.00 in0.0 mm 0.00 in0.0 mm
02:22 PM 77.4°F25.2°C 36.7°F2.6°C 23% 6.9 mph SSE11.1 kmh SSE 11.4 mph18.3 kmh 29.82 in1009.8 mb 0.00 in0.0 mm 0.00 in0.0 mm 0.00 in0.0 mm
02:23 PM 77.2°F25.1°C 35.4°F1.9°C 22% 4.5 mph SSE7.2 kmh SSE 10.7 mph17.2 kmh 29.82 in1009.8 mb 0.00 in0.0 mm 0.00 in0.0 mm 0.00 in0.0 mm
02:24 PM 77.0°F25.0°C 36.4°F2.4°C 23% 5.4 mph SSE8.7 kmh SSE 10.7 mph17.2 kmh 29.81 in1009.5 mb 0.00 in0.0 mm 0.00 in0.0 mm 0.00 in0.0 mm
02:25 PM 77.0°F25.0°C 36.4°F2.4°C 23% 4.5 mph SSE7.2 kmh SSE 10.7 mph17.2 kmh 29.81 in1009.5 mb 0.00 in0.0 mm 0.00 in0.0 mm 0.00 in0.0 mm
02:26 PM 76.8°F24.9°C 37.3°F2.9°C 24% 6.9 mph SE11.1 kmh SE 10.7 mph17.2 kmh 29.81 in1009.5 mb 0.00 in0.0 mm 0.00 in0.0 mm 0.00 in0.0 mm
02:27 PM 76.6°F24.8°C 37.2°F2.9°C 24% 3.8 mph SSE6.1 kmh SSE 12.1 mph19.5 kmh 29.81 in1009.5 mb 0.00 in0.0 mm 0.00 in0.0 mm 0.00 in0.0 mm
02:28 PM 76.6°F24.8°C 37.2°F2.9°C 24% 2.2 mph SSE3.5 kmh SSE 12.1 mph19.5 kmh 29.81 in1009.5 mb 0.00 in0.0 mm 0.00 in0.0 mm 0.00 in0.0 mm
02:29 PM 76.8°F24.9°C 37.3°F2.9°C 24% 4.5 mph SSE7.2 kmh SSE 12.1 mph19.5 kmh 29.81 in1009.5 mb 0.00 in0.0 mm 0.00 in0.0 mm 0.00 in0.0 mm
02:30 PM 77.0°F25.0°C 36.4°F2.4°C 23% 4.5 mph SSE7.2 kmh SSE 12.1 mph19.5 kmh 29.81 in1009.5 mb 0.00 in0.0 mm 0.00 in0.0 mm 0.00 in0.0 mm
02:31 PM 77.4°F25.2°C 36.7°F2.6°C 23% 3.8 mph SSE6.1 kmh SSE 12.1 mph19.5 kmh 29.81 in1009.5 mb 0.00 in0.0 mm 0.00 in0.0 mm 0.00 in0.0 mm
02:32 PM 77.5°F25.3°C 36.9°F2.7°C 23% 5.4 mph SE8.7 kmh SE 12.1 mph19.5 kmh 29.81 in1009.5 mb 0.00 in0.0 mm 0.00 in0.0 mm 0.00 in0.0 mm
02:33 PM 77.7°F25.4°C 37.0°F2.8°C 23% 6.9 mph SE11.1 kmh SE 12.1 mph19.5 kmh 29.81 in1009.5 mb 0.00 in0.0 mm 0.00 in0.0 mm 0.00 in0.0 mm
02:34 PM 77.7°F25.4°C 37.0°F2.8°C 23% 3.1 mph SSE5.0 kmh SSE 12.1 mph19.5 kmh 29.81 in1009.5 mb 0.00 in0.0 mm 0.00 in0.0 mm 0.00 in0.0 mm
02:35 PM 77.5°F25.3°C 34.6°F1.4°C 21% 3.8 mph SSE6.1 kmh SSE 12.1 mph19.5 kmh 29.80 in1009.1 mb 0.00 in0.0 mm 0.00 in0.0 mm 0.00 in0.0 mm
02:36 PM 77.7°F25.4°C 33.5°F0.8°C 20% 7.6 mph S12.2 kmh S 12.1 mph19.5 kmh 29.80 in1009.1 mb 0.00 in0.0 mm 0.00 in0.0 mm 0.00 in0.0 mm
02:37 PM 77.9°F25.5°C 32.4°F0.2°C 19% 6.0 mph S9.7 kmh S 10.7 mph17.2 kmh 29.81 in1009.5 mb 0.00 in0.0 mm 0.00 in0.0 mm 0.00 in0.0 mm
02:38 PM 77.9°F25.5°C 32.4°F0.2°C 19% 5.4 mph S8.7 kmh S 10.7 mph17.2 kmh 29.81 in1009.5 mb 0.00 in0.0 mm 0.00 in0.0 mm 0.00 in0.0 mm
02:39 PM 78.3°F25.7°C 31.3°F-0.4°C 18% 6.9 mph S11.1 kmh S 10.7 mph17.2 kmh 29.81 in1009.5 mb 0.00 in0.0 mm 0.00 in0.0 mm 0.00 in0.0 mm
02:40 PM 78.3°F25.7°C 29.9°F-1.2°C 17% 5.4 mph S8.7 kmh S 10.7 mph17.2 kmh 29.80 in1009.1 mb 0.00 in0.0 mm 0.00 in0.0 mm 0.00 in0.0 mm
02:41 PM 78.3°F25.7°C 29.9°F-1.2°C 17% 5.4 mph S8.7 kmh S 10.7 mph17.2 kmh 29.80 in1009.1 mb 0.00 in0.0 mm 0.00 in0.0 mm 0.00 in0.0 mm
02:42 PM 78.3°F25.7°C 29.9°F-1.2°C 17% 9.8 mph S15.8 kmh S 15.9 mph25.6 kmh 29.81 in1009.5 mb 0.00 in0.0 mm 0.00 in0.0 mm 0.00 in0.0 mm
02:43 PM 78.3°F25.7°C 31.3°F-0.4°C 18% 7.6 mph S12.2 kmh S 15.9 mph25.6 kmh 29.80 in1009.1 mb 0.00 in0.0 mm 0.00 in0.0 mm 0.00 in0.0 mm
02:44 PM 78.3°F25.7°C 32.7°F0.4°C 19% 6.9 mph S11.1 kmh S 15.9 mph25.6 kmh 29.80 in1009.1 mb 0.00 in0.0 mm 0.00 in0.0 mm 0.00 in0.0 mm
02:45 PM 78.1°F25.6°C 33.8°F1.0°C 20% 8.3 mph S13.4 kmh S 15.9 mph25.6 kmh 29.80 in1009.1 mb 0.00 in0.0 mm 0.00 in0.0 mm 0.00 in0.0 mm
02:46 PM 77.9°F25.5°C 33.6°F0.9°C 20% 9.2 mph S14.8 kmh S 15.9 mph25.6 kmh 29.80 in1009.1 mb 0.00 in0.0 mm 0.00 in0.0 mm 0.00 in0.0 mm
02:47 PM 77.5°F25.3°C 32.1°F0.1°C 19% 6.9 mph S11.1 kmh S 15.9 mph25.6 kmh 29.80 in1009.1 mb 0.00 in0.0 mm 0.00 in0.0 mm 0.00 in0.0 mm
02:48 PM 77.4°F25.2°C 31.9°F-0.1°C 19% 5.4 mph S8.7 kmh S 15.9 mph25.6 kmh 29.80 in1009.1 mb 0.00 in0.0 mm 0.00 in0.0 mm 0.00 in0.0 mm
02:49 PM 77.5°F25.3°C 33.3°F0.7°C 20% 7.6 mph S12.2 kmh S 15.9 mph25.6 kmh 29.80 in1009.1 mb 0.00 in0.0 mm 0.00 in0.0 mm 0.00 in0.0 mm
02:50 PM 77.7°F25.4°C 33.5°F0.8°C 20% 7.6 mph S12.2 kmh S 15.9 mph25.6 kmh 29.80 in1009.1 mb 0.00 in0.0 mm 0.00 in0.0 mm 0.00 in0.0 mm
02:51 PM 78.1°F25.6°C 33.8°F1.0°C 20% 5.4 mph S8.7 kmh S 15.9 mph25.6 kmh 29.80 in1009.1 mb 0.00 in0.0 mm 0.00 in0.0 mm 0.00 in0.0 mm
02:52 PM 78.3°F25.7°C 33.9°F1.1°C 20% 5.4 mph S8.7 kmh S 14.5 mph23.3 kmh 29.80 in1009.1 mb 0.00 in0.0 mm 0.00 in0.0 mm 0.00 in0.0 mm
02:53 PM 78.3°F25.7°C 32.7°F0.4°C 19% 3.8 mph S6.1 kmh S 14.5 mph23.3 kmh 29.80 in1009.1 mb 0.00 in0.0 mm 0.00 in0.0 mm 0.00 in0.0 mm
02:54 PM 78.1°F25.6°C 32.5°F0.3°C 19% 3.1 mph S5.0 kmh S 14.5 mph23.3 kmh 29.80 in1009.1 mb 0.00 in0.0 mm 0.00 in0.0 mm 0.00 in0.0 mm
02:55 PM 78.1°F25.6°C 32.5°F0.3°C 19% 6.0 mph S9.7 kmh S 14.5 mph23.3 kmh 29.80 in1009.1 mb 0.00 in0.0 mm 0.00 in0.0 mm 0.00 in0.0 mm
02:56 PM 78.1°F25.6°C 32.5°F0.3°C 19% 6.9 mph S11.1 kmh S 11.4 mph18.3 kmh 29.80 in1009.1 mb 0.00 in0.0 mm 0.00 in0.0 mm 0.00 in0.0 mm
02:57 PM 77.9°F25.5°C 32.4°F0.2°C 19% 6.9 mph S11.1 kmh S 15.2 mph24.5 kmh 29.80 in1009.1 mb 0.00 in0.0 mm 0.00 in0.0 mm 0.00 in0.0 mm
02:58 PM 78.1°F25.6°C 32.5°F0.3°C 19% 6.9 mph SSE11.1 kmh SSE 15.2 mph24.5 kmh 29.80 in1009.1 mb 0.00 in0.0 mm 0.00 in0.0 mm 0.00 in0.0 mm
02:59 PM 78.1°F25.6°C 31.2°F-0.4°C 18% 3.8 mph SSE6.1 kmh SSE 15.2 mph24.5 kmh 29.80 in1009.1 mb 0.00 in0.0 mm 0.00 in0.0 mm 0.00 in0.0 mm
03:00 PM 78.1°F25.6°C 31.2°F-0.4°C 18% 5.4 mph SSE8.7 kmh SSE 15.2 mph24.5 kmh 29.80 in1009.1 mb 0.00 in0.0 mm 0.00 in0.0 mm 0.00 in0.0 mm
03:01 PM 78.1°F25.6°C 31.2°F-0.4°C 18% 9.8 mph S15.8 kmh S 17.4 mph28.0 kmh 29.79 in1008.8 mb 0.00 in0.0 mm 0.00 in0.0 mm 0.00 in0.0 mm
03:02 PM 78.1°F25.6°C 31.2°F-0.4°C 18% 6.9 mph SSE11.1 kmh SSE 17.4 mph28.0 kmh 29.80 in1009.1 mb 0.00 in0.0 mm 0.00 in0.0 mm 0.00 in0.0 mm
03:03 PM 77.9°F25.5°C 31.0°F-0.6°C 18% 11.4 mph SSE18.3 kmh SSE 17.4 mph28.0 kmh 29.80 in1009.1 mb 0.00 in0.0 mm 0.00 in0.0 mm 0.00 in0.0 mm
03:04 PM 77.7°F25.4°C 30.9°F-0.6°C 18% 9.8 mph SSE15.8 kmh SSE 17.4 mph28.0 kmh 29.80 in1009.1 mb 0.00 in0.0 mm 0.00 in0.0 mm 0.00 in0.0 mm
03:05 PM 77.5°F25.3°C 30.7°F-0.7°C 18% 6.9 mph SSE11.1 kmh SSE 17.4 mph28.0 kmh 29.79 in1008.8 mb 0.00 in0.0 mm 0.00 in0.0 mm 0.00 in0.0 mm
03:06 PM 77.5°F25.3°C 30.7°F-0.7°C 18% 12.1 mph S19.5 kmh S 17.4 mph28.0 kmh 29.79 in1008.8 mb 0.00 in0.0 mm 0.00 in0.0 mm 0.00 in0.0 mm
03:07 PM 77.5°F25.3°C 29.3°F-1.5°C 17% 7.6 mph S12.2 kmh S 17.4 mph28.0 kmh 29.80 in1009.1 mb 0.00 in0.0 mm 0.00 in0.0 mm 0.00 in0.0 mm
03:08 PM 77.7°F25.4°C 30.9°F-0.6°C 18% 6.9 mph S11.1 kmh S 17.4 mph28.0 kmh 29.79 in1008.8 mb 0.00 in0.0 mm 0.00 in0.0 mm 0.00 in0.0 mm
03:09 PM 77.9°F25.5°C 31.0°F-0.6°C 18% 7.6 mph S12.2 kmh S 17.4 mph28.0 kmh 29.79 in1008.8 mb 0.00 in0.0 mm 0.00 in0.0 mm 0.00 in0.0 mm
03:10 PM 77.9°F25.5°C 31.0°F-0.6°C 18% 7.6 mph S12.2 kmh S 17.4 mph28.0 kmh 29.79 in1008.8 mb 0.00 in0.0 mm 0.00 in0.0 mm 0.00 in0.0 mm
03:11 PM 77.9°F25.5°C 29.6°F-1.3°C 17% 5.4 mph S8.7 kmh S 16.8 mph27.0 kmh 29.80 in1009.1 mb 0.00 in0.0 mm 0.00 in0.0 mm 0.00 in0.0 mm
03:12 PM 77.9°F25.5°C 29.6°F-1.3°C 17% 7.6 mph S12.2 kmh S 15.9 mph25.6 kmh 29.78 in1008.5 mb 0.00 in0.0 mm 0.00 in0.0 mm 0.00 in0.0 mm
03:13 PM 78.1°F25.6°C 29.8°F-1.2°C 17% 6.0 mph S9.7 kmh S 15.9 mph25.6 kmh 29.79 in1008.8 mb 0.00 in0.0 mm 0.00 in0.0 mm 0.00 in0.0 mm
03:14 PM 78.1°F25.6°C 29.8°F-1.2°C 17% 7.6 mph S12.2 kmh S 15.9 mph25.6 kmh 29.79 in1008.8 mb 0.00 in0.0 mm 0.00 in0.0 mm 0.00 in0.0 mm
03:15 PM 78.1°F25.6°C 29.8°F-1.2°C 17% 9.2 mph S14.8 kmh S 15.9 mph25.6 kmh 29.79 in1008.8 mb 0.00 in0.0 mm 0.00 in0.0 mm 0.00 in0.0 mm
03:16 PM 78.1°F25.6°C 29.8°F-1.2°C 17% 4.5 mph S7.2 kmh S 15.2 mph24.5 kmh 29.79 in1008.8 mb 0.00 in0.0 mm 0.00 in0.0 mm 0.00 in0.0 mm
03:17 PM 78.1°F25.6°C 29.8°F-1.2°C 17% 6.9 mph S11.1 kmh S 13.6 mph21.9 kmh 29.79 in1008.8 mb 0.00 in0.0 mm 0.00 in0.0 mm 0.00 in0.0 mm
03:18 PM 78.1°F25.6°C 29.8°F-1.2°C 17% 9.8 mph S15.8 kmh S 13.6 mph21.9 kmh 29.79 in1008.8 mb 0.00 in0.0 mm 0.00 in0.0 mm 0.00 in0.0 mm
03:19 PM 78.1°F25.6°C 31.2°F-0.4°C 18% 5.4 mph S8.7 kmh S 13.6 mph21.9 kmh 29.79 in1008.8 mb 0.00 in0.0 mm 0.00 in0.0 mm 0.00 in0.0 mm
03:20 PM 78.1°F25.6°C 31.2°F-0.4°C 18% 3.8 mph S6.1 kmh S 13.6 mph21.9 kmh 29.78 in1008.5 mb 0.00 in0.0 mm 0.00 in0.0 mm 0.00 in0.0 mm
03:21 PM 78.3°F25.7°C 31.3°F-0.4°C 18% 5.4 mph S8.7 kmh S 13.6 mph21.9 kmh 29.78 in1008.5 mb 0.00 in0.0 mm 0.00 in0.0 mm 0.00 in0.0 mm
03:22 PM 78.4°F25.8°C 32.8°F0.4°C 19% 5.4 mph S8.7 kmh S 13.6 mph21.9 kmh 29.79 in1008.8 mb 0.00 in0.0 mm 0.00 in0.0 mm 0.00 in0.0 mm
03:23 PM 78.4°F25.8°C 32.8°F0.4°C 19% 6.0 mph S9.7 kmh S 13.6 mph21.9 kmh 29.78 in1008.5 mb 0.00 in0.0 mm 0.00 in0.0 mm 0.00 in0.0 mm
03:24 PM 78.4°F25.8°C 32.8°F0.4°C 19% 9.2 mph S14.8 kmh S 13.6 mph21.9 kmh 29.79 in1008.8 mb 0.00 in0.0 mm 0.00 in0.0 mm 0.00 in0.0 mm
03:25 PM 78.4°F25.8°C 32.8°F0.4°C 19% 9.8 mph S15.8 kmh S 14.5 mph23.3 kmh 29.79 in1008.8 mb 0.00 in0.0 mm 0.00 in0.0 mm 0.00 in0.0 mm
03:26 PM 78.4°F25.8°C 31.5°F-0.3°C 18% 9.2 mph S14.8 kmh S 14.5 mph23.3 kmh 29.79 in1008.8 mb 0.00 in0.0 mm 0.00 in0.0 mm 0.00 in0.0 mm
03:27 PM 78.1°F25.6°C 31.2°F-0.4°C 18% 4.5 mph S7.2 kmh S 14.5 mph23.3 kmh 29.78 in1008.5 mb 0.00 in0.0 mm 0.00 in0.0 mm 0.00 in0.0 mm
03:28 PM 78.3°F25.7°C 31.3°F-0.4°C 18% 6.0 mph S9.7 kmh S 14.5 mph23.3 kmh 29.78 in1008.5 mb 0.00 in0.0 mm 0.00 in0.0 mm 0.00 in0.0 mm
03:29 PM 78.4°F25.8°C 31.5°F-0.3°C 18% 6.0 mph S9.7 kmh S 15.9 mph25.6 kmh 29.78 in1008.5 mb 0.00 in0.0 mm 0.00 in0.0 mm 0.00 in0.0 mm
03:30 PM 78.6°F25.9°C 31.6°F-0.2°C 18% 8.3 mph S13.4 kmh S 15.9 mph25.6 kmh 29.78 in1008.5 mb 0.00 in0.0 mm 0.00 in0.0 mm 0.00 in0.0 mm
03:31 PM 78.6°F25.9°C 31.6°F-0.2°C 18% 6.0 mph S9.7 kmh S 15.9 mph25.6 kmh 29.78 in1008.5 mb 0.00 in0.0 mm 0.00 in0.0 mm 0.00 in0.0 mm
03:32 PM 78.6°F25.9°C 31.6°F-0.2°C 18% 3.8 mph S6.1 kmh S 15.9 mph25.6 kmh 29.78 in1008.5 mb 0.00 in0.0 mm 0.00 in0.0 mm 0.00 in0.0 mm
03:33 PM 78.6°F25.9°C 31.6°F-0.2°C 18% 5.4 mph S8.7 kmh S 15.9 mph25.6 kmh 29.78 in1008.5 mb 0.00 in0.0 mm 0.00 in0.0 mm 0.00 in0.0 mm
03:34 PM 78.6°F25.9°C 33.0°F0.6°C 19% 6.0 mph S9.7 kmh S 15.9 mph25.6 kmh 29.78 in1008.5 mb 0.00 in0.0 mm 0.00 in0.0 mm 0.00 in0.0 mm
03:35 PM 79.0°F26.1°C 31.9°F-0.1°C 18% 7.6 mph S12.2 kmh S 15.9 mph25.6 kmh 29.78 in1008.5 mb 0.00 in0.0 mm 0.00 in0.0 mm 0.00 in0.0 mm
03:36 PM 79.0°F26.1°C 33.2°F0.7°C 19% 6.9 mph S11.1 kmh S 15.9 mph25.6 kmh 29.78 in1008.5 mb 0.00 in0.0 mm 0.00 in0.0 mm 0.00 in0.0 mm
03:37 PM 79.0°F26.1°C 33.2°F0.7°C 19% 9.2 mph S14.8 kmh S 15.9 mph25.6 kmh 29.78 in1008.5 mb 0.00 in0.0 mm 0.00 in0.0 mm 0.00 in0.0 mm
03:38 PM 79.0°F26.1°C 33.2°F0.7°C 19% 6.0 mph S9.7 kmh S 15.9 mph25.6 kmh 29.78 in1008.5 mb 0.00 in0.0 mm 0.00 in0.0 mm 0.00 in0.0 mm
03:39 PM 78.6°F25.9°C 33.0°F0.6°C 19% 6.0 mph S9.7 kmh S 15.9 mph25.6 kmh 29.78 in1008.5 mb 0.00 in0.0 mm 0.00 in0.0 mm 0.00 in0.0 mm
03:40 PM 78.4°F25.8°C 32.8°F0.4°C 19% 10.7 mph S17.2 kmh S 17.4 mph28.0 kmh 29.78 in1008.5 mb 0.00 in0.0 mm 0.00 in0.0 mm 0.00 in0.0 mm
03:41 PM 78.4°F25.8°C 32.8°F0.4°C 19% 8.3 mph S13.4 kmh S 17.4 mph28.0 kmh 29.78 in1008.5 mb 0.00 in0.0 mm 0.00 in0.0 mm 0.00 in0.0 mm
03:42 PM 78.4°F25.8°C 31.5°F-0.3°C 18% 8.3 mph S13.4 kmh S 17.4 mph28.0 kmh 29.78 in1008.5 mb 0.00 in0.0 mm 0.00 in0.0 mm 0.00 in0.0 mm
03:43 PM 78.1°F25.6°C 31.2°F-0.4°C 18% 9.8 mph S15.8 kmh S 17.4 mph28.0 kmh 29.78 in1008.5 mb 0.00 in0.0 mm 0.00 in0.0 mm 0.00 in0.0 mm
03:44 PM 78.1°F25.6°C 31.2°F-0.4°C 18% 6.0 mph S9.7 kmh S 17.4 mph28.0 kmh 29.78 in1008.5 mb 0.00 in0.0 mm 0.00 in0.0 mm 0.00 in0.0 mm
03:45 PM 78.1°F25.6°C 31.2°F-0.4°C 18% 8.3 mph S13.4 kmh S 17.4 mph28.0 kmh 29.78 in1008.5 mb 0.00 in0.0 mm 0.00 in0.0 mm 0.00 in0.0 mm
03:46 PM 77.9°F25.5°C 31.0°F-0.6°C 18% 6.9 mph S11.1 kmh S 17.4 mph28.0 kmh 29.78 in1008.5 mb 0.00 in0.0 mm 0.00 in0.0 mm 0.00 in0.0 mm
03:47 PM 77.9°F25.5°C 31.0°F-0.6°C 18% 6.9 mph S11.1 kmh S 17.4 mph28.0 kmh 29.78 in1008.5 mb 0.00 in0.0 mm 0.00 in0.0 mm 0.00 in0.0 mm
03:48 PM 78.1°F25.6°C 31.2°F-0.4°C 18% 4.5 mph S7.2 kmh S 17.4 mph28.0 kmh 29.78 in1008.5 mb 0.00 in0.0 mm 0.00 in0.0 mm 0.00 in0.0 mm
03:49 PM 78.1°F25.6°C 31.2°F-0.4°C 18% 3.8 mph S6.1 kmh S 17.4 mph28.0 kmh 29.78 in1008.5 mb 0.00 in0.0 mm 0.00 in0.0 mm 0.00 in0.0 mm
03:50 PM 78.4°F25.8°C 31.5°F-0.3°C 18% 3.1 mph SSW5.0 kmh SSW 17.4 mph28.0 kmh 29.78 in1008.5 mb 0.00 in0.0 mm 0.00 in0.0 mm 0.00 in0.0 mm
03:51 PM 78.8°F26.0°C 31.8°F-0.1°C 18% 3.8 mph SSW6.1 kmh SSW 13.0 mph20.9 kmh 29.78 in1008.5 mb 0.00 in0.0 mm 0.00 in0.0 mm 0.00 in0.0 mm
03:52 PM 79.0°F26.1°C 31.9°F-0.1°C 18% 5.4 mph SSW8.7 kmh SSW 13.0 mph20.9 kmh 29.78 in1008.5 mb 0.00 in0.0 mm 0.00 in0.0 mm 0.00 in0.0 mm
03:53 PM 79.0°F26.1°C 31.9°F-0.1°C 18% 3.8 mph S6.1 kmh S 12.1 mph19.5 kmh 29.78 in1008.5 mb 0.00 in0.0 mm 0.00 in0.0 mm 0.00 in0.0 mm
03:54 PM 79.0°F26.1°C 31.9°F-0.1°C 18% 8.3 mph S13.4 kmh S 12.1 mph19.5 kmh 29.78 in1008.5 mb 0.00 in0.0 mm 0.00 in0.0 mm 0.00 in0.0 mm
03:55 PM 78.6°F25.9°C 33.0°F0.6°C 19% 8.3 mph S13.4 kmh S 13.0 mph20.9 kmh 29.77 in1008.1 mb 0.00 in0.0 mm 0.00 in0.0 mm 0.00 in0.0 mm
03:56 PM 78.4°F25.8°C 32.8°F0.4°C 19% 6.9 mph S11.1 kmh S 13.0 mph20.9 kmh 29.78 in1008.5 mb 0.00 in0.0 mm 0.00 in0.0 mm 0.00 in0.0 mm
03:57 PM 78.1°F25.6°C 32.5°F0.3°C 19% 6.9 mph S11.1 kmh S 13.0 mph20.9 kmh 29.78 in1008.5 mb 0.00 in0.0 mm 0.00 in0.0 mm 0.00 in0.0 mm
03:58 PM 77.9°F25.5°C 32.4°F0.2°C 19% 6.9 mph S11.1 kmh S 13.0 mph20.9 kmh 29.78 in1008.5 mb 0.00 in0.0 mm 0.00 in0.0 mm 0.00 in0.0 mm
03:59 PM 77.7°F25.4°C 32.2°F0.1°C 19% 6.0 mph SSE9.7 kmh SSE 13.0 mph20.9 kmh 29.77 in1008.1 mb 0.00 in0.0 mm 0.00 in0.0 mm 0.00 in0.0 mm
04:00 PM 77.5°F25.3°C 32.1°F0.1°C 19% 3.8 mph SSE6.1 kmh SSE 13.0 mph20.9 kmh 29.77 in1008.1 mb 0.00 in0.0 mm 0.00 in0.0 mm 0.00 in0.0 mm
04:01 PM 77.5°F25.3°C 32.1°F0.1°C 19% 6.0 mph SSE9.7 kmh SSE 13.0 mph20.9 kmh 29.77 in1008.1 mb 0.00 in0.0 mm 0.00 in0.0 mm 0.00 in0.0 mm
04:02 PM 77.5°F25.3°C 33.3°F0.7°C 20% 8.3 mph S13.4 kmh S 15.2 mph24.5 kmh 29.77 in1008.1 mb 0.00 in0.0 mm 0.00 in0.0 mm 0.00 in0.0 mm
04:03 PM 77.7°F25.4°C 33.5°F0.8°C 20% 5.4 mph S8.7 kmh S 15.2 mph24.5 kmh 29.76 in1007.8 mb 0.00 in0.0 mm 0.00 in0.0 mm 0.00 in0.0 mm
04:04 PM 77.7°F25.4°C 33.5°F0.8°C 20% 6.9 mph S11.1 kmh S 15.2 mph24.5 kmh 29.76 in1007.8 mb 0.00 in0.0 mm 0.00 in0.0 mm 0.00 in0.0 mm
04:05 PM 77.9°F25.5°C 33.6°F0.9°C 20% 4.5 mph SSE7.2 kmh SSE 15.2 mph24.5 kmh 29.77 in1008.1 mb 0.00 in0.0 mm 0.00 in0.0 mm 0.00 in0.0 mm
04:06 PM 77.9°F25.5°C 33.6°F0.9°C 20% 3.1 mph SSE5.0 kmh SSE 15.2 mph24.5 kmh 29.76 in1007.8 mb 0.00 in0.0 mm 0.00 in0.0 mm 0.00 in0.0 mm
04:07 PM 78.1°F25.6°C 36.2°F2.3°C 22% 9.8 mph SSE15.8 kmh SSE 15.2 mph24.5 kmh 29.77 in1008.1 mb 0.00 in0.0 mm 0.00 in0.0 mm 0.00 in0.0 mm
04:08 PM 78.3°F25.7°C 35.2°F1.8°C 21% 7.6 mph SSE12.2 kmh SSE 15.2 mph24.5 kmh 29.76 in1007.8 mb 0.00 in0.0 mm 0.00 in0.0 mm 0.00 in0.0 mm
04:09 PM 78.1°F25.6°C 35.0°F1.7°C 21% 3.8 mph SSE6.1 kmh SSE 15.2 mph24.5 kmh 29.77 in1008.1 mb 0.00 in0.0 mm 0.00 in0.0 mm 0.00 in0.0 mm
04:10 PM 78.3°F25.7°C 33.9°F1.1°C 20% 6.0 mph SSE9.7 kmh SSE 15.2 mph24.5 kmh 29.76 in1007.8 mb 0.00 in0.0 mm 0.00 in0.0 mm 0.00 in0.0 mm
04:11 PM 78.3°F25.7°C 33.9°F1.1°C 20% 4.5 mph SSE7.2 kmh SSE 15.2 mph24.5 kmh 29.76 in1007.8 mb 0.00 in0.0 mm 0.00 in0.0 mm 0.00 in0.0 mm
04:12 PM 78.3°F25.7°C 33.9°F1.1°C 20% 6.0 mph SSE9.7 kmh SSE 13.6 mph21.9 kmh 29.77 in1008.1 mb 0.00 in0.0 mm 0.00 in0.0 mm 0.00 in0.0 mm
04:13 PM 78.4°F25.8°C 34.1°F1.2°C 20% 4.5 mph SSE7.2 kmh SSE 13.6 mph21.9 kmh 29.76 in1007.8 mb 0.00 in0.0 mm 0.00 in0.0 mm 0.00 in0.0 mm
04:14 PM 78.3°F25.7°C 33.9°F1.1°C 20% 4.5 mph SSE7.2 kmh SSE 13.6 mph21.9 kmh 29.76 in1007.8 mb 0.00 in0.0 mm 0.00 in0.0 mm 0.00 in0.0 mm
04:15 PM 78.4°F25.8°C 35.3°F1.8°C 21% 3.8 mph SSE6.1 kmh SSE 13.6 mph21.9 kmh 29.76 in1007.8 mb 0.00 in0.0 mm 0.00 in0.0 mm 0.00 in0.0 mm
04:16 PM 78.8°F26.0°C 35.6°F2.0°C 21% 6.9 mph SSE11.1 kmh SSE 13.6 mph21.9 kmh 29.76 in1007.8 mb 0.00 in0.0 mm 0.00 in0.0 mm 0.00 in0.0 mm
04:17 PM 78.8°F26.0°C 34.4°F1.3°C 20% 4.5 mph SSE7.2 kmh SSE 13.6 mph21.9 kmh 29.76 in1007.8 mb 0.00 in0.0 mm 0.00 in0.0 mm 0.00 in0.0 mm
04:18 PM 78.8°F26.0°C 34.4°F1.3°C 20% 4.5 mph SSE7.2 kmh SSE 13.6 mph21.9 kmh 29.76 in1007.8 mb 0.00 in0.0 mm 0.00 in0.0 mm 0.00 in0.0 mm
04:19 PM 78.6°F25.9°C 34.2°F1.2°C 20% 6.0 mph SSE9.7 kmh SSE 10.7 mph17.2 kmh 29.76 in1007.8 mb 0.00 in0.0 mm 0.00 in0.0 mm 0.00 in0.0 mm
04:20 PM 78.4°F25.8°C 34.1°F1.2°C 20% 6.9 mph SSE11.1 kmh SSE 10.7 mph17.2 kmh 29.76 in1007.8 mb 0.00 in0.0 mm 0.00 in0.0 mm 0.00 in0.0 mm
04:21 PM 78.4°F25.8°C 34.1°F1.2°C 20% 6.9 mph SSE11.1 kmh SSE 10.7 mph17.2 kmh 29.76 in1007.8 mb 0.00 in0.0 mm 0.00 in0.0 mm 0.00 in0.0 mm
04:22 PM 78.1°F25.6°C 33.8°F1.0°C 20% 3.8 mph SSE6.1 kmh SSE 10.7 mph17.2 kmh 29.76 in1007.8 mb 0.00 in0.0 mm 0.00 in0.0 mm 0.00 in0.0 mm
04:23 PM 77.9°F25.5°C 33.6°F0.9°C 20% 5.4 mph SSE8.7 kmh SSE 10.7 mph17.2 kmh 29.76 in1007.8 mb 0.00 in0.0 mm 0.00 in0.0 mm 0.00 in0.0 mm
04:24 PM 77.9°F25.5°C 33.6°F0.9°C 20% 5.4 mph SSE8.7 kmh SSE 10.7 mph17.2 kmh 29.76 in1007.8 mb 0.00 in0.0 mm 0.00 in0.0 mm 0.00 in0.0 mm
04:25 PM 78.1°F25.6°C 33.8°F1.0°C 20% 3.1 mph SSE5.0 kmh SSE 10.7 mph17.2 kmh 29.76 in1007.8 mb 0.00 in0.0 mm 0.00 in0.0 mm 0.00 in0.0 mm
04:26 PM 77.9°F25.5°C 33.6°F0.9°C 20% 3.1 mph SSE5.0 kmh SSE 10.7 mph17.2 kmh 29.76 in1007.8 mb 0.00 in0.0 mm 0.00 in0.0 mm 0.00 in0.0 mm
04:27 PM 78.1°F25.6°C 33.8°F1.0°C 20% 3.1 mph SE5.0 kmh SE 10.7 mph17.2 kmh 29.76 in1007.8 mb 0.00 in0.0 mm 0.00 in0.0 mm 0.00 in0.0 mm
04:28 PM 78.3°F25.7°C 33.9°F1.1°C 20% 1.6 mph SE2.6 kmh SE 10.7 mph17.2 kmh 29.76 in1007.8 mb 0.00 in0.0 mm 0.00 in0.0 mm 0.00 in0.0 mm
04:29 PM 78.4°F25.8°C 35.3°F1.8°C 21% 2.2 mph SE3.5 kmh SE 9.8 mph15.8 kmh 29.75 in1007.5 mb 0.00 in0.0 mm 0.00 in0.0 mm 0.00 in0.0 mm
04:30 PM 78.6°F25.9°C 35.5°F1.9°C 21% 1.6 mph SE2.6 kmh SE 9.8 mph15.8 kmh 29.76 in1007.8 mb 0.00 in0.0 mm 0.00 in0.0 mm 0.00 in0.0 mm
04:31 PM 79.0°F26.1°C 34.5°F1.4°C 20% 9.8 mph SE15.8 kmh SE 13.6 mph21.9 kmh 29.75 in1007.5 mb 0.00 in0.0 mm 0.00 in0.0 mm 0.00 in0.0 mm
04:32 PM 79.2°F26.2°C 34.7°F1.5°C 20% 6.9 mph SSE11.1 kmh SSE 13.6 mph21.9 kmh 29.75 in1007.5 mb 0.00 in0.0 mm 0.00 in0.0 mm 0.00 in0.0 mm
04:33 PM 79.0°F26.1°C 33.2°F0.7°C 19% 5.4 mph SSE8.7 kmh SSE 13.6 mph21.9 kmh 29.75 in1007.5 mb 0.00 in0.0 mm 0.00 in0.0 mm 0.00 in0.0 mm
04:34 PM 79.0°F26.1°C 31.9°F-0.1°C 18% 6.0 mph S9.7 kmh S 13.6 mph21.9 kmh 29.76 in1007.8 mb 0.00 in0.0 mm 0.00 in0.0 mm 0.00 in0.0 mm
04:35 PM 78.8°F26.0°C 33.1°F0.6°C 19% 4.5 mph S7.2 kmh S 13.6 mph21.9 kmh 29.76 in1007.8 mb 0.00 in0.0 mm 0.00 in0.0 mm 0.00 in0.0 mm
04:36 PM 78.6°F25.9°C 35.5°F1.9°C 21% 6.9 mph S11.1 kmh S 13.6 mph21.9 kmh 29.76 in1007.8 mb 0.00 in0.0 mm 0.00 in0.0 mm 0.00 in0.0 mm
04:37 PM 78.6°F25.9°C 35.5°F1.9°C 21% 4.5 mph S7.2 kmh S 13.6 mph21.9 kmh 29.76 in1007.8 mb 0.00 in0.0 mm 0.00 in0.0 mm 0.00 in0.0 mm
04:38 PM 78.6°F25.9°C 35.5°F1.9°C 21% 2.2 mph S3.5 kmh S 13.6 mph21.9 kmh 29.76 in1007.8 mb 0.00 in0.0 mm 0.00 in0.0 mm 0.00 in0.0 mm
04:39 PM 78.8°F26.0°C 34.4°F1.3°C 20% 6.0 mph S9.7 kmh S 13.6 mph21.9 kmh 29.76 in1007.8 mb 0.00 in0.0 mm 0.00 in0.0 mm 0.00 in0.0 mm
04:40 PM 78.8°F26.0°C 34.4°F1.3°C 20% 5.4 mph S8.7 kmh S 13.6 mph21.9 kmh 29.75 in1007.5 mb 0.00 in0.0 mm 0.00 in0.0 mm 0.00 in0.0 mm
04:41 PM 78.6°F25.9°C 34.2°F1.2°C 20% 7.6 mph S12.2 kmh S 13.6 mph21.9 kmh 29.76 in1007.8 mb 0.00 in0.0 mm 0.00 in0.0 mm 0.00 in0.0 mm
04:42 PM 78.4°F25.8°C 35.3°F1.8°C 21% 9.8 mph S15.8 kmh S 19.0 mph30.6 kmh 29.76 in1007.8 mb 0.00 in0.0 mm 0.00 in0.0 mm 0.00 in0.0 mm
04:43 PM 78.4°F25.8°C 35.3°F1.8°C 21% 9.8 mph S15.8 kmh S 19.0 mph30.6 kmh 29.76 in1007.8 mb 0.00 in0.0 mm 0.00 in0.0 mm 0.00 in0.0 mm
04:44 PM 78.4°F25.8°C 35.3°F1.8°C 21% 8.3 mph S13.4 kmh S 19.0 mph30.6 kmh 29.76 in1007.8 mb 0.00 in0.0 mm 0.00 in0.0 mm 0.00 in0.0 mm
04:45 PM 78.4°F25.8°C 34.1°F1.2°C 20% 6.9 mph S11.1 kmh S 19.0 mph30.6 kmh 29.75 in1007.5 mb 0.00 in0.0 mm 0.00 in0.0 mm 0.00 in0.0 mm
04:46 PM 78.1°F25.6°C 33.8°F1.0°C 20% 6.9 mph S11.1 kmh S 19.0 mph30.6 kmh 29.75 in1007.5 mb 0.00 in0.0 mm 0.00 in0.0 mm 0.00 in0.0 mm
04:47 PM 77.7°F25.4°C 32.2°F0.1°C 19% 4.5 mph S7.2 kmh S 19.0 mph30.6 kmh 29.76 in1007.8 mb 0.00 in0.0 mm 0.00 in0.0 mm 0.00 in0.0 mm
04:48 PM 77.7°F25.4°C 32.2°F0.1°C 19% 3.8 mph S6.1 kmh S 19.0 mph30.6 kmh 29.75 in1007.5 mb 0.00 in0.0 mm 0.00 in0.0 mm 0.00 in0.0 mm
04:49 PM 77.7°F25.4°C 33.5°F0.8°C 20% 5.4 mph S8.7 kmh S 19.0 mph30.6 kmh 29.75 in1007.5 mb 0.00 in0.0 mm 0.00 in0.0 mm 0.00 in0.0 mm
04:50 PM 77.9°F25.5°C 33.6°F0.9°C 20% 4.5 mph S7.2 kmh S 19.0 mph30.6 kmh 29.75 in1007.5 mb 0.00 in0.0 mm 0.00 in0.0 mm 0.00 in0.0 mm
04:51 PM 78.1°F25.6°C 33.8°F1.0°C 20% 2.2 mph S3.5 kmh S 19.0 mph30.6 kmh 29.76 in1007.8 mb 0.00 in0.0 mm 0.00 in0.0 mm 0.00 in0.0 mm
04:52 PM 78.4°F25.8°C 34.1°F1.2°C 20% 4.5 mph SSE7.2 kmh SSE 15.2 mph24.5 kmh 29.75 in1007.5 mb 0.00 in0.0 mm 0.00 in0.0 mm 0.00 in0.0 mm
04:53 PM 78.6°F25.9°C 34.2°F1.2°C 20% 5.4 mph SSE8.7 kmh SSE 15.2 mph24.5 kmh 29.75 in1007.5 mb 0.00 in0.0 mm 0.00 in0.0 mm 0.00 in0.0 mm
04:54 PM 78.8°F26.0°C 33.1°F0.6°C 19% 3.1 mph SSE5.0 kmh SSE 13.0 mph20.9 kmh 29.75 in1007.5 mb 0.00 in0.0 mm 0.00 in0.0 mm 0.00 in0.0 mm
04:55 PM 79.0°F26.1°C 33.2°F0.7°C 19% 4.5 mph SSE7.2 kmh SSE 10.7 mph17.2 kmh 29.75 in1007.5 mb 0.00 in0.0 mm 0.00 in0.0 mm 0.00 in0.0 mm
04:56 PM 79.0°F26.1°C 34.5°F1.4°C 20% 3.8 mph SSE6.1 kmh SSE 10.7 mph17.2 kmh 29.75 in1007.5 mb 0.00 in0.0 mm 0.00 in0.0 mm 0.00 in0.0 mm
04:57 PM 79.0°F26.1°C 34.5°F1.4°C 20% 3.1 mph SSE5.0 kmh SSE 10.7 mph17.2 kmh 29.75 in1007.5 mb 0.00 in0.0 mm 0.00 in0.0 mm 0.00 in0.0 mm
04:58 PM 79.0°F26.1°C 34.5°F1.4°C 20% 3.8 mph SSE6.1 kmh SSE 10.7 mph17.2 kmh 29.75 in1007.5 mb 0.00 in0.0 mm 0.00 in0.0 mm 0.00 in0.0 mm
04:59 PM 79.0°F26.1°C 34.5°F1.4°C 20% 4.5 mph SSE7.2 kmh SSE 9.2 mph14.8 kmh 29.75 in1007.5 mb 0.00 in0.0 mm 0.00 in0.0 mm 0.00 in0.0 mm
05:00 PM 79.0°F26.1°C 34.5°F1.4°C 20% 3.8 mph SE6.1 kmh SE 9.8 mph15.8 kmh 29.75 in1007.5 mb 0.00 in0.0 mm 0.00 in0.0 mm 0.00 in0.0 mm
05:01 PM 79.0°F26.1°C 33.2°F0.7°C 19% 6.9 mph SE11.1 kmh SE 9.8 mph15.8 kmh 29.75 in1007.5 mb 0.00 in0.0 mm 0.00 in0.0 mm 0.00 in0.0 mm
05:02 PM 79.0°F26.1°C 31.9°F-0.1°C 18% 3.8 mph SE6.1 kmh SE 9.8 mph15.8 kmh 29.75 in1007.5 mb 0.00 in0.0 mm 0.00 in0.0 mm 0.00 in0.0 mm
05:03 PM 79.0°F26.1°C 30.5°F-0.8°C 17% 7.6 mph SE12.2 kmh SE 11.4 mph18.3 kmh 29.75 in1007.5 mb 0.00 in0.0 mm 0.00 in0.0 mm 0.00 in0.0 mm
05:04 PM 79.0°F26.1°C 29.0°F-1.7°C 16% 3.8 mph SSE6.1 kmh SSE 11.4 mph18.3 kmh 29.75 in1007.5 mb 0.00 in0.0 mm 0.00 in0.0 mm 0.00 in0.0 mm
05:05 PM 79.0°F26.1°C 29.0°F-1.7°C 16% 3.8 mph SSE6.1 kmh SSE 11.4 mph18.3 kmh 29.74 in1007.1 mb 0.00 in0.0 mm 0.00 in0.0 mm 0.00 in0.0 mm
05:06 PM 79.0°F26.1°C 29.0°F-1.7°C 16% 5.4 mph SSE8.7 kmh SSE 11.4 mph18.3 kmh 29.74 in1007.1 mb 0.00 in0.0 mm 0.00 in0.0 mm 0.00 in0.0 mm
05:07 PM 79.0°F26.1°C 29.0°F-1.7°C 16% 2.2 mph SSE3.5 kmh SSE 11.4 mph18.3 kmh 29.75 in1007.5 mb 0.00 in0.0 mm 0.00 in0.0 mm 0.00 in0.0 mm
05:08 PM 79.0°F26.1°C 29.0°F-1.7°C 16% 3.1 mph S5.0 kmh S 11.4 mph18.3 kmh 29.74 in1007.1 mb 0.00 in0.0 mm 0.00 in0.0 mm 0.00 in0.0 mm
05:09 PM 79.0°F26.1°C 29.0°F-1.7°C 16% 3.8 mph S6.1 kmh S 11.4 mph18.3 kmh 29.74 in1007.1 mb 0.00 in0.0 mm 0.00 in0.0 mm 0.00 in0.0 mm
05:10 PM 79.2°F26.2°C 29.2°F-1.6°C 16% 3.1 mph S5.0 kmh S 11.4 mph18.3 kmh 29.74 in1007.1 mb 0.00 in0.0 mm 0.00 in0.0 mm 0.00 in0.0 mm
05:11 PM 79.3°F26.3°C 30.8°F-0.7°C 17% 7.6 mph S12.2 kmh S 11.4 mph18.3 kmh 29.74 in1007.1 mb 0.00 in0.0 mm 0.00 in0.0 mm 0.00 in0.0 mm
05:12 PM 79.2°F26.2°C 30.6°F-0.8°C 17% 7.6 mph S12.2 kmh S 11.4 mph18.3 kmh 29.74 in1007.1 mb 0.00 in0.0 mm 0.00 in0.0 mm 0.00 in0.0 mm
05:14 PM 78.8°F26.0°C 30.3°F-0.9°C 17% 7.6 mph S12.2 kmh S 11.4 mph18.3 kmh 29.75 in1007.5 mb 0.00 in0.0 mm 0.00 in0.0 mm 0.00 in0.0 mm
05:15 PM 78.4°F25.8°C 31.5°F-0.3°C 18% 6.9 mph S11.1 kmh S 11.4 mph18.3 kmh 29.74 in1007.1 mb 0.00 in0.0 mm 0.00 in0.0 mm 0.00 in0.0 mm
05:16 PM 78.4°F25.8°C 31.5°F-0.3°C 18% 6.9 mph S11.1 kmh S 11.4 mph18.3 kmh 29.74 in1007.1 mb 0.00 in0.0 mm 0.00 in0.0 mm 0.00 in0.0 mm
05:17 PM 78.4°F25.8°C 31.5°F-0.3°C 18% 4.5 mph SSW7.2 kmh SSW 11.4 mph18.3 kmh 29.74 in1007.1 mb 0.00 in0.0 mm 0.00 in0.0 mm 0.00 in0.0 mm
05:18 PM 78.4°F25.8°C 31.5°F-0.3°C 18% 6.9 mph SSW11.1 kmh SSW 11.4 mph18.3 kmh 29.74 in1007.1 mb 0.00 in0.0 mm 0.00 in0.0 mm 0.00 in0.0 mm
05:19 PM 78.4°F25.8°C 31.5°F-0.3°C 18% 3.8 mph SSW6.1 kmh SSW 11.4 mph18.3 kmh 29.74 in1007.1 mb 0.00 in0.0 mm 0.00 in0.0 mm 0.00 in0.0 mm
05:20 PM 78.4°F25.8°C 31.5°F-0.3°C 18% 3.8 mph SSW6.1 kmh SSW 11.4 mph18.3 kmh 29.74 in1007.1 mb 0.00 in0.0 mm 0.00 in0.0 mm 0.00 in0.0 mm
05:21 PM 78.4°F25.8°C 31.5°F-0.3°C 18% 6.0 mph SSW9.7 kmh SSW 11.4 mph18.3 kmh 29.74 in1007.1 mb 0.00 in0.0 mm 0.00 in0.0 mm 0.00 in0.0 mm
05:22 PM 78.6°F25.9°C 31.6°F-0.2°C 18% 3.8 mph SSW6.1 kmh SSW 11.4 mph18.3 kmh 29.74 in1007.1 mb 0.00 in0.0 mm 0.00 in0.0 mm 0.00 in0.0 mm
05:23 PM 78.6°F25.9°C 33.0°F0.6°C 19% 3.8 mph SSW6.1 kmh SSW 9.8 mph15.8 kmh 29.74 in1007.1 mb 0.00 in0.0 mm 0.00 in0.0 mm 0.00 in0.0 mm
05:24 PM 78.6°F25.9°C 33.0°F0.6°C 19% 3.8 mph SSW6.1 kmh SSW 9.8 mph15.8 kmh 29.74 in1007.1 mb 0.00 in0.0 mm 0.00 in0.0 mm 0.00 in0.0 mm
05:25 PM 78.6°F25.9°C 33.0°F0.6°C 19% 5.4 mph SSW8.7 kmh SSW 9.8 mph15.8 kmh 29.74 in1007.1 mb 0.00 in0.0 mm 0.00 in0.0 mm 0.00 in0.0 mm
05:26 PM 78.6°F25.9°C 33.0°F0.6°C 19% 6.9 mph SSW11.1 kmh SSW 10.7 mph17.2 kmh 29.74 in1007.1 mb 0.00 in0.0 mm 0.00 in0.0 mm 0.00 in0.0 mm
05:27 PM 78.4°F25.8°C 34.1°F1.2°C 20% 7.6 mph S12.2 kmh S 13.0 mph20.9 kmh 29.73 in1006.8 mb 0.00 in0.0 mm 0.00 in0.0 mm 0.00 in0.0 mm
05:28 PM 78.4°F25.8°C 34.1°F1.2°C 20% 4.5 mph S7.2 kmh S 13.0 mph20.9 kmh 29.74 in1007.1 mb 0.00 in0.0 mm 0.00 in0.0 mm 0.00 in0.0 mm
05:29 PM 78.3°F25.7°C 33.9°F1.1°C 20% 6.0 mph S9.7 kmh S 13.0 mph20.9 kmh 29.73 in1006.8 mb 0.00 in0.0 mm 0.00 in0.0 mm 0.00 in0.0 mm
05:30 PM 78.3°F25.7°C 33.9°F1.1°C 20% 7.6 mph S12.2 kmh S 13.0 mph20.9 kmh 29.74 in1007.1 mb 0.00 in0.0 mm 0.00 in0.0 mm 0.00 in0.0 mm
05:31 PM 78.1°F25.6°C 33.8°F1.0°C 20% 3.1 mph S5.0 kmh S 13.0 mph20.9 kmh 29.73 in1006.8 mb 0.00 in0.0 mm 0.00 in0.0 mm 0.00 in0.0 mm
05:32 PM 78.1°F25.6°C 33.8°F1.0°C 20% 2.2 mph S3.5 kmh S 13.0 mph20.9 kmh 29.74 in1007.1 mb 0.00 in0.0 mm 0.00 in0.0 mm 0.00 in0.0 mm
05:33 PM 78.1°F25.6°C 33.8°F1.0°C 20% 2.2 mph S3.5 kmh S 13.0 mph20.9 kmh 29.74 in1007.1 mb 0.00 in0.0 mm 0.00 in0.0 mm 0.00 in0.0 mm
05:34 PM 78.3°F25.7°C 35.2°F1.8°C 21% 6.9 mph S11.1 kmh S 13.0 mph20.9 kmh 29.73 in1006.8 mb 0.00 in0.0 mm 0.00 in0.0 mm 0.00 in0.0 mm
05:35 PM 78.4°F25.8°C 34.1°F1.2°C 20% 5.4 mph S8.7 kmh S 13.0 mph20.9 kmh 29.73 in1006.8 mb 0.00 in0.0 mm 0.00 in0.0 mm 0.00 in0.0 mm
05:36 PM 78.3°F25.7°C 33.9°F1.1°C 20% 3.1 mph S5.0 kmh S 13.0 mph20.9 kmh 29.74 in1007.1 mb 0.00 in0.0 mm 0.00 in0.0 mm 0.00 in0.0 mm
05:37 PM 78.3°F25.7°C 33.9°F1.1°C 20% 3.1 mph S5.0 kmh S 13.0 mph20.9 kmh 29.73 in1006.8 mb 0.00 in0.0 mm 0.00 in0.0 mm 0.00 in0.0 mm
05:38 PM 78.1°F25.6°C 33.8°F1.0°C 20% 3.1 mph S5.0 kmh S 11.4 mph18.3 kmh 29.73 in1006.8 mb 0.00 in0.0 mm 0.00 in0.0 mm 0.00 in0.0 mm
05:39 PM 78.1°F25.6°C 35.0°F1.7°C 21% 3.8 mph SSE6.1 kmh SSE 10.7 mph17.2 kmh 29.73 in1006.8 mb 0.00 in0.0 mm 0.00 in0.0 mm 0.00 in0.0 mm
05:40 PM 78.1°F25.6°C 33.8°F1.0°C 20% 5.4 mph SSE8.7 kmh SSE 8.3 mph13.4 kmh 29.73 in1006.8 mb 0.00 in0.0 mm 0.00 in0.0 mm 0.00 in0.0 mm
05:41 PM 78.1°F25.6°C 35.0°F1.7°C 21% 1.6 mph SSE2.6 kmh SSE 8.3 mph13.4 kmh 29.73 in1006.8 mb 0.00 in0.0 mm 0.00 in0.0 mm 0.00 in0.0 mm
05:42 PM 78.1°F25.6°C 35.0°F1.7°C 21% 0.7 mph SSE1.1 kmh SSE 8.3 mph13.4 kmh 29.73 in1006.8 mb 0.00 in0.0 mm 0.00 in0.0 mm 0.00 in0.0 mm
05:43 PM 78.4°F25.8°C 35.3°F1.8°C 21% 2.2 mph SSE3.5 kmh SSE 8.3 mph13.4 kmh 29.73 in1006.8 mb 0.00 in0.0 mm 0.00 in0.0 mm 0.00 in0.0 mm
05:44 PM 78.6°F25.9°C 36.6°F2.6°C 22% 1.6 mph SSE2.6 kmh SSE 8.3 mph13.4 kmh 29.73 in1006.8 mb 0.00 in0.0 mm 0.00 in0.0 mm 0.00 in0.0 mm
05:45 PM 78.8°F26.0°C 35.6°F2.0°C 21% 4.5 mph SE7.2 kmh SE 9.8 mph15.8 kmh 29.73 in1006.8 mb 0.00 in0.0 mm 0.00 in0.0 mm 0.00 in0.0 mm
05:46 PM 79.0°F26.1°C 35.8°F2.1°C 21% 2.2 mph SE3.5 kmh SE 9.8 mph15.8 kmh 29.73 in1006.8 mb 0.00 in0.0 mm 0.00 in0.0 mm 0.00 in0.0 mm
05:47 PM 79.0°F26.1°C 34.5°F1.4°C 20% 5.4 mph SSE8.7 kmh SSE 9.8 mph15.8 kmh 29.73 in1006.8 mb 0.00 in0.0 mm 0.00 in0.0 mm 0.00 in0.0 mm
05:48 PM 79.0°F26.1°C 33.2°F0.7°C 19% 3.1 mph S5.0 kmh S 9.8 mph15.8 kmh 29.73 in1006.8 mb 0.00 in0.0 mm 0.00 in0.0 mm 0.00 in0.0 mm
05:49 PM 79.2°F26.2°C 32.1°F0.1°C 18% 6.0 mph S9.7 kmh S 9.8 mph15.8 kmh 29.73 in1006.8 mb 0.00 in0.0 mm 0.00 in0.0 mm 0.00 in0.0 mm
05:50 PM 79.2°F26.2°C 32.1°F0.1°C 18% 5.4 mph S8.7 kmh S 9.8 mph15.8 kmh 29.73 in1006.8 mb 0.00 in0.0 mm 0.00 in0.0 mm 0.00 in0.0 mm
05:51 PM 79.2°F26.2°C 30.6°F-0.8°C 17% 6.0 mph SSW9.7 kmh SSW 9.8 mph15.8 kmh 29.73 in1006.8 mb 0.00 in0.0 mm 0.00 in0.0 mm 0.00 in0.0 mm
05:52 PM 79.2°F26.2°C 29.2°F-1.6°C 16% 5.4 mph SSW8.7 kmh SSW 9.8 mph15.8 kmh 29.73 in1006.8 mb 0.00 in0.0 mm 0.00 in0.0 mm 0.00 in0.0 mm
05:53 PM 79.2°F26.2°C 29.2°F-1.6°C 16% 6.0 mph SSW9.7 kmh SSW 9.8 mph15.8 kmh 29.73 in1006.8 mb 0.00 in0.0 mm 0.00 in0.0 mm 0.00 in0.0 mm
05:54 PM 79.2°F26.2°C 29.2°F-1.6°C 16% 4.5 mph SSW7.2 kmh SSW 9.8 mph15.8 kmh 29.73 in1006.8 mb 0.00 in0.0 mm 0.00 in0.0 mm 0.00 in0.0 mm
05:55 PM 79.2°F26.2°C 29.2°F-1.6°C 16% 3.8 mph SSW6.1 kmh SSW 9.8 mph15.8 kmh 29.74 in1007.1 mb 0.00 in0.0 mm 0.00 in0.0 mm 0.00 in0.0 mm
05:56 PM 79.2°F26.2°C 30.6°F-0.8°C 17% 1.6 mph SSW2.6 kmh SSW 9.8 mph15.8 kmh 29.73 in1006.8 mb 0.00 in0.0 mm 0.00 in0.0 mm 0.00 in0.0 mm
05:57 PM 79.2°F26.2°C 32.1°F0.1°C 18% 1.6 mph S2.6 kmh S 9.8 mph15.8 kmh 29.73 in1006.8 mb 0.00 in0.0 mm 0.00 in0.0 mm 0.00 in0.0 mm
05:58 PM 79.2°F26.2°C 33.4°F0.8°C 19% 1.6 mph S2.6 kmh S 9.8 mph15.8 kmh 29.73 in1006.8 mb 0.00 in0.0 mm 0.00 in0.0 mm 0.00 in0.0 mm
05:59 PM 79.2°F26.2°C 34.7°F1.5°C 20% 5.4 mph S8.7 kmh S 9.8 mph15.8 kmh 29.73 in1006.8 mb 0.00 in0.0 mm 0.00 in0.0 mm 0.00 in0.0 mm
06:00 PM 79.0°F26.1°C 33.2°F0.7°C 19% 3.8 mph S6.1 kmh S 8.3 mph13.4 kmh 29.73 in1006.8 mb 0.00 in0.0 mm 0.00 in0.0 mm 0.00 in0.0 mm
06:01 PM 79.0°F26.1°C 33.2°F0.7°C 19% 3.8 mph S6.1 kmh S 8.3 mph13.4 kmh 29.73 in1006.8 mb 0.00 in0.0 mm 0.00 in0.0 mm 0.00 in0.0 mm
06:02 PM 78.8°F26.0°C 33.1°F0.6°C 19% 4.5 mph S7.2 kmh S 8.3 mph13.4 kmh 29.73 in1006.8 mb 0.00 in0.0 mm 0.00 in0.0 mm 0.00 in0.0 mm
06:03 PM 78.3°F25.7°C 33.9°F1.1°C 20% 3.8 mph SSE6.1 kmh SSE 8.3 mph13.4 kmh 29.73 in1006.8 mb 0.00 in0.0 mm 0.00 in0.0 mm 0.00 in0.0 mm
06:04 PM 78.3°F25.7°C 33.9°F1.1°C 20% 2.2 mph SE3.5 kmh SE 8.3 mph13.4 kmh 29.73 in1006.8 mb 0.00 in0.0 mm 0.00 in0.0 mm 0.00 in0.0 mm
06:05 PM 78.1°F25.6°C 35.0°F1.7°C 21% 3.1 mph SE5.0 kmh SE 8.3 mph13.4 kmh 29.73 in1006.8 mb 0.00 in0.0 mm 0.00 in0.0 mm 0.00 in0.0 mm
06:06 PM 78.3°F25.7°C 35.2°F1.8°C 21% 4.5 mph SE7.2 kmh SE 8.3 mph13.4 kmh 29.73 in1006.8 mb 0.00 in0.0 mm 0.00 in0.0 mm 0.00 in0.0 mm
06:07 PM 78.1°F25.6°C 35.0°F1.7°C 21% 2.2 mph SSE3.5 kmh SSE 8.3 mph13.4 kmh 29.73 in1006.8 mb 0.00 in0.0 mm 0.00 in0.0 mm 0.00 in0.0 mm
06:08 PM 78.1°F25.6°C 35.0°F1.7°C 21% 2.2 mph SSE3.5 kmh SSE 8.3 mph13.4 kmh 29.73 in1006.8 mb 0.00 in0.0 mm 0.00 in0.0 mm 0.00 in0.0 mm
06:09 PM 78.1°F25.6°C 36.2°F2.3°C 22% 3.1 mph SE5.0 kmh SE 8.3 mph13.4 kmh 29.73 in1006.8 mb 0.00 in0.0 mm 0.00 in0.0 mm 0.00 in0.0 mm
06:10 PM 78.1°F25.6°C 36.2°F2.3°C 22% 1.6 mph SE2.6 kmh SE 8.3 mph13.4 kmh 29.73 in1006.8 mb 0.00 in0.0 mm 0.00 in0.0 mm 0.00 in0.0 mm
06:11 PM 78.1°F25.6°C 36.2°F2.3°C 22% 2.2 mph SE3.5 kmh SE 6.9 mph11.1 kmh 29.73 in1006.8 mb 0.00 in0.0 mm 0.00 in0.0 mm 0.00 in0.0 mm
06:12 PM 78.3°F25.7°C 35.2°F1.8°C 21% 2.2 mph SE3.5 kmh SE 6.9 mph11.1 kmh 29.73 in1006.8 mb 0.00 in0.0 mm 0.00 in0.0 mm 0.00 in0.0 mm
06:13 PM 78.3°F25.7°C 35.2°F1.8°C 21% 3.8 mph SE6.1 kmh SE 6.9 mph11.1 kmh 29.73 in1006.8 mb 0.00 in0.0 mm 0.00 in0.0 mm 0.00 in0.0 mm
06:14 PM 78.3°F25.7°C 35.2°F1.8°C 21% 4.5 mph SE7.2 kmh SE 6.9 mph11.1 kmh 29.73 in1006.8 mb 0.00 in0.0 mm 0.00 in0.0 mm 0.00 in0.0 mm
06:15 PM 78.1°F25.6°C 35.0°F1.7°C 21% 4.5 mph SE7.2 kmh SE 7.6 mph12.2 kmh 29.73 in1006.8 mb 0.00 in0.0 mm 0.00 in0.0 mm 0.00 in0.0 mm
06:16 PM 77.9°F25.5°C 34.9°F1.6°C 21% 3.8 mph SE6.1 kmh SE 7.6 mph12.2 kmh 29.73 in1006.8 mb 0.00 in0.0 mm 0.00 in0.0 mm 0.00 in0.0 mm
06:17 PM 77.9°F25.5°C 34.9°F1.6°C 21% 3.1 mph SE5.0 kmh SE 7.6 mph12.2 kmh 29.73 in1006.8 mb 0.00 in0.0 mm 0.00 in0.0 mm 0.00 in0.0 mm
06:18 PM 77.7°F25.4°C 34.7°F1.5°C 21% 2.2 mph SE3.5 kmh SE 7.6 mph12.2 kmh 29.73 in1006.8 mb 0.00 in0.0 mm 0.00 in0.0 mm 0.00 in0.0 mm
06:19 PM 77.7°F25.4°C 35.9°F2.2°C 22% 0.7 mph SE1.1 kmh SE 7.6 mph12.2 kmh 29.73 in1006.8 mb 0.00 in0.0 mm 0.00 in0.0 mm 0.00 in0.0 mm
06:20 PM 77.9°F25.5°C 37.2°F2.9°C 23% 0.7 mph SE1.1 kmh SE 7.6 mph12.2 kmh 29.73 in1006.8 mb 0.00 in0.0 mm 0.00 in0.0 mm 0.00 in0.0 mm
06:21 PM 77.9°F25.5°C 37.2°F2.9°C 23% 2.2 mph SE3.5 kmh SE 7.6 mph12.2 kmh 29.73 in1006.8 mb 0.00 in0.0 mm 0.00 in0.0 mm 0.00 in0.0 mm
06:22 PM 78.1°F25.6°C 37.3°F2.9°C 23% 3.1 mph SE5.0 kmh SE 7.6 mph12.2 kmh 29.73 in1006.8 mb 0.00 in0.0 mm 0.00 in0.0 mm 0.00 in0.0 mm
06:23 PM 78.3°F25.7°C 37.5°F3.1°C 23% 1.6 mph SE2.6 kmh SE 7.6 mph12.2 kmh 29.73 in1006.8 mb 0.00 in0.0 mm 0.00 in0.0 mm 0.00 in0.0 mm
06:24 PM 78.3°F25.7°C 37.5°F3.1°C 23% 3.8 mph SE6.1 kmh SE 7.6 mph12.2 kmh 29.73 in1006.8 mb 0.00 in0.0 mm 0.00 in0.0 mm 0.00 in0.0 mm
06:25 PM 78.3°F25.7°C 37.5°F3.1°C 23% 3.1 mph ESE5.0 kmh ESE 7.6 mph12.2 kmh 29.73 in1006.8 mb 0.00 in0.0 mm 0.00 in0.0 mm 0.00 in0.0 mm
06:26 PM 78.3°F25.7°C 37.5°F3.1°C 23% 2.2 mph ESE3.5 kmh ESE 6.0 mph9.7 kmh 29.73 in1006.8 mb 0.00 in0.0 mm 0.00 in0.0 mm 0.00 in0.0 mm
06:27 PM 78.3°F25.7°C 37.5°F3.1°C 23% 3.8 mph ESE6.1 kmh ESE 5.4 mph8.7 kmh 29.73 in1006.8 mb 0.00 in0.0 mm 0.00 in0.0 mm 0.00 in0.0 mm
06:28 PM 78.1°F25.6°C 37.3°F2.9°C 23% 3.8 mph ESE6.1 kmh ESE 5.4 mph8.7 kmh 29.73 in1006.8 mb 0.00 in0.0 mm 0.00 in0.0 mm 0.00 in0.0 mm
06:29 PM 78.1°F25.6°C 37.3°F2.9°C 23% 3.1 mph ESE5.0 kmh ESE 6.0 mph9.7 kmh 29.73 in1006.8 mb 0.00 in0.0 mm 0.00 in0.0 mm 0.00 in0.0 mm
06:30 PM 77.9°F25.5°C 37.2°F2.9°C 23% 3.1 mph ESE5.0 kmh ESE 6.0 mph9.7 kmh 29.73 in1006.8 mb 0.00 in0.0 mm 0.00 in0.0 mm 0.00 in0.0 mm
06:31 PM 77.9°F25.5°C 37.2°F2.9°C 23% 3.1 mph ESE5.0 kmh ESE 6.9 mph11.1 kmh 29.73 in1006.8 mb 0.00 in0.0 mm 0.00 in0.0 mm 0.00 in0.0 mm
06:32 PM 77.7°F25.4°C 37.0°F2.8°C 23% 1.6 mph ESE2.6 kmh ESE 6.9 mph11.1 kmh 29.72 in1006.4 mb 0.00 in0.0 mm 0.00 in0.0 mm 0.00 in0.0 mm
06:33 PM 77.7°F25.4°C 37.0°F2.8°C 23% 2.2 mph SE3.5 kmh SE 6.9 mph11.1 kmh 29.73 in1006.8 mb 0.00 in0.0 mm 0.00 in0.0 mm 0.00 in0.0 mm
06:34 PM 77.9°F25.5°C 37.2°F2.9°C 23% 4.5 mph SE7.2 kmh SE 6.9 mph11.1 kmh 29.73 in1006.8 mb 0.00 in0.0 mm 0.00 in0.0 mm 0.00 in0.0 mm
06:35 PM 77.9°F25.5°C 37.2°F2.9°C 23% 2.2 mph SE3.5 kmh SE 6.9 mph11.1 kmh 29.72 in1006.4 mb 0.00 in0.0 mm 0.00 in0.0 mm 0.00 in0.0 mm
06:36 PM 77.9°F25.5°C 37.2°F2.9°C 23% 1.6 mph SE2.6 kmh SE 6.9 mph11.1 kmh 29.73 in1006.8 mb 0.00 in0.0 mm 0.00 in0.0 mm 0.00 in0.0 mm
06:37 PM 77.9°F25.5°C 37.2°F2.9°C 23% 3.1 mph SE5.0 kmh SE 6.9 mph11.1 kmh 29.72 in1006.4 mb 0.00 in0.0 mm 0.00 in0.0 mm 0.00 in0.0 mm
06:38 PM 77.9°F25.5°C 37.2°F2.9°C 23% 2.2 mph SE3.5 kmh SE 6.9 mph11.1 kmh 29.73 in1006.8 mb 0.00 in0.0 mm 0.00 in0.0 mm 0.00 in0.0 mm
06:39 PM 77.9°F25.5°C 37.2°F2.9°C 23% 2.2 mph SSE3.5 kmh SSE 6.9 mph11.1 kmh 29.73 in1006.8 mb 0.00 in0.0 mm 0.00 in0.0 mm 0.00 in0.0 mm
06:40 PM 77.9°F25.5°C 37.2°F2.9°C 23% 2.2 mph SSE3.5 kmh SSE 6.9 mph11.1 kmh 29.73 in1006.8 mb 0.00 in0.0 mm 0.00 in0.0 mm 0.00 in0.0 mm
06:41 PM 77.9°F25.5°C 37.2°F2.9°C 23% 2.2 mph SSE3.5 kmh SSE 6.9 mph11.1 kmh 29.73 in1006.8 mb 0.00 in0.0 mm 0.00 in0.0 mm 0.00 in0.0 mm
06:42 PM 77.9°F25.5°C 37.2°F2.9°C 23% 2.2 mph SSE3.5 kmh SSE 6.9 mph11.1 kmh 29.72 in1006.4 mb 0.00 in0.0 mm 0.00 in0.0 mm 0.00 in0.0 mm
06:43 PM 77.5°F25.3°C 36.9°F2.7°C 23% 3.1 mph SSE5.0 kmh SSE 6.9 mph11.1 kmh 29.73 in1006.8 mb 0.00 in0.0 mm 0.00 in0.0 mm 0.00 in0.0 mm
06:44 PM 77.5°F25.3°C 36.9°F2.7°C 23% 2.2 mph SSE3.5 kmh SSE 5.4 mph8.7 kmh 29.73 in1006.8 mb 0.00 in0.0 mm 0.00 in0.0 mm 0.00 in0.0 mm
06:45 PM 77.5°F25.3°C 36.9°F2.7°C 23% 0.7 mph S1.1 kmh S 5.4 mph8.7 kmh 29.73 in1006.8 mb 0.00 in0.0 mm 0.00 in0.0 mm 0.00 in0.0 mm
06:46 PM 77.5°F25.3°C 36.9°F2.7°C 23% 3.1 mph S5.0 kmh S 5.4 mph8.7 kmh 29.73 in1006.8 mb 0.00 in0.0 mm 0.00 in0.0 mm 0.00 in0.0 mm
06:47 PM 77.5°F25.3°C 36.9°F2.7°C 23% 3.8 mph S6.1 kmh S 6.9 mph11.1 kmh 29.73 in1006.8 mb 0.00 in0.0 mm 0.00 in0.0 mm 0.00 in0.0 mm
06:48 PM 77.5°F25.3°C 36.9°F2.7°C 23% 3.8 mph S6.1 kmh S 6.9 mph11.1 kmh 29.73 in1006.8 mb 0.00 in0.0 mm 0.00 in0.0 mm 0.00 in0.0 mm
06:49 PM 77.4°F25.2°C 35.6°F2.0°C 22% 4.5 mph S7.2 kmh S 6.9 mph11.1 kmh 29.72 in1006.4 mb 0.00 in0.0 mm 0.00 in0.0 mm 0.00 in0.0 mm
06:50 PM 77.4°F25.2°C 35.6°F2.0°C 22% 2.2 mph S3.5 kmh S 6.9 mph11.1 kmh 29.72 in1006.4 mb 0.00 in0.0 mm 0.00 in0.0 mm 0.00 in0.0 mm
06:51 PM 77.2°F25.1°C 36.6°F2.6°C 23% 2.2 mph S3.5 kmh S 6.9 mph11.1 kmh 29.73 in1006.8 mb 0.00 in0.0 mm 0.00 in0.0 mm 0.00 in0.0 mm
06:52 PM 77.2°F25.1°C 36.6°F2.6°C 23% 0.7 mph SSE1.1 kmh SSE 6.9 mph11.1 kmh 29.73 in1006.8 mb 0.00 in0.0 mm 0.00 in0.0 mm 0.00 in0.0 mm
06:53 PM 77.2°F25.1°C 36.6°F2.6°C 23% 2.2 mph SSE3.5 kmh SSE 6.9 mph11.1 kmh 29.73 in1006.8 mb 0.00 in0.0 mm 0.00 in0.0 mm 0.00 in0.0 mm
06:54 PM 77.2°F25.1°C 36.6°F2.6°C 23% 3.8 mph SSE6.1 kmh SSE 6.9 mph11.1 kmh 29.73 in1006.8 mb 0.00 in0.0 mm 0.00 in0.0 mm 0.00 in0.0 mm
06:55 PM 77.0°F25.0°C 36.4°F2.4°C 23% 3.1 mph SSE5.0 kmh SSE 6.9 mph11.1 kmh 29.73 in1006.8 mb 0.00 in0.0 mm 0.00 in0.0 mm 0.00 in0.0 mm
06:56 PM 77.0°F25.0°C 37.5°F3.1°C 24% 2.2 mph SSE3.5 kmh SSE 6.9 mph11.1 kmh 29.73 in1006.8 mb 0.00 in0.0 mm 0.00 in0.0 mm 0.00 in0.0 mm
06:57 PM 76.8°F24.9°C 38.4°F3.6°C 25% 0.7 mph SE1.1 kmh SE 6.9 mph11.1 kmh 29.73 in1006.8 mb 0.00 in0.0 mm 0.00 in0.0 mm 0.00 in0.0 mm
06:58 PM 76.8°F24.9°C 38.4°F3.6°C 25% 2.2 mph SE3.5 kmh SE 6.9 mph11.1 kmh 29.73 in1006.8 mb 0.00 in0.0 mm 0.00 in0.0 mm 0.00 in0.0 mm
06:59 PM 76.8°F24.9°C 38.4°F3.6°C 25% 3.1 mph SE5.0 kmh SE 6.0 mph9.7 kmh 29.73 in1006.8 mb 0.00 in0.0 mm 0.00 in0.0 mm 0.00 in0.0 mm
07:00 PM 76.6°F24.8°C 38.2°F3.4°C 25% 3.8 mph SE6.1 kmh SE 6.0 mph9.7 kmh 29.73 in1006.8 mb 0.00 in0.0 mm 0.00 in0.0 mm 0.00 in0.0 mm
07:02 PM 76.5°F24.7°C 38.1°F3.4°C 25% Calm Calm 5.4 mph8.7 kmh 29.73 in1006.8 mb 0.00 in0.0 mm 0.00 in0.0 mm 0.00 in0.0 mm
07:03 PM 76.5°F24.7°C 38.1°F3.4°C 25% 3.1 mph SE5.0 kmh SE 5.4 mph8.7 kmh 29.73 in1006.8 mb 0.00 in0.0 mm 0.00 in0.0 mm 0.00 in0.0 mm
07:04 PM 76.5°F24.7°C 38.1°F3.4°C 25% 1.6 mph SE2.6 kmh SE 5.4 mph8.7 kmh 29.73 in1006.8 mb 0.00 in0.0 mm 0.00 in0.0 mm 0.00 in0.0 mm
07:05 PM 76.3°F24.6°C 37.9°F3.3°C 25% 1.6 mph SE2.6 kmh SE 5.4 mph8.7 kmh 29.73 in1006.8 mb 0.00 in0.0 mm 0.00 in0.0 mm 0.00 in0.0 mm
07:06 PM 76.3°F24.6°C 37.9°F3.3°C 25% 2.2 mph SE3.5 kmh SE 5.4 mph8.7 kmh 29.73 in1006.8 mb 0.00 in0.0 mm 0.00 in0.0 mm 0.00 in0.0 mm
07:07 PM 76.1°F24.5°C 37.8°F3.2°C 25% 3.1 mph SE5.0 kmh SE 5.4 mph8.7 kmh 29.73 in1006.8 mb 0.00 in0.0 mm 0.00 in0.0 mm 0.00 in0.0 mm
07:08 PM 76.1°F24.5°C 37.8°F3.2°C 25% 2.2 mph SE3.5 kmh SE 5.4 mph8.7 kmh 29.73 in1006.8 mb 0.00 in0.0 mm 0.00 in0.0 mm 0.00 in0.0 mm
07:09 PM 75.9°F24.4°C 37.6°F3.1°C 25% 2.2 mph SE3.5 kmh SE 5.4 mph8.7 kmh 29.73 in1006.8 mb 0.00 in0.0 mm 0.00 in0.0 mm 0.00 in0.0 mm
07:10 PM 75.9°F24.4°C 37.6°F3.1°C 25% 3.8 mph SE6.1 kmh SE 5.4 mph8.7 kmh 29.73 in1006.8 mb 0.00 in0.0 mm 0.00 in0.0 mm 0.00 in0.0 mm
07:11 PM 75.6°F24.2°C 37.3°F2.9°C 25% 1.6 mph SE2.6 kmh SE 5.4 mph8.7 kmh 29.73 in1006.8 mb 0.00 in0.0 mm 0.00 in0.0 mm 0.00 in0.0 mm
07:12 PM 75.4°F24.1°C 37.1°F2.8°C 25% 2.2 mph SE3.5 kmh SE 5.4 mph8.7 kmh 29.73 in1006.8 mb 0.00 in0.0 mm 0.00 in0.0 mm 0.00 in0.0 mm
07:13 PM 75.4°F24.1°C 37.1°F2.8°C 25% 2.2 mph SE3.5 kmh SE 5.4 mph8.7 kmh 29.73 in1006.8 mb 0.00 in0.0 mm 0.00 in0.0 mm 0.00 in0.0 mm
07:14 PM 75.4°F24.1°C 37.1°F2.8°C 25% 2.2 mph SE3.5 kmh SE 5.4 mph8.7 kmh 29.73 in1006.8 mb 0.00 in0.0 mm 0.00 in0.0 mm 0.00 in0.0 mm
07:15 PM 75.2°F24.0°C 37.0°F2.8°C 25% Calm Calm 5.4 mph8.7 kmh 29.73 in1006.8 mb 0.00 in0.0 mm 0.00 in0.0 mm 0.00 in0.0 mm
07:16 PM 75.2°F24.0°C 37.0°F2.8°C 25% 1.6 mph SE2.6 kmh SE 5.4 mph8.7 kmh 29.73 in1006.8 mb 0.00 in0.0 mm 0.00 in0.0 mm 0.00 in0.0 mm
07:17 PM 75.2°F24.0°C 37.0°F2.8°C 25% Calm Calm 5.4 mph8.7 kmh 29.72 in1006.4 mb 0.00 in0.0 mm 0.00 in0.0 mm 0.00 in0.0 mm
07:18 PM 75.4°F24.1°C 37.1°F2.8°C 25% 2.2 mph SE3.5 kmh SE 5.4 mph8.7 kmh 29.73 in1006.8 mb 0.00 in0.0 mm 0.00 in0.0 mm 0.00 in0.0 mm
07:19 PM 75.4°F24.1°C 37.1°F2.8°C 25% 1.6 mph SE2.6 kmh SE 5.4 mph8.7 kmh 29.73 in1006.8 mb 0.00 in0.0 mm 0.00 in0.0 mm 0.00 in0.0 mm
07:20 PM 75.2°F24.0°C 37.0°F2.8°C 25% 0.7 mph SE1.1 kmh SE 4.5 mph7.2 kmh 29.73 in1006.8 mb 0.00 in0.0 mm 0.00 in0.0 mm 0.00 in0.0 mm
07:21 PM 75.2°F24.0°C 37.0°F2.8°C 25% 0.7 mph SE1.1 kmh SE 3.8 mph6.1 kmh 29.73 in1006.8 mb 0.00 in0.0 mm 0.00 in0.0 mm 0.00 in0.0 mm
07:22 PM 75.2°F24.0°C 37.0°F2.8°C 25% 0.7 mph ESE1.1 kmh ESE 3.8 mph6.1 kmh 29.73 in1006.8 mb 0.00 in0.0 mm 0.00 in0.0 mm 0.00 in0.0 mm
07:23 PM 75.2°F24.0°C 37.0°F2.8°C 25% 0.7 mph SE1.1 kmh SE 3.8 mph6.1 kmh 29.73 in1006.8 mb 0.00 in0.0 mm 0.00 in0.0 mm 0.00 in0.0 mm
07:24 PM 75.2°F24.0°C 37.0°F2.8°C 25% 2.2 mph SE3.5 kmh SE 3.8 mph6.1 kmh 29.73 in1006.8 mb 0.00 in0.0 mm 0.00 in0.0 mm 0.00 in0.0 mm
07:25 PM 75.0°F23.9°C 37.8°F3.2°C 26% 1.6 mph ESE2.6 kmh ESE 3.8 mph6.1 kmh 29.73 in1006.8 mb 0.00 in0.0 mm 0.00 in0.0 mm 0.00 in0.0 mm
07:26 PM 75.0°F23.9°C 37.8°F3.2°C 26% 0.7 mph ESE1.1 kmh ESE 3.8 mph6.1 kmh 29.73 in1006.8 mb 0.00 in0.0 mm 0.00 in0.0 mm 0.00 in0.0 mm
07:27 PM 74.8°F23.8°C 38.6°F3.7°C 27% 1.6 mph ESE2.6 kmh ESE 3.8 mph6.1 kmh 29.73 in1006.8 mb 0.00 in0.0 mm 0.00 in0.0 mm 0.00 in0.0 mm
07:28 PM 74.8°F23.8°C 38.6°F3.7°C 27% 1.6 mph SE2.6 kmh SE 3.8 mph6.1 kmh 29.73 in1006.8 mb 0.00 in0.0 mm 0.00 in0.0 mm 0.00 in0.0 mm
07:29 PM 74.7°F23.7°C 38.5°F3.6°C 27% 1.6 mph SE2.6 kmh SE 3.8 mph6.1 kmh 29.73 in1006.8 mb 0.00 in0.0 mm 0.00 in0.0 mm 0.00 in0.0 mm
07:31 PM 74.5°F23.6°C 38.3°F3.5°C 27% Calm Calm 3.8 mph6.1 kmh 29.73 in1006.8 mb 0.00 in0.0 mm 0.00 in0.0 mm 0.00 in0.0 mm
07:35 PM 74.1°F23.4°C 38.9°F3.8°C 28% Calm Calm 3.1 mph5.0 kmh 29.73 in1006.8 mb 0.00 in0.0 mm 0.00 in0.0 mm 0.00 in0.0 mm
07:40 PM 73.4°F23.0°C 39.2°F4.0°C 29% 0.7 mph SE1.1 kmh SE 3.1 mph5.0 kmh 29.73 in1006.8 mb 0.00 in0.0 mm 0.00 in0.0 mm 0.00 in0.0 mm
07:45 PM 72.7°F22.6°C 38.6°F3.7°C 29% 0.7 mph ESE1.1 kmh ESE 2.2 mph3.5 kmh 29.73 in1006.8 mb 0.00 in0.0 mm 0.00 in0.0 mm 0.00 in0.0 mm
07:47 PM 72.5°F22.5°C 38.5°F3.6°C 29% Calm Calm 2.2 mph3.5 kmh 29.73 in1006.8 mb 0.00 in0.0 mm 0.00 in0.0 mm 0.00 in0.0 mm
07:48 PM 72.3°F22.4°C 38.3°F3.5°C 29% 0.7 mph SE1.1 kmh SE 2.2 mph3.5 kmh 29.73 in1006.8 mb 0.00 in0.0 mm 0.00 in0.0 mm 0.00 in0.0 mm
07:49 PM 72.3°F22.4°C 38.3°F3.5°C 29% Calm Calm 2.2 mph3.5 kmh 29.73 in1006.8 mb 0.00 in0.0 mm 0.00 in0.0 mm 0.00 in0.0 mm
07:50 PM 72.1°F22.3°C 39.0°F3.9°C 30% Calm Calm 2.2 mph3.5 kmh 29.73 in1006.8 mb 0.00 in0.0 mm 0.00 in0.0 mm 0.00 in0.0 mm